Time,TemperatureF,DewpointF,PressureIn,WindDirection,WindDirectionDegrees,WindSpeedMPH,WindSpeedGustMPH,Humidity,HourlyPrecipIn,Conditions,Clouds,dailyrainin,SoftwareType,DateUTC
2013-02-03 00:00:00,50.7,32.3,30.18,WNW,292,0.0,0.0,49,0.00,,---,0.00,VWS V14.01,2013-02-03 05:00:00,
2013-02-03 00:01:00,50.7,32.3,30.18,WNW,292,0.0,0.0,49,0.00,,---,0.00,VWS V14.01,2013-02-03 05:01:00,
2013-02-03 00:02:00,50.7,32.3,30.18,WNW,292,0.0,2.2,49,0.00,,---,0.00,VWS V14.01,2013-02-03 05:02:00,
2013-02-03 00:03:00,50.7,32.3,30.18,WNW,292,0.9,0.9,49,0.00,,---,0.00,VWS V14.01,2013-02-03 05:03:00,
2013-02-03 00:04:00,50.7,32.3,30.18,WNW,292,0.0,0.9,49,0.00,,---,0.00,VWS V14.01,2013-02-03 05:04:00,
2013-02-03 00:05:00,50.7,32.3,30.18,WNW,292,0.0,0.9,49,0.00,,---,0.00,VWS V14.01,2013-02-03 05:05:00,
2013-02-03 00:06:00,50.7,32.3,30.18,WNW,292,0.0,0.0,49,0.00,,---,0.00,VWS V14.01,2013-02-03 05:06:00,
2013-02-03 00:07:00,50.7,32.3,30.18,WNW,292,0.0,0.0,49,0.00,,---,0.00,VWS V14.01,2013-02-03 05:07:00,
2013-02-03 00:08:00,50.9,32.4,30.18,WNW,292,2.9,2.9,49,0.00,,---,0.00,VWS V14.01,2013-02-03 05:08:00,
2013-02-03 00:09:00,50.7,32.3,30.18,WNW,292,1.6,1.6,49,0.00,,---,0.00,VWS V14.01,2013-02-03 05:09:00,
2013-02-03 00:10:00,50.7,32.3,30.18,WNW,292,0.0,1.6,49,0.00,,---,0.00,VWS V14.01,2013-02-03 05:10:00,
2013-02-03 00:11:00,50.9,32.4,30.18,WNW,292,0.0,1.1,49,0.00,,---,0.00,VWS V14.01,2013-02-03 05:11:00,
2013-02-03 00:12:00,50.9,32.4,30.18,WNW,292,2.0,2.0,49,0.00,,---,0.00,VWS V14.01,2013-02-03 05:12:00,
2013-02-03 00:13:00,50.9,31.9,30.18,WNW,292,0.0,0.0,48,0.00,,---,0.00,VWS V14.01,2013-02-03 05:13:00,
2013-02-03 00:14:00,50.9,32.4,30.18,WNW,292,0.0,2.9,49,0.00,,---,0.00,VWS V14.01,2013-02-03 05:14:00,
2013-02-03 00:15:00,51.1,32.6,30.18,WNW,292,0.0,0.9,49,0.00,,---,0.00,VWS V14.01,2013-02-03 05:15:00,
2013-02-03 00:16:00,51.1,32.6,30.18,WNW,292,0.0,2.0,49,0.00,,---,0.00,VWS V14.01,2013-02-03 05:16:00,
2013-02-03 00:17:00,51.1,32.6,30.18,WNW,292,0.0,1.1,49,0.00,,---,0.00,VWS V14.01,2013-02-03 05:17:00,
2013-02-03 00:18:00,50.7,31.8,30.18,WNW,292,0.0,0.0,48,0.00,,---,0.00,VWS V14.01,2013-02-03 05:18:00,
2013-02-03 00:19:00,50.9,31.9,30.18,WNW,292,0.0,0.0,48,0.00,,---,0.00,VWS V14.01,2013-02-03 05:19:00,
2013-02-03 00:20:00,50.9,31.9,30.18,WNW,292,0.0,0.0,48,0.00,,---,0.00,VWS V14.01,2013-02-03 05:20:00,
2013-02-03 00:21:00,50.7,31.8,30.18,WNW,292,0.0,0.0,48,0.00,,---,0.00,VWS V14.01,2013-02-03 05:21:00,
2013-02-03 00:22:00,50.7,31.8,30.18,WNW,292,0.0,0.0,48,0.00,,---,0.00,VWS V14.01,2013-02-03 05:22:00,
2013-02-03 00:23:00,50.7,31.8,30.18,WNW,292,0.0,0.0,48,0.00,,---,0.00,VWS V14.01,2013-02-03 05:23:00,
2013-02-03 00:24:00,50.7,31.8,30.18,WNW,292,0.0,0.0,48,0.00,,---,0.00,VWS V14.01,2013-02-03 05:24:00,
2013-02-03 00:25:00,50.7,31.8,30.18,NNW,338,0.0,0.9,48,0.00,,---,0.00,VWS V14.01,2013-02-03 05:25:00,
2013-02-03 00:26:00,50.7,31.8,30.18,NW,315,0.0,1.1,48,0.00,,---,0.00,VWS V14.01,2013-02-03 05:26:00,
2013-02-03 00:27:00,50.7,31.8,30.18,WNW,292,1.3,1.3,48,0.00,,---,0.00,VWS V14.01,2013-02-03 05:27:00,
2013-02-03 00:28:00,50.7,31.8,30.18,WNW,292,0.9,1.6,48,0.00,,---,0.00,VWS V14.01,2013-02-03 05:28:00,
2013-02-03 00:29:00,50.7,31.8,30.18,WNW,292,0.0,0.0,48,0.00,,---,0.00,VWS V14.01,2013-02-03 05:29:00,
2013-02-03 00:30:00,50.7,31.8,30.18,WNW,292,0.0,0.0,48,0.00,,---,0.00,VWS V14.01,2013-02-03 05:30:00,
2013-02-03 00:31:00,50.7,31.8,30.18,NNW,338,0.0,0.0,48,0.00,,---,0.00,VWS V14.01,2013-02-03 05:31:00,
2013-02-03 00:32:00,50.7,31.8,30.18,WNW,292,1.1,1.6,48,0.00,,---,0.00,VWS V14.01,2013-02-03 05:32:00,
2013-02-03 00:33:00,50.5,31.6,30.18,WNW,292,0.0,0.0,48,0.00,,---,0.00,VWS V14.01,2013-02-03 05:33:00,
2013-02-03 00:34:00,50.7,31.8,30.18,WNW,292,0.0,1.6,48,0.00,,---,0.00,VWS V14.01,2013-02-03 05:34:00,
2013-02-03 00:35:00,50.5,31.6,30.18,WNW,292,0.0,1.6,48,0.00,,---,0.00,VWS V14.01,2013-02-03 05:35:00,
2013-02-03 00:36:00,50.5,31.6,30.18,WNW,292,0.0,0.9,48,0.00,,---,0.00,VWS V14.01,2013-02-03 05:36:00,
2013-02-03 00:37:00,50.5,31.6,30.18,WNW,292,0.0,0.0,48,0.00,,---,0.00,VWS V14.01,2013-02-03 05:37:00,
2013-02-03 00:38:00,50.5,31.6,30.18,West,270,0.0,0.0,48,0.00,,---,0.00,VWS V14.01,2013-02-03 05:38:00,
2013-02-03 00:39:00,50.5,31.6,30.18,West,270,2.7,2.7,48,0.00,,---,0.00,VWS V14.01,2013-02-03 05:39:00,
2013-02-03 00:40:00,50.5,31.6,30.18,West,270,0.0,2.7,48,0.00,,---,0.00,VWS V14.01,2013-02-03 05:40:00,
2013-02-03 00:41:00,50.5,31.6,30.18,West,270,0.0,0.0,48,0.00,,---,0.00,VWS V14.01,2013-02-03 05:41:00,
2013-02-03 00:42:00,50.5,31.6,30.18,West,270,0.0,0.0,48,0.00,,---,0.00,VWS V14.01,2013-02-03 05:42:00,
2013-02-03 00:43:00,50.5,31.6,30.18,WNW,292,0.0,0.0,48,0.00,,---,0.00,VWS V14.01,2013-02-03 05:43:00,
2013-02-03 00:44:00,50.5,31.6,30.18,West,270,0.0,0.0,48,0.00,,---,0.00,VWS V14.01,2013-02-03 05:44:00,
2013-02-03 00:45:00,50.5,31.6,30.18,West,270,0.0,0.0,48,0.00,,---,0.00,VWS V14.01,2013-02-03 05:45:00,
2013-02-03 00:46:00,50.5,31.6,30.18,WNW,292,0.9,2.0,48,0.00,,---,0.00,VWS V14.01,2013-02-03 05:46:00,
2013-02-03 00:47:00,50.5,31.6,30.18,WNW,292,0.0,0.9,48,0.00,,---,0.00,VWS V14.01,2013-02-03 05:47:00,
2013-02-03 00:48:00,50.5,31.6,30.18,WNW,292,0.0,0.0,48,0.00,,---,0.00,VWS V14.01,2013-02-03 05:48:00,
2013-02-03 00:49:00,50.5,31.6,30.18,WNW,292,0.0,0.0,48,0.00,,---,0.00,VWS V14.01,2013-02-03 05:49:00,
2013-02-03 00:50:00,50.5,31.6,30.18,WNW,292,0.0,0.0,48,0.00,,---,0.00,VWS V14.01,2013-02-03 05:50:00,
2013-02-03 00:51:00,50.5,31.6,30.18,WNW,292,0.0,0.0,48,0.00,,---,0.00,VWS V14.01,2013-02-03 05:51:00,
2013-02-03 00:52:00,50.5,31.6,30.18,WNW,292,0.0,1.3,48,0.00,,---,0.00,VWS V14.01,2013-02-03 05:52:00,
2013-02-03 00:53:00,50.5,31.6,30.18,NW,315,0.0,0.0,48,0.00,,---,0.00,VWS V14.01,2013-02-03 05:53:00,
2013-02-03 00:54:00,50.5,31.6,30.18,WNW,292,0.0,0.0,48,0.00,,---,0.00,VWS V14.01,2013-02-03 05:54:00,
2013-02-03 00:55:00,50.5,31.6,30.18,WNW,292,0.0,0.0,48,0.00,,---,0.00,VWS V14.01,2013-02-03 05:55:00,
2013-02-03 00:56:00,50.5,31.6,30.18,WNW,292,0.0,0.0,48,0.00,,---,0.00,VWS V14.01,2013-02-03 05:56:00,
2013-02-03 00:57:00,50.5,31.6,30.18,WNW,292,0.0,0.0,48,0.00,,---,0.00,VWS V14.01,2013-02-03 05:57:00,
2013-02-03 00:58:00,50.4,31.4,30.18,WNW,292,0.0,0.0,48,0.00,,---,0.00,VWS V14.01,2013-02-03 05:58:00,
2013-02-03 00:59:00,50.5,31.6,30.18,NW,315,0.0,0.0,48,0.00,,---,0.00,VWS V14.01,2013-02-03 05:59:00,
2013-02-03 01:00:00,50.5,31.6,30.18,NW,315,0.0,0.0,48,0.00,,---,0.00,VWS V14.01,2013-02-03 06:00:00,
2013-02-03 01:01:00,50.4,31.4,30.18,NW,315,0.0,0.0,48,0.00,,---,0.00,VWS V14.01,2013-02-03 06:01:00,
2013-02-03 01:02:00,50.4,31.4,30.18,WNW,292,0.0,0.0,48,0.00,,---,0.00,VWS V14.01,2013-02-03 06:02:00,
2013-02-03 01:03:00,50.4,31.4,30.18,WNW,292,0.0,0.0,48,0.00,,---,0.00,VWS V14.01,2013-02-03 06:03:00,
2013-02-03 01:04:00,50.4,31.4,30.18,WNW,292,0.0,0.0,48,0.00,,---,0.00,VWS V14.01,2013-02-03 06:04:00,
2013-02-03 01:05:00,50.4,31.4,30.18,WNW,292,1.1,2.2,48,0.00,,---,0.00,VWS V14.01,2013-02-03 06:05:00,
2013-02-03 01:06:00,50.4,31.4,30.18,WNW,292,0.0,1.1,48,0.00,,---,0.00,VWS V14.01,2013-02-03 06:06:00,
2013-02-03 01:07:00,50.4,31.4,30.18,WNW,292,0.0,0.0,48,0.00,,---,0.00,VWS V14.01,2013-02-03 06:07:00,
2013-02-03 01:08:00,50.4,31.4,30.18,NNW,338,0.0,0.0,48,0.00,,---,0.00,VWS V14.01,2013-02-03 06:08:00,
2013-02-03 01:09:00,50.4,31.4,30.18,WNW,292,0.0,0.0,48,0.00,,---,0.00,VWS V14.01,2013-02-03 06:09:00,
2013-02-03 01:10:00,50.4,31.4,30.18,WNW,292,0.0,0.0,48,0.00,,---,0.00,VWS V14.01,2013-02-03 06:10:00,
2013-02-03 01:11:00,50.4,31.4,30.18,WNW,292,0.0,0.0,48,0.00,,---,0.00,VWS V14.01,2013-02-03 06:11:00,
2013-02-03 01:12:00,50.2,31.3,30.18,WNW,292,0.0,0.0,48,0.00,,---,0.00,VWS V14.01,2013-02-03 06:12:00,
2013-02-03 01:13:00,50.2,31.3,30.18,WNW,292,0.0,0.0,48,0.00,,---,0.00,VWS V14.01,2013-02-03 06:13:00,
2013-02-03 01:14:00,50.4,31.4,30.18,NNW,338,0.0,0.0,48,0.00,,---,0.00,VWS V14.01,2013-02-03 06:14:00,
2013-02-03 01:15:00,50.2,31.3,30.18,NNW,338,0.0,0.0,48,0.00,,---,0.00,VWS V14.01,2013-02-03 06:15:00,
2013-02-03 01:16:00,50.2,31.3,30.18,NW,315,0.0,0.0,48,0.00,,---,0.00,VWS V14.01,2013-02-03 06:16:00,
2013-02-03 01:17:00,50.2,31.3,30.18,WNW,292,0.0,0.0,48,0.00,,---,0.00,VWS V14.01,2013-02-03 06:17:00,
2013-02-03 01:18:00,50.2,31.3,30.18,WNW,292,0.0,0.0,48,0.00,,---,0.00,VWS V14.01,2013-02-03 06:18:00,
2013-02-03 01:19:00,50.2,31.3,30.18,WNW,292,0.9,0.9,48,0.00,,---,0.00,VWS V14.01,2013-02-03 06:19:00,
2013-02-03 01:20:00,50.2,31.3,30.18,WNW,292,0.0,1.3,48,0.00,,---,0.00,VWS V14.01,2013-02-03 06:20:00,
2013-02-03 01:21:00,50.2,31.3,30.18,WNW,292,0.0,0.0,48,0.00,,---,0.00,VWS V14.01,2013-02-03 06:21:00,
2013-02-03 01:22:00,50.2,31.3,30.18,WNW,292,0.0,0.0,48,0.00,,---,0.00,VWS V14.01,2013-02-03 06:22:00,
2013-02-03 01:23:00,49.8,31.4,30.15,WNW,292,0.0,0.0,49,0.00,,---,0.00,VWS V14.01,2013-02-03 06:23:00,
2013-02-03 01:24:00,50.0,31.1,30.18,WNW,292,0.0,0.0,48,0.00,,---,0.00,VWS V14.01,2013-02-03 06:24:00,
2013-02-03 01:25:00,50.0,31.1,30.18,WNW,292,0.0,0.0,48,0.00,,---,0.00,VWS V14.01,2013-02-03 06:25:00,
2013-02-03 01:26:00,50.0,31.1,30.18,WNW,292,0.0,0.0,48,0.00,,---,0.00,VWS V14.01,2013-02-03 06:26:00,
2013-02-03 01:27:00,50.0,31.1,30.18,WNW,292,0.0,0.0,48,0.00,,---,0.00,VWS V14.01,2013-02-03 06:27:00,
2013-02-03 01:28:00,49.5,31.1,30.15,WNW,292,0.0,0.0,49,0.00,,---,0.00,VWS V14.01,2013-02-03 06:28:00,
2013-02-03 01:29:00,49.8,31.4,30.15,WNW,292,0.0,0.0,49,0.00,,---,0.00,VWS V14.01,2013-02-03 06:29:00,
2013-02-03 01:30:00,49.6,31.3,30.15,WNW,292,0.0,0.0,49,0.00,,---,0.00,VWS V14.01,2013-02-03 06:30:00,
2013-02-03 01:31:00,49.6,31.3,30.15,WNW,292,0.0,0.0,49,0.00,,---,0.00,VWS V14.01,2013-02-03 06:31:00,
2013-02-03 01:32:00,49.6,31.3,30.15,WNW,292,0.0,0.0,49,0.00,,---,0.00,VWS V14.01,2013-02-03 06:32:00,
2013-02-03 01:33:00,49.1,30.8,30.15,WNW,292,0.0,0.0,49,0.00,,---,0.00,VWS V14.01,2013-02-03 06:33:00,
2013-02-03 01:34:00,49.5,31.1,30.15,WNW,292,0.0,0.0,49,0.00,,---,0.00,VWS V14.01,2013-02-03 06:34:00,
2013-02-03 01:35:00,49.5,31.1,30.15,WNW,292,0.0,0.0,49,0.00,,---,0.00,VWS V14.01,2013-02-03 06:35:00,
2013-02-03 01:36:00,49.3,31.0,30.15,WNW,292,0.0,0.0,49,0.00,,---,0.00,VWS V14.01,2013-02-03 06:36:00,
2013-02-03 01:37:00,49.3,31.0,30.15,WNW,292,0.0,0.0,49,0.00,,---,0.00,VWS V14.01,2013-02-03 06:37:00,
2013-02-03 01:38:00,48.7,30.5,30.15,WNW,292,0.0,0.0,49,0.00,,---,0.00,VWS V14.01,2013-02-03 06:38:00,
2013-02-03 01:39:00,49.1,30.8,30.15,WNW,292,0.0,0.0,49,0.00,,---,0.00,VWS V14.01,2013-02-03 06:39:00,
2013-02-03 01:40:00,48.9,31.1,30.15,WNW,292,0.0,0.0,50,0.00,,---,0.00,VWS V14.01,2013-02-03 06:40:00,
2013-02-03 01:41:00,48.9,30.6,30.15,WNW,292,0.0,0.0,49,0.00,,---,0.00,VWS V14.01,2013-02-03 06:41:00,
2013-02-03 01:42:00,48.7,30.5,30.15,WNW,292,0.0,0.0,49,0.00,,---,0.00,VWS V14.01,2013-02-03 06:42:00,
2013-02-03 01:43:00,48.4,30.6,30.15,WNW,292,0.0,0.0,50,0.00,,---,0.00,VWS V14.01,2013-02-03 06:43:00,
2013-02-03 01:44:00,48.7,30.5,30.15,WNW,292,0.0,0.0,49,0.00,,---,0.00,VWS V14.01,2013-02-03 06:44:00,
2013-02-03 01:45:00,48.6,30.3,30.15,WNW,292,0.0,0.0,49,0.00,,---,0.00,VWS V14.01,2013-02-03 06:45:00,
2013-02-03 01:46:00,48.6,30.3,30.15,WNW,292,0.0,0.0,49,0.00,,---,0.00,VWS V14.01,2013-02-03 06:46:00,
2013-02-03 01:47:00,48.6,30.8,30.15,WNW,292,0.0,0.0,50,0.00,,---,0.00,VWS V14.01,2013-02-03 06:47:00,
2013-02-03 01:48:00,48.0,30.8,30.15,WNW,292,0.0,0.0,51,0.00,,---,0.00,VWS V14.01,2013-02-03 06:48:00,
2013-02-03 01:49:00,48.4,30.6,30.15,WNW,292,0.0,0.0,50,0.00,,---,0.00,VWS V14.01,2013-02-03 06:49:00,
2013-02-03 01:50:00,48.2,30.5,30.15,WNW,292,0.0,0.0,50,0.00,,---,0.00,VWS V14.01,2013-02-03 06:50:00,
2013-02-03 01:51:00,48.2,30.5,30.15,WNW,292,0.0,0.0,50,0.00,,---,0.00,VWS V14.01,2013-02-03 06:51:00,
2013-02-03 01:52:00,48.0,30.8,30.15,WNW,292,0.0,0.0,51,0.00,,---,0.00,VWS V14.01,2013-02-03 06:52:00,
2013-02-03 01:53:00,47.7,30.9,30.15,WNW,292,0.0,0.0,52,0.00,,---,0.00,VWS V14.01,2013-02-03 06:53:00,
2013-02-03 01:54:00,48.0,30.8,30.15,WNW,292,0.0,0.0,51,0.00,,---,0.00,VWS V14.01,2013-02-03 06:54:00,
2013-02-03 01:55:00,47.8,30.6,30.15,WNW,292,0.0,0.0,51,0.00,,---,0.00,VWS V14.01,2013-02-03 06:55:00,
2013-02-03 01:56:00,47.8,30.6,30.15,WNW,292,0.0,0.0,51,0.00,,---,0.00,VWS V14.01,2013-02-03 06:56:00,
2013-02-03 01:57:00,47.8,31.1,30.15,WNW,292,0.0,0.0,52,0.00,,---,0.00,VWS V14.01,2013-02-03 06:57:00,
2013-02-03 01:58:00,47.3,30.6,30.15,WNW,292,0.0,0.0,52,0.00,,---,0.00,VWS V14.01,2013-02-03 06:58:00,
2013-02-03 01:59:00,47.5,30.8,30.15,WNW,292,0.0,0.0,52,0.00,,---,0.00,VWS V14.01,2013-02-03 06:59:00,
2013-02-03 02:00:00,47.5,30.8,30.15,WNW,292,0.0,0.0,52,0.00,,---,0.00,VWS V14.01,2013-02-03 07:00:00,
2013-02-03 02:01:00,47.5,30.8,30.15,WNW,292,0.0,0.0,52,0.00,,---,0.00,VWS V14.01,2013-02-03 07:01:00,
2013-02-03 02:02:00,47.3,30.6,30.15,WNW,292,0.0,0.0,52,0.00,,---,0.00,VWS V14.01,2013-02-03 07:02:00,
2013-02-03 02:03:00,47.1,30.9,30.15,WNW,292,0.0,0.0,53,0.00,,---,0.00,VWS V14.01,2013-02-03 07:03:00,
2013-02-03 02:04:00,47.3,30.6,30.15,WNW,292,0.0,0.0,52,0.00,,---,0.00,VWS V14.01,2013-02-03 07:04:00,
2013-02-03 02:05:00,47.3,30.6,30.15,WNW,292,0.0,0.0,52,0.00,,---,0.00,VWS V14.01,2013-02-03 07:05:00,
2013-02-03 02:06:00,47.1,30.4,30.15,WNW,292,0.0,0.0,52,0.00,,---,0.00,VWS V14.01,2013-02-03 07:06:00,
2013-02-03 02:07:00,47.1,30.9,30.15,WNW,292,0.0,0.0,53,0.00,,---,0.00,VWS V14.01,2013-02-03 07:07:00,
2013-02-03 02:08:00,47.1,30.9,30.12,WNW,292,0.0,0.0,53,0.00,,---,0.00,VWS V14.01,2013-02-03 07:08:00,
2013-02-03 02:09:00,47.1,30.9,30.15,WNW,292,0.0,0.0,53,0.00,,---,0.00,VWS V14.01,2013-02-03 07:09:00,
2013-02-03 02:10:00,47.1,30.9,30.15,WNW,292,0.0,0.0,53,0.00,,---,0.00,VWS V14.01,2013-02-03 07:10:00,
2013-02-03 02:11:00,47.1,30.9,30.15,WNW,292,0.0,0.0,53,0.00,,---,0.00,VWS V14.01,2013-02-03 07:11:00,
2013-02-03 02:12:00,47.1,30.9,30.15,WNW,292,0.0,0.0,53,0.00,,---,0.00,VWS V14.01,2013-02-03 07:12:00,
2013-02-03 02:13:00,46.9,30.7,30.12,WNW,292,0.0,0.0,53,0.00,,---,0.00,VWS V14.01,2013-02-03 07:13:00,
2013-02-03 02:14:00,47.1,30.9,30.12,WNW,292,0.0,0.0,53,0.00,,---,0.00,VWS V14.01,2013-02-03 07:14:00,
2013-02-03 02:15:00,46.9,30.7,30.12,WNW,292,0.0,0.0,53,0.00,,---,0.00,VWS V14.01,2013-02-03 07:15:00,
2013-02-03 02:16:00,46.9,30.7,30.12,WNW,292,0.0,0.0,53,0.00,,---,0.00,VWS V14.01,2013-02-03 07:16:00,
2013-02-03 02:17:00,46.9,30.7,30.12,WNW,292,0.0,0.0,53,0.00,,---,0.00,VWS V14.01,2013-02-03 07:17:00,
2013-02-03 02:18:00,46.6,30.4,30.12,WNW,292,0.0,0.0,53,0.00,,---,0.00,VWS V14.01,2013-02-03 07:18:00,
2013-02-03 02:19:00,46.8,30.5,30.12,WNW,292,0.0,0.0,53,0.00,,---,0.00,VWS V14.01,2013-02-03 07:19:00,
2013-02-03 02:20:00,46.8,30.5,30.12,WNW,292,0.0,0.0,53,0.00,,---,0.00,VWS V14.01,2013-02-03 07:20:00,
2013-02-03 02:21:00,46.6,30.4,30.12,WNW,292,0.0,0.0,53,0.00,,---,0.00,VWS V14.01,2013-02-03 07:21:00,
2013-02-03 02:22:00,46.4,30.2,30.15,WNW,292,0.0,0.0,53,0.00,,---,0.00,VWS V14.01,2013-02-03 07:22:00,
2013-02-03 02:23:00,46.6,30.4,30.12,WNW,292,0.0,0.0,53,0.00,,---,0.00,VWS V14.01,2013-02-03 07:23:00,
2013-02-03 02:24:00,46.6,30.4,30.12,WNW,292,0.0,0.0,53,0.00,,---,0.00,VWS V14.01,2013-02-03 07:24:00,
2013-02-03 02:25:00,46.6,30.4,30.12,WNW,292,0.0,0.0,53,0.00,,---,0.00,VWS V14.01,2013-02-03 07:25:00,
2013-02-03 02:26:00,46.6,30.4,30.12,WNW,292,0.0,0.0,53,0.00,,---,0.00,VWS V14.01,2013-02-03 07:26:00,
2013-02-03 02:27:00,46.4,30.7,30.15,WNW,292,0.0,0.0,54,0.00,,---,0.00,VWS V14.01,2013-02-03 07:27:00,
2013-02-03 02:28:00,46.4,30.2,30.15,WNW,292,0.0,0.0,53,0.00,,---,0.00,VWS V14.01,2013-02-03 07:28:00,
2013-02-03 02:29:00,46.4,30.2,30.15,WNW,292,0.0,0.0,53,0.00,,---,0.00,VWS V14.01,2013-02-03 07:29:00,
2013-02-03 02:30:00,46.4,30.7,30.15,WNW,292,0.0,0.0,54,0.00,,---,0.00,VWS V14.01,2013-02-03 07:30:00,
2013-02-03 02:31:00,46.4,30.7,30.15,WNW,292,0.0,0.0,54,0.00,,---,0.00,VWS V14.01,2013-02-03 07:31:00,
2013-02-03 02:32:00,46.4,31.6,30.15,WNW,292,0.0,0.0,56,0.00,,---,0.00,VWS V14.01,2013-02-03 07:32:00,
2013-02-03 02:33:00,46.4,30.7,30.15,WNW,292,0.0,0.0,54,0.00,,---,0.00,VWS V14.01,2013-02-03 07:33:00,
2013-02-03 02:34:00,46.2,31.0,30.15,WNW,292,0.0,0.0,55,0.00,,---,0.00,VWS V14.01,2013-02-03 07:34:00,
2013-02-03 02:35:00,46.2,31.0,30.15,WNW,292,0.0,0.0,55,0.00,,---,0.00,VWS V14.01,2013-02-03 07:35:00,
2013-02-03 02:36:00,46.2,31.0,30.15,WNW,292,0.0,0.0,55,0.00,,---,0.00,VWS V14.01,2013-02-03 07:36:00,
2013-02-03 02:37:00,46.0,31.2,30.12,WNW,292,0.0,0.0,56,0.00,,---,0.00,VWS V14.01,2013-02-03 07:37:00,
2013-02-03 02:38:00,46.4,31.6,30.15,WNW,292,0.0,0.0,56,0.00,,---,0.00,VWS V14.01,2013-02-03 07:38:00,
2013-02-03 02:39:00,46.4,31.6,30.15,WNW,292,0.0,0.0,56,0.00,,---,0.00,VWS V14.01,2013-02-03 07:39:00,
2013-02-03 02:40:00,46.2,31.4,30.15,WNW,292,0.0,0.0,56,0.00,,---,0.00,VWS V14.01,2013-02-03 07:40:00,
2013-02-03 02:41:00,46.2,31.4,30.15,WNW,292,0.0,0.0,56,0.00,,---,0.00,VWS V14.01,2013-02-03 07:41:00,
2013-02-03 02:42:00,45.7,30.9,30.12,WNW,292,0.0,0.0,56,0.00,,---,0.00,VWS V14.01,2013-02-03 07:42:00,
2013-02-03 02:43:00,46.0,31.2,30.12,WNW,292,0.0,0.0,56,0.00,,---,0.00,VWS V14.01,2013-02-03 07:43:00,
2013-02-03 02:44:00,46.0,31.2,30.12,WNW,292,0.0,0.0,56,0.00,,---,0.00,VWS V14.01,2013-02-03 07:44:00,
2013-02-03 02:45:00,45.9,31.1,30.12,WNW,292,0.0,0.0,56,0.00,,---,0.00,VWS V14.01,2013-02-03 07:45:00,
2013-02-03 02:46:00,45.9,31.1,30.12,WNW,292,0.0,0.0,56,0.00,,---,0.00,VWS V14.01,2013-02-03 07:46:00,
2013-02-03 02:47:00,45.7,31.8,30.12,WNW,292,0.0,0.0,58,0.00,,---,0.00,VWS V14.01,2013-02-03 07:47:00,
2013-02-03 02:48:00,45.7,30.9,30.12,WNW,292,0.0,0.0,56,0.00,,---,0.00,VWS V14.01,2013-02-03 07:48:00,
2013-02-03 02:49:00,45.7,30.9,30.12,WNW,292,0.0,0.0,56,0.00,,---,0.00,VWS V14.01,2013-02-03 07:49:00,
2013-02-03 02:50:00,45.7,30.9,30.12,WNW,292,0.0,0.0,56,0.00,,---,0.00,VWS V14.01,2013-02-03 07:50:00,
2013-02-03 02:51:00,45.7,31.3,30.12,WNW,292,0.0,0.0,57,0.00,,---,0.00,VWS V14.01,2013-02-03 07:51:00,
2013-02-03 02:52:00,45.3,31.4,30.12,WNW,292,0.0,0.0,58,0.00,,---,0.00,VWS V14.01,2013-02-03 07:52:00,
2013-02-03 02:53:00,45.7,31.8,30.12,WNW,292,0.0,0.0,58,0.00,,---,0.00,VWS V14.01,2013-02-03 07:53:00,
2013-02-03 02:54:00,45.5,31.6,30.12,WNW,292,0.0,0.0,58,0.00,,---,0.00,VWS V14.01,2013-02-03 07:54:00,
2013-02-03 02:55:00,45.5,31.6,30.12,WNW,292,0.0,0.0,58,0.00,,---,0.00,VWS V14.01,2013-02-03 07:55:00,
2013-02-03 02:56:00,45.5,31.6,30.12,WNW,292,0.0,0.0,58,0.00,,---,0.00,VWS V14.01,2013-02-03 07:56:00,
2013-02-03 02:57:00,45.1,31.3,30.15,WNW,292,0.0,0.0,58,0.00,,---,0.00,VWS V14.01,2013-02-03 07:57:00,
2013-02-03 02:58:00,45.3,31.4,30.12,WNW,292,0.0,0.0,58,0.00,,---,0.00,VWS V14.01,2013-02-03 07:58:00,
2013-02-03 02:59:00,45.3,31.4,30.15,WNW,292,0.0,0.0,58,0.00,,---,0.00,VWS V14.01,2013-02-03 07:59:00,
2013-02-03 03:00:00,45.3,31.4,30.15,WNW,292,0.0,0.0,58,0.00,,---,0.00,VWS V14.01,2013-02-03 08:00:00,
2013-02-03 03:01:00,45.1,31.3,30.15,WNW,292,0.0,0.0,58,0.00,,---,0.00,VWS V14.01,2013-02-03 08:01:00,
2013-02-03 03:02:00,44.8,30.9,30.15,WNW,292,0.0,0.0,58,0.00,,---,0.00,VWS V14.01,2013-02-03 08:02:00,
2013-02-03 03:03:00,45.1,31.3,30.15,WNW,292,0.0,0.0,58,0.00,,---,0.00,VWS V14.01,2013-02-03 08:03:00,
2013-02-03 03:04:00,45.0,31.1,30.15,WNW,292,0.0,0.0,58,0.00,,---,0.00,VWS V14.01,2013-02-03 08:04:00,
2013-02-03 03:05:00,45.0,31.1,30.15,WNW,292,0.0,0.0,58,0.00,,---,0.00,VWS V14.01,2013-02-03 08:05:00,
2013-02-03 03:06:00,44.8,30.9,30.15,WNW,292,0.0,0.0,58,0.00,,---,0.00,VWS V14.01,2013-02-03 08:06:00,
2013-02-03 03:07:00,44.6,31.2,30.12,WNW,292,0.0,0.0,59,0.00,,---,0.00,VWS V14.01,2013-02-03 08:07:00,
2013-02-03 03:08:00,44.8,30.9,30.15,WNW,292,0.0,0.0,58,0.00,,---,0.00,VWS V14.01,2013-02-03 08:08:00,
2013-02-03 03:09:00,44.6,30.8,30.15,WNW,292,0.0,0.0,58,0.00,,---,0.00,VWS V14.01,2013-02-03 08:09:00,
2013-02-03 03:10:00,44.6,30.8,30.15,WNW,292,0.0,0.0,58,0.00,,---,0.00,VWS V14.01,2013-02-03 08:10:00,
2013-02-03 03:11:00,44.6,31.2,30.15,WNW,292,0.0,0.0,59,0.00,,---,0.00,VWS V14.01,2013-02-03 08:11:00,
2013-02-03 03:12:00,44.6,31.6,30.12,WNW,292,0.0,0.0,60,0.00,,---,0.00,VWS V14.01,2013-02-03 08:12:00,
2013-02-03 03:13:00,44.6,31.2,30.12,WNW,292,0.0,0.0,59,0.00,,---,0.00,VWS V14.01,2013-02-03 08:13:00,
2013-02-03 03:14:00,44.6,31.2,30.12,WNW,292,0.0,0.0,59,0.00,,---,0.00,VWS V14.01,2013-02-03 08:14:00,
2013-02-03 03:15:00,44.6,31.2,30.12,WNW,292,0.0,0.0,59,0.00,,---,0.00,VWS V14.01,2013-02-03 08:15:00,
2013-02-03 03:16:00,44.6,31.6,30.12,WNW,292,0.0,0.0,60,0.00,,---,0.00,VWS V14.01,2013-02-03 08:16:00,
2013-02-03 03:17:00,44.4,31.8,30.12,WNW,292,0.0,0.0,61,0.00,,---,0.00,VWS V14.01,2013-02-03 08:17:00,
2013-02-03 03:18:00,44.6,31.6,30.12,WNW,292,0.0,0.0,60,0.00,,---,0.00,VWS V14.01,2013-02-03 08:18:00,
2013-02-03 03:19:00,44.6,31.6,30.12,WNW,292,0.0,0.0,60,0.00,,---,0.00,VWS V14.01,2013-02-03 08:19:00,
2013-02-03 03:20:00,44.6,31.6,30.12,WNW,292,0.0,0.0,60,0.00,,---,0.00,VWS V14.01,2013-02-03 08:20:00,
2013-02-03 03:21:00,44.4,31.8,30.12,WNW,292,0.0,0.0,61,0.00,,---,0.00,VWS V14.01,2013-02-03 08:21:00,
2013-02-03 03:22:00,44.2,32.1,30.15,WNW,292,0.0,0.0,62,0.00,,---,0.00,VWS V14.01,2013-02-03 08:22:00,
2013-02-03 03:23:00,44.4,31.8,30.12,WNW,292,0.0,0.0,61,0.00,,---,0.00,VWS V14.01,2013-02-03 08:23:00,
2013-02-03 03:24:00,44.4,31.8,30.12,WNW,292,0.0,0.0,61,0.00,,---,0.00,VWS V14.01,2013-02-03 08:24:00,
2013-02-03 03:25:00,44.2,31.7,30.12,WNW,292,0.0,0.0,61,0.00,,---,0.00,VWS V14.01,2013-02-03 08:25:00,
2013-02-03 03:26:00,44.2,31.7,30.12,WNW,292,0.0,0.0,61,0.00,,---,0.00,VWS V14.01,2013-02-03 08:26:00,
2013-02-03 03:27:00,44.2,32.1,30.15,WNW,292,0.0,0.0,62,0.00,,---,0.00,VWS V14.01,2013-02-03 08:27:00,
2013-02-03 03:28:00,44.2,32.1,30.15,WNW,292,0.0,0.0,62,0.00,,---,0.00,VWS V14.01,2013-02-03 08:28:00,
2013-02-03 03:29:00,44.2,32.1,30.15,WNW,292,0.0,0.0,62,0.00,,---,0.00,VWS V14.01,2013-02-03 08:29:00,
2013-02-03 03:30:00,44.2,32.1,30.15,WNW,292,0.0,0.0,62,0.00,,---,0.00,VWS V14.01,2013-02-03 08:30:00,
2013-02-03 03:31:00,44.2,32.1,30.15,WNW,292,0.0,0.0,62,0.00,,---,0.00,VWS V14.01,2013-02-03 08:31:00,
2013-02-03 03:32:00,44.1,31.9,30.15,WNW,292,0.0,0.0,62,0.00,,---,0.00,VWS V14.01,2013-02-03 08:32:00,
2013-02-03 03:33:00,44.2,32.1,30.15,WNW,292,0.0,0.0,62,0.00,,---,0.00,VWS V14.01,2013-02-03 08:33:00,
2013-02-03 03:34:00,44.2,32.1,30.15,WNW,292,0.0,0.0,62,0.00,,---,0.00,VWS V14.01,2013-02-03 08:34:00,
2013-02-03 03:35:00,44.2,32.5,30.15,WNW,292,0.0,0.0,63,0.00,,---,0.00,VWS V14.01,2013-02-03 08:35:00,
2013-02-03 03:36:00,44.2,32.1,30.15,WNW,292,0.0,0.0,62,0.00,,---,0.00,VWS V14.01,2013-02-03 08:36:00,
2013-02-03 03:37:00,44.1,31.9,30.15,WNW,292,0.0,0.0,62,0.00,,---,0.00,VWS V14.01,2013-02-03 08:37:00,
2013-02-03 03:38:00,44.1,31.9,30.15,WNW,292,0.0,0.0,62,0.00,,---,0.00,VWS V14.01,2013-02-03 08:38:00,
2013-02-03 03:39:00,44.1,31.9,30.15,WNW,292,0.0,0.0,62,0.00,,---,0.00,VWS V14.01,2013-02-03 08:39:00,
2013-02-03 03:40:00,44.1,32.3,30.15,WNW,292,0.0,0.0,63,0.00,,---,0.00,VWS V14.01,2013-02-03 08:40:00,
2013-02-03 03:41:00,44.1,31.9,30.15,WNW,292,0.0,0.0,62,0.00,,---,0.00,VWS V14.01,2013-02-03 08:41:00,
2013-02-03 03:42:00,44.1,32.3,30.15,WNW,292,0.0,0.0,63,0.00,,---,0.00,VWS V14.01,2013-02-03 08:42:00,
2013-02-03 03:43:00,44.1,31.9,30.15,WNW,292,0.0,0.0,62,0.00,,---,0.00,VWS V14.01,2013-02-03 08:43:00,
2013-02-03 03:44:00,43.9,31.3,30.15,WNW,292,0.0,0.0,61,0.00,,---,0.00,VWS V14.01,2013-02-03 08:44:00,
2013-02-03 03:45:00,44.1,31.9,30.15,WNW,292,0.0,0.0,62,0.00,,---,0.00,VWS V14.01,2013-02-03 08:45:00,
2013-02-03 03:46:00,44.1,31.9,30.15,WNW,292,0.0,0.0,62,0.00,,---,0.00,VWS V14.01,2013-02-03 08:46:00,
2013-02-03 03:47:00,43.7,32.0,30.15,NNW,338,0.0,0.0,63,0.00,,---,0.00,VWS V14.01,2013-02-03 08:47:00,
2013-02-03 03:48:00,44.1,32.3,30.15,WNW,292,0.0,0.0,63,0.00,,---,0.00,VWS V14.01,2013-02-03 08:48:00,
2013-02-03 03:49:00,43.9,32.1,30.15,WNW,292,0.0,0.0,63,0.00,,---,0.00,VWS V14.01,2013-02-03 08:49:00,
2013-02-03 03:50:00,43.9,32.1,30.15,WNW,292,0.0,0.0,63,0.00,,---,0.00,VWS V14.01,2013-02-03 08:50:00,
2013-02-03 03:51:00,43.9,32.1,30.15,WNW,292,0.0,0.0,63,0.00,,---,0.00,VWS V14.01,2013-02-03 08:51:00,
2013-02-03 03:52:00,43.7,32.0,30.15,NNW,338,0.0,0.0,63,0.00,,---,0.00,VWS V14.01,2013-02-03 08:52:00,
2013-02-03 03:53:00,43.7,32.0,30.15,NNW,338,0.0,0.0,63,0.00,,---,0.00,VWS V14.01,2013-02-03 08:53:00,
2013-02-03 03:54:00,43.7,31.5,30.15,NNW,338,0.0,1.3,62,0.00,,---,0.00,VWS V14.01,2013-02-03 08:54:00,
2013-02-03 03:55:00,43.7,32.0,30.15,NNW,338,0.0,0.0,63,0.00,,---,0.00,VWS V14.01,2013-02-03 08:55:00,
2013-02-03 03:56:00,43.7,32.0,30.15,NNW,338,0.0,0.0,63,0.00,,---,0.00,VWS V14.01,2013-02-03 08:56:00,
2013-02-03 03:57:00,43.5,31.8,30.15,NNW,338,0.0,0.0,63,0.00,,---,0.00,VWS V14.01,2013-02-03 08:57:00,
2013-02-03 03:58:00,43.7,32.0,30.15,NNW,338,0.0,0.0,63,0.00,,---,0.00,VWS V14.01,2013-02-03 08:58:00,
2013-02-03 03:59:00,43.7,32.3,30.15,NNW,338,0.0,0.0,64,0.00,,---,0.00,VWS V14.01,2013-02-03 08:59:00,
2013-02-03 04:00:00,43.7,32.3,30.15,NNW,338,0.0,0.0,64,0.00,,---,0.00,VWS V14.01,2013-02-03 09:00:00,
2013-02-03 04:01:00,43.7,32.0,30.15,NNW,338,0.0,0.0,63,0.00,,---,0.00,VWS V14.01,2013-02-03 09:01:00,
2013-02-03 04:02:00,43.5,32.2,30.15,NNW,338,0.0,0.0,64,0.00,,---,0.00,VWS V14.01,2013-02-03 09:02:00,
2013-02-03 04:03:00,43.5,31.8,30.15,NNW,338,0.0,0.0,63,0.00,,---,0.00,VWS V14.01,2013-02-03 09:03:00,
2013-02-03 04:04:00,43.5,31.8,30.15,NNW,338,0.0,0.0,63,0.00,,---,0.00,VWS V14.01,2013-02-03 09:04:00,
2013-02-03 04:05:00,43.5,31.8,30.15,NNW,338,0.0,0.0,63,0.00,,---,0.00,VWS V14.01,2013-02-03 09:05:00,
2013-02-03 04:06:00,43.5,31.8,30.15,NNW,338,0.0,0.0,63,0.00,,---,0.00,VWS V14.01,2013-02-03 09:06:00,
2013-02-03 04:07:00,43.3,32.0,30.15,NNW,338,0.0,0.0,64,0.00,,---,0.00,VWS V14.01,2013-02-03 09:07:00,
2013-02-03 04:08:00,43.5,32.2,30.15,NNW,338,0.0,0.0,64,0.00,,---,0.00,VWS V14.01,2013-02-03 09:08:00,
2013-02-03 04:09:00,43.5,32.2,30.15,NNW,338,0.0,0.0,64,0.00,,---,0.00,VWS V14.01,2013-02-03 09:09:00,
2013-02-03 04:10:00,43.3,32.0,30.15,NNW,338,0.0,0.0,64,0.00,,---,0.00,VWS V14.01,2013-02-03 09:10:00,
2013-02-03 04:11:00,43.5,32.2,30.15,NNW,338,0.0,0.0,64,0.00,,---,0.00,VWS V14.01,2013-02-03 09:11:00,
2013-02-03 04:12:00,43.2,32.2,30.15,NNW,338,0.0,0.0,65,0.00,,---,0.00,VWS V14.01,2013-02-03 09:12:00,
2013-02-03 04:13:00,43.3,32.0,30.15,NNW,338,0.0,0.0,64,0.00,,---,0.00,VWS V14.01,2013-02-03 09:13:00,
2013-02-03 04:14:00,43.3,32.0,30.15,NNW,338,0.0,0.0,64,0.00,,---,0.00,VWS V14.01,2013-02-03 09:14:00,
2013-02-03 04:15:00,43.3,32.0,30.15,NNW,338,0.0,0.0,64,0.00,,---,0.00,VWS V14.01,2013-02-03 09:15:00,
2013-02-03 04:16:00,43.3,32.0,30.15,NNW,338,0.0,0.0,64,0.00,,---,0.00,VWS V14.01,2013-02-03 09:16:00,
2013-02-03 04:17:00,43.0,32.0,30.15,NNW,338,0.0,0.0,65,0.00,,---,0.00,VWS V14.01,2013-02-03 09:17:00,
2013-02-03 04:18:00,43.2,32.2,30.15,NNW,338,0.0,0.0,65,0.00,,---,0.00,VWS V14.01,2013-02-03 09:18:00,
2013-02-03 04:19:00,43.2,31.8,30.15,NNW,338,0.0,0.0,64,0.00,,---,0.00,VWS V14.01,2013-02-03 09:19:00,
2013-02-03 04:20:00,43.2,31.8,30.15,NNW,338,0.0,0.0,64,0.00,,---,0.00,VWS V14.01,2013-02-03 09:20:00,
2013-02-03 04:21:00,43.2,31.8,30.15,NNW,338,0.0,0.0,64,0.00,,---,0.00,VWS V14.01,2013-02-03 09:21:00,
2013-02-03 04:22:00,43.0,31.6,30.15,ESE,112,0.0,0.0,64,0.00,,---,0.00,VWS V14.01,2013-02-03 09:22:00,
2013-02-03 04:23:00,43.0,32.0,30.15,NNW,338,0.0,0.0,65,0.00,,---,0.00,VWS V14.01,2013-02-03 09:23:00,
2013-02-03 04:24:00,43.0,32.0,30.15,NNW,338,0.0,0.0,65,0.00,,---,0.00,VWS V14.01,2013-02-03 09:24:00,
2013-02-03 04:25:00,43.0,32.0,30.15,NNW,338,0.0,0.0,65,0.00,,---,0.00,VWS V14.01,2013-02-03 09:25:00,
2013-02-03 04:26:00,43.0,32.0,30.15,NNW,338,0.0,0.0,65,0.00,,---,0.00,VWS V14.01,2013-02-03 09:26:00,
2013-02-03 04:27:00,43.0,32.4,30.15,WNW,292,0.0,0.0,66,0.00,,---,0.00,VWS V14.01,2013-02-03 09:27:00,
2013-02-03 04:28:00,43.0,31.6,30.15,ESE,112,0.0,0.0,64,0.00,,---,0.00,VWS V14.01,2013-02-03 09:28:00,
2013-02-03 04:29:00,43.0,31.6,30.15,ESE,112,0.0,0.0,64,0.00,,---,0.00,VWS V14.01,2013-02-03 09:29:00,
2013-02-03 04:30:00,43.0,31.6,30.15,ESE,112,0.0,0.0,64,0.00,,---,0.00,VWS V14.01,2013-02-03 09:30:00,
2013-02-03 04:31:00,43.2,32.2,30.15,WNW,292,0.0,0.0,65,0.00,,---,0.00,VWS V14.01,2013-02-03 09:31:00,
2013-02-03 04:32:00,43.0,32.4,30.15,WNW,292,0.0,0.0,66,0.00,,---,0.00,VWS V14.01,2013-02-03 09:32:00,
2013-02-03 04:33:00,43.0,32.4,30.15,WNW,292,0.0,0.0,66,0.00,,---,0.00,VWS V14.01,2013-02-03 09:33:00,
2013-02-03 04:34:00,43.0,32.4,30.15,WNW,292,0.0,0.0,66,0.00,,---,0.00,VWS V14.01,2013-02-03 09:34:00,
2013-02-03 04:35:00,43.0,32.0,30.15,WNW,292,0.0,0.0,65,0.00,,---,0.00,VWS V14.01,2013-02-03 09:35:00,
2013-02-03 04:36:00,43.0,32.0,30.15,WNW,292,0.0,0.0,65,0.00,,---,0.00,VWS V14.01,2013-02-03 09:36:00,
2013-02-03 04:37:00,42.8,32.6,30.15,WNW,292,0.0,0.0,67,0.00,,---,0.00,VWS V14.01,2013-02-03 09:37:00,
2013-02-03 04:38:00,43.0,32.4,30.15,WNW,292,0.0,0.0,66,0.00,,---,0.00,VWS V14.01,2013-02-03 09:38:00,
2013-02-03 04:39:00,42.8,32.6,30.15,WNW,292,0.0,0.0,67,0.00,,---,0.00,VWS V14.01,2013-02-03 09:39:00,
2013-02-03 04:40:00,42.8,32.6,30.15,WNW,292,0.0,0.0,67,0.00,,---,0.00,VWS V14.01,2013-02-03 09:40:00,
2013-02-03 04:41:00,42.8,32.6,30.15,WNW,292,0.0,0.0,67,0.00,,---,0.00,VWS V14.01,2013-02-03 09:41:00,
2013-02-03 04:42:00,42.6,32.4,30.15,WNW,292,0.0,0.0,67,0.00,,---,0.00,VWS V14.01,2013-02-03 09:42:00,
2013-02-03 04:43:00,42.8,32.6,30.15,WNW,292,0.0,0.0,67,0.00,,---,0.00,VWS V14.01,2013-02-03 09:43:00,
2013-02-03 04:44:00,42.8,32.6,30.15,WNW,292,0.0,0.0,67,0.00,,---,0.00,VWS V14.01,2013-02-03 09:44:00,
2013-02-03 04:45:00,42.6,32.4,30.15,WNW,292,0.0,0.0,67,0.00,,---,0.00,VWS V14.01,2013-02-03 09:45:00,
2013-02-03 04:46:00,42.6,32.4,30.15,WNW,292,0.0,0.0,67,0.00,,---,0.00,VWS V14.01,2013-02-03 09:46:00,
2013-02-03 04:47:00,42.4,32.3,30.15,WNW,292,0.0,0.0,67,0.00,,---,0.00,VWS V14.01,2013-02-03 09:47:00,
2013-02-03 04:48:00,42.6,32.4,30.15,WNW,292,0.0,0.0,67,0.00,,---,0.00,VWS V14.01,2013-02-03 09:48:00,
2013-02-03 04:49:00,42.6,32.4,30.15,WNW,292,0.0,0.0,67,0.00,,---,0.00,VWS V14.01,2013-02-03 09:49:00,
2013-02-03 04:50:00,42.4,32.3,30.15,WNW,292,0.0,0.0,67,0.00,,---,0.00,VWS V14.01,2013-02-03 09:50:00,
2013-02-03 04:51:00,42.4,32.3,30.15,WNW,292,0.0,0.0,67,0.00,,---,0.00,VWS V14.01,2013-02-03 09:51:00,
2013-02-03 04:52:00,42.4,32.6,30.15,WNW,292,0.0,0.0,68,0.00,,---,0.00,VWS V14.01,2013-02-03 09:52:00,
2013-02-03 04:53:00,42.4,32.3,30.15,WNW,292,0.0,0.0,67,0.00,,---,0.00,VWS V14.01,2013-02-03 09:53:00,
2013-02-03 04:54:00,42.4,32.6,30.15,WNW,292,0.0,0.0,68,0.00,,---,0.00,VWS V14.01,2013-02-03 09:54:00,
2013-02-03 04:55:00,42.4,32.6,30.15,WNW,292,0.0,0.0,68,0.00,,---,0.00,VWS V14.01,2013-02-03 09:55:00,
2013-02-03 04:56:00,42.4,32.6,30.15,WNW,292,0.0,0.0,68,0.00,,---,0.00,VWS V14.01,2013-02-03 09:56:00,
2013-02-03 04:57:00,42.1,31.9,30.15,WNW,292,0.0,0.0,67,0.00,,---,0.00,VWS V14.01,2013-02-03 09:57:00,
2013-02-03 04:58:00,42.4,32.6,30.15,WNW,292,0.0,0.0,68,0.00,,---,0.00,VWS V14.01,2013-02-03 09:58:00,
2013-02-03 04:59:00,42.3,32.5,30.15,WNW,292,0.0,0.0,68,0.00,,---,0.00,VWS V14.01,2013-02-03 09:59:00,
2013-02-03 05:00:00,42.3,32.5,30.15,WNW,292,0.0,0.0,68,0.00,,---,0.00,VWS V14.01,2013-02-03 10:00:00,
2013-02-03 05:01:00,42.3,32.1,30.15,WNW,292,0.0,0.0,67,0.00,,---,0.00,VWS V14.01,2013-02-03 10:01:00,
2013-02-03 05:02:00,42.1,31.9,30.15,WNW,292,0.0,0.0,67,0.00,,---,0.00,VWS V14.01,2013-02-03 10:02:00,
2013-02-03 05:03:00,42.1,31.9,30.15,WNW,292,0.0,0.0,67,0.00,,---,0.00,VWS V14.01,2013-02-03 10:03:00,
2013-02-03 05:04:00,42.1,32.3,30.15,WNW,292,0.0,0.0,68,0.00,,---,0.00,VWS V14.01,2013-02-03 10:04:00,
2013-02-03 05:05:00,42.1,32.3,30.15,WNW,292,0.0,0.0,68,0.00,,---,0.00,VWS V14.01,2013-02-03 10:05:00,
2013-02-03 05:06:00,42.1,32.3,30.15,WNW,292,0.0,0.0,68,0.00,,---,0.00,VWS V14.01,2013-02-03 10:06:00,
2013-02-03 05:07:00,41.7,32.0,30.15,WNW,292,0.0,0.0,68,0.00,,---,0.00,VWS V14.01,2013-02-03 10:07:00,
2013-02-03 05:08:00,42.1,31.9,30.15,WNW,292,0.0,0.0,67,0.00,,---,0.00,VWS V14.01,2013-02-03 10:08:00,
2013-02-03 05:09:00,41.9,32.1,30.15,WNW,292,0.0,0.0,68,0.00,,---,0.00,VWS V14.01,2013-02-03 10:09:00,
2013-02-03 05:10:00,41.9,32.1,30.15,WNW,292,0.0,0.0,68,0.00,,---,0.00,VWS V14.01,2013-02-03 10:10:00,
2013-02-03 05:11:00,41.7,32.0,30.15,WNW,292,0.0,0.0,68,0.00,,---,0.00,VWS V14.01,2013-02-03 10:11:00,
2013-02-03 05:12:00,41.5,31.8,30.15,WNW,292,0.0,0.0,68,0.00,,---,0.00,VWS V14.01,2013-02-03 10:12:00,
2013-02-03 05:13:00,41.7,32.0,30.15,WNW,292,0.0,0.0,68,0.00,,---,0.00,VWS V14.01,2013-02-03 10:13:00,
2013-02-03 05:14:00,41.7,32.0,30.15,WNW,292,0.0,0.0,68,0.00,,---,0.00,VWS V14.01,2013-02-03 10:14:00,
2013-02-03 05:15:00,41.7,32.0,30.15,WNW,292,0.0,0.0,68,0.00,,---,0.00,VWS V14.01,2013-02-03 10:15:00,
2013-02-03 05:16:00,41.7,32.0,30.15,WNW,292,0.0,0.0,68,0.00,,---,0.00,VWS V14.01,2013-02-03 10:16:00,
2013-02-03 05:17:00,41.5,31.8,30.15,WNW,292,0.0,0.0,68,0.00,,---,0.00,VWS V14.01,2013-02-03 10:17:00,
2013-02-03 05:18:00,41.5,31.8,30.15,WNW,292,0.0,0.0,68,0.00,,---,0.00,VWS V14.01,2013-02-03 10:18:00,
2013-02-03 05:19:00,41.5,31.8,30.15,WNW,292,0.0,0.0,68,0.00,,---,0.00,VWS V14.01,2013-02-03 10:19:00,
2013-02-03 05:20:00,41.5,31.8,30.15,WNW,292,0.0,0.0,68,0.00,,---,0.00,VWS V14.01,2013-02-03 10:20:00,
2013-02-03 05:21:00,41.5,31.8,30.15,WNW,292,0.0,0.0,68,0.00,,---,0.00,VWS V14.01,2013-02-03 10:21:00,
2013-02-03 05:22:00,41.7,32.3,30.15,WNW,292,0.0,0.0,69,0.00,,---,0.00,VWS V14.01,2013-02-03 10:22:00,
2013-02-03 05:23:00,41.5,31.8,30.15,WNW,292,0.0,0.0,68,0.00,,---,0.00,VWS V14.01,2013-02-03 10:23:00,
2013-02-03 05:24:00,41.7,32.0,30.15,WNW,292,0.0,0.0,68,0.00,,---,0.00,VWS V14.01,2013-02-03 10:24:00,
2013-02-03 05:25:00,41.7,32.0,30.15,WNW,292,0.0,0.0,68,0.00,,---,0.00,VWS V14.01,2013-02-03 10:25:00,
2013-02-03 05:26:00,41.7,32.3,30.15,WNW,292,0.0,0.0,69,0.00,,---,0.00,VWS V14.01,2013-02-03 10:26:00,
2013-02-03 05:27:00,41.7,32.7,30.15,WNW,292,0.0,0.0,70,0.00,,---,0.00,VWS V14.01,2013-02-03 10:27:00,
2013-02-03 05:28:00,41.7,32.3,30.15,WNW,292,0.0,0.0,69,0.00,,---,0.00,VWS V14.01,2013-02-03 10:28:00,
2013-02-03 05:29:00,41.7,32.3,30.15,WNW,292,0.0,0.0,69,0.00,,---,0.00,VWS V14.01,2013-02-03 10:29:00,
2013-02-03 05:30:00,41.7,32.3,30.15,WNW,292,0.0,0.0,69,0.00,,---,0.00,VWS V14.01,2013-02-03 10:30:00,
2013-02-03 05:31:00,41.7,32.7,30.15,WNW,292,0.0,0.0,70,0.00,,---,0.00,VWS V14.01,2013-02-03 10:31:00,
2013-02-03 05:32:00,41.7,33.0,30.15,WNW,292,0.0,0.0,71,0.00,,---,0.00,VWS V14.01,2013-02-03 10:32:00,
2013-02-03 05:33:00,41.7,32.7,30.15,WNW,292,0.0,0.0,70,0.00,,---,0.00,VWS V14.01,2013-02-03 10:33:00,
2013-02-03 05:34:00,41.7,32.7,30.15,WNW,292,0.0,0.0,70,0.00,,---,0.00,VWS V14.01,2013-02-03 10:34:00,
2013-02-03 05:35:00,41.7,33.0,30.15,WNW,292,0.0,0.0,71,0.00,,---,0.00,VWS V14.01,2013-02-03 10:35:00,
2013-02-03 05:36:00,41.7,33.0,30.15,WNW,292,0.0,0.0,71,0.00,,---,0.00,VWS V14.01,2013-02-03 10:36:00,
2013-02-03 05:37:00,41.7,33.0,30.15,WNW,292,0.0,0.0,71,0.00,,---,0.00,VWS V14.01,2013-02-03 10:37:00,
2013-02-03 05:38:00,41.7,33.0,30.15,WNW,292,0.0,0.0,71,0.00,,---,0.00,VWS V14.01,2013-02-03 10:38:00,
2013-02-03 05:39:00,41.7,33.0,30.15,WNW,292,0.0,0.0,71,0.00,,---,0.00,VWS V14.01,2013-02-03 10:39:00,
2013-02-03 05:40:00,41.7,33.0,30.15,WNW,292,0.0,0.0,71,0.00,,---,0.00,VWS V14.01,2013-02-03 10:40:00,
2013-02-03 05:41:00,41.7,33.0,30.15,WNW,292,0.0,0.0,71,0.00,,---,0.00,VWS V14.01,2013-02-03 10:41:00,
2013-02-03 05:42:00,41.5,32.8,30.15,WNW,292,0.0,0.0,71,0.00,,---,0.00,VWS V14.01,2013-02-03 10:42:00,
2013-02-03 05:43:00,41.7,33.0,30.15,WNW,292,0.0,0.0,71,0.00,,---,0.00,VWS V14.01,2013-02-03 10:43:00,
2013-02-03 05:44:00,41.7,33.0,30.15,WNW,292,0.0,0.0,71,0.00,,---,0.00,VWS V14.01,2013-02-03 10:44:00,
2013-02-03 05:45:00,41.7,33.0,30.15,WNW,292,0.0,0.0,71,0.00,,---,0.00,VWS V14.01,2013-02-03 10:45:00,
2013-02-03 05:46:00,41.7,33.0,30.15,WNW,292,0.0,0.0,71,0.00,,---,0.00,VWS V14.01,2013-02-03 10:46:00,
2013-02-03 05:47:00,41.5,32.8,30.15,WNW,292,0.0,0.0,71,0.00,,---,0.00,VWS V14.01,2013-02-03 10:47:00,
2013-02-03 05:48:00,41.5,32.8,30.15,WNW,292,0.0,0.0,71,0.00,,---,0.00,VWS V14.01,2013-02-03 10:48:00,
2013-02-03 05:49:00,41.5,32.8,30.15,WNW,292,0.0,0.0,71,0.00,,---,0.00,VWS V14.01,2013-02-03 10:49:00,
2013-02-03 05:50:00,41.5,32.8,30.15,WNW,292,0.0,0.0,71,0.00,,---,0.00,VWS V14.01,2013-02-03 10:50:00,
2013-02-03 05:51:00,41.5,32.8,30.15,WNW,292,0.0,0.0,71,0.00,,---,0.00,VWS V14.01,2013-02-03 10:51:00,
2013-02-03 05:52:00,41.5,32.8,30.18,WNW,292,0.0,0.0,71,0.00,,---,0.00,VWS V14.01,2013-02-03 10:52:00,
2013-02-03 05:53:00,41.5,32.8,30.15,WNW,292,0.0,0.0,71,0.00,,---,0.00,VWS V14.01,2013-02-03 10:53:00,
2013-02-03 05:54:00,41.5,32.8,30.15,WNW,292,0.0,0.0,71,0.00,,---,0.00,VWS V14.01,2013-02-03 10:54:00,
2013-02-03 05:55:00,41.5,32.8,30.15,WNW,292,0.0,0.0,71,0.00,,---,0.00,VWS V14.01,2013-02-03 10:55:00,
2013-02-03 05:56:00,41.5,32.8,30.15,WNW,292,0.0,0.0,71,0.00,,---,0.00,VWS V14.01,2013-02-03 10:56:00,
2013-02-03 05:57:00,41.7,33.4,30.18,WNW,292,0.0,0.0,72,0.00,,---,0.00,VWS V14.01,2013-02-03 10:57:00,
2013-02-03 05:58:00,41.5,32.8,30.18,WNW,292,0.0,0.0,71,0.00,,---,0.00,VWS V14.01,2013-02-03 10:58:00,
2013-02-03 05:59:00,41.7,33.0,30.18,WNW,292,0.0,0.0,71,0.00,,---,0.00,VWS V14.01,2013-02-03 10:59:00,
2013-02-03 06:00:00,41.7,33.0,30.18,WNW,292,0.0,0.0,71,0.00,,---,0.00,VWS V14.01,2013-02-03 11:00:00,
2013-02-03 06:01:00,41.7,33.0,30.18,WNW,292,0.0,0.0,71,0.00,,---,0.00,VWS V14.01,2013-02-03 11:01:00,
2013-02-03 06:02:00,41.7,33.4,30.18,WNW,292,0.0,0.0,72,0.00,,---,0.00,VWS V14.01,2013-02-03 11:02:00,
2013-02-03 06:03:00,41.7,33.4,30.18,WNW,292,0.0,0.0,72,0.00,,---,0.00,VWS V14.01,2013-02-03 11:03:00,
2013-02-03 06:04:00,41.7,33.4,30.18,WNW,292,0.0,0.0,72,0.00,,---,0.00,VWS V14.01,2013-02-03 11:04:00,
2013-02-03 06:05:00,41.7,33.4,30.18,WNW,292,0.0,0.0,72,0.00,,---,0.00,VWS V14.01,2013-02-03 11:05:00,
2013-02-03 06:06:00,41.7,33.4,30.18,WNW,292,0.0,0.0,72,0.00,,---,0.00,VWS V14.01,2013-02-03 11:06:00,
2013-02-03 06:07:00,41.5,33.2,30.18,WNW,292,0.0,0.0,72,0.00,,---,0.00,VWS V14.01,2013-02-03 11:07:00,
2013-02-03 06:08:00,41.7,33.4,30.18,WNW,292,0.0,0.0,72,0.00,,---,0.00,VWS V14.01,2013-02-03 11:08:00,
2013-02-03 06:09:00,41.7,33.4,30.18,WNW,292,0.0,0.0,72,0.00,,---,0.00,VWS V14.01,2013-02-03 11:09:00,
2013-02-03 06:10:00,41.7,33.4,30.18,WNW,292,0.0,0.0,72,0.00,,---,0.00,VWS V14.01,2013-02-03 11:10:00,
2013-02-03 06:11:00,41.5,33.2,30.18,WNW,292,0.0,0.0,72,0.00,,---,0.00,VWS V14.01,2013-02-03 11:11:00,
2013-02-03 06:12:00,41.4,33.0,30.18,WNW,292,0.0,0.0,72,0.00,,---,0.00,VWS V14.01,2013-02-03 11:12:00,
2013-02-03 06:13:00,41.5,33.2,30.18,WNW,292,0.0,0.0,72,0.00,,---,0.00,VWS V14.01,2013-02-03 11:13:00,
2013-02-03 06:14:00,41.5,33.2,30.18,WNW,292,0.0,0.0,72,0.00,,---,0.00,VWS V14.01,2013-02-03 11:14:00,
2013-02-03 06:15:00,41.5,33.2,30.18,WNW,292,0.0,0.0,72,0.00,,---,0.00,VWS V14.01,2013-02-03 11:15:00,
2013-02-03 06:16:00,41.5,33.2,30.18,WNW,292,0.0,0.0,72,0.00,,---,0.00,VWS V14.01,2013-02-03 11:16:00,
2013-02-03 06:17:00,41.4,33.0,30.18,WNW,292,0.0,0.0,72,0.00,,---,0.00,VWS V14.01,2013-02-03 11:17:00,
2013-02-03 06:18:00,41.4,33.0,30.18,WNW,292,0.0,0.0,72,0.00,,---,0.00,VWS V14.01,2013-02-03 11:18:00,
2013-02-03 06:19:00,41.4,33.0,30.18,WNW,292,0.0,0.0,72,0.00,,---,0.00,VWS V14.01,2013-02-03 11:19:00,
2013-02-03 06:20:00,41.4,33.0,30.18,WNW,292,0.0,0.0,72,0.00,,---,0.00,VWS V14.01,2013-02-03 11:20:00,
2013-02-03 06:21:00,41.4,33.0,30.18,WNW,292,0.0,0.0,72,0.00,,---,0.00,VWS V14.01,2013-02-03 11:21:00,
2013-02-03 06:22:00,41.4,33.0,30.18,WNW,292,0.0,0.0,72,0.00,,---,0.00,VWS V14.01,2013-02-03 11:22:00,
2013-02-03 06:23:00,41.4,33.0,30.18,WNW,292,0.0,0.0,72,0.00,,---,0.00,VWS V14.01,2013-02-03 11:23:00,
2013-02-03 06:24:00,41.5,33.5,30.18,WNW,292,0.0,0.0,73,0.00,,---,0.00,VWS V14.01,2013-02-03 11:24:00,
2013-02-03 06:25:00,41.5,33.5,30.18,WNW,292,0.0,0.0,73,0.00,,---,0.00,VWS V14.01,2013-02-03 11:25:00,
2013-02-03 06:26:00,41.4,33.4,30.18,WNW,292,0.0,0.0,73,0.00,,---,0.00,VWS V14.01,2013-02-03 11:26:00,
2013-02-03 06:27:00,41.2,32.8,30.18,WNW,292,0.0,0.0,72,0.00,,---,0.00,VWS V14.01,2013-02-03 11:27:00,
2013-02-03 06:28:00,41.4,33.0,30.18,WNW,292,0.0,0.0,72,0.00,,---,0.00,VWS V14.01,2013-02-03 11:28:00,
2013-02-03 06:29:00,41.4,33.0,30.18,WNW,292,0.0,0.0,72,0.00,,---,0.00,VWS V14.01,2013-02-03 11:29:00,
2013-02-03 06:30:00,41.4,33.0,30.18,WNW,292,0.0,0.0,72,0.00,,---,0.00,VWS V14.01,2013-02-03 11:30:00,
2013-02-03 06:31:00,41.2,32.8,30.18,WNW,292,0.0,0.0,72,0.00,,---,0.00,VWS V14.01,2013-02-03 11:31:00,
2013-02-03 06:32:00,41.2,32.8,30.18,WNW,292,0.0,0.0,72,0.00,,---,0.00,VWS V14.01,2013-02-03 11:32:00,
2013-02-03 06:33:00,41.2,32.8,30.18,WNW,292,0.0,0.0,72,0.00,,---,0.00,VWS V14.01,2013-02-03 11:33:00,
2013-02-03 06:34:00,41.2,32.8,30.18,WNW,292,0.0,0.0,72,0.00,,---,0.00,VWS V14.01,2013-02-03 11:34:00,
2013-02-03 06:35:00,41.2,32.8,30.18,WNW,292,0.0,0.0,72,0.00,,---,0.00,VWS V14.01,2013-02-03 11:35:00,
2013-02-03 06:36:00,41.2,32.8,30.18,WNW,292,0.0,0.0,72,0.00,,---,0.00,VWS V14.01,2013-02-03 11:36:00,
2013-02-03 06:37:00,41.0,32.7,30.18,WNW,292,0.0,0.0,72,0.00,,---,0.00,VWS V14.01,2013-02-03 11:37:00,
2013-02-03 06:38:00,41.2,32.8,30.18,WNW,292,0.0,0.0,72,0.00,,---,0.00,VWS V14.01,2013-02-03 11:38:00,
2013-02-03 06:39:00,41.2,32.8,30.18,WNW,292,0.0,0.0,72,0.00,,---,0.00,VWS V14.01,2013-02-03 11:39:00,
2013-02-03 06:40:00,41.2,32.8,30.18,WNW,292,0.0,0.0,72,0.00,,---,0.00,VWS V14.01,2013-02-03 11:40:00,
2013-02-03 06:41:00,41.0,32.7,30.18,WNW,292,0.0,0.0,72,0.00,,---,0.00,VWS V14.01,2013-02-03 11:41:00,
2013-02-03 06:42:00,41.0,32.7,30.18,WNW,292,0.0,0.0,72,0.00,,---,0.00,VWS V14.01,2013-02-03 11:42:00,
2013-02-03 06:43:00,41.0,32.7,30.18,WNW,292,0.0,0.0,72,0.00,,---,0.00,VWS V14.01,2013-02-03 11:43:00,
2013-02-03 06:44:00,41.0,32.7,30.18,WNW,292,0.0,0.0,72,0.00,,---,0.00,VWS V14.01,2013-02-03 11:44:00,
2013-02-03 06:45:00,41.0,32.7,30.18,WNW,292,0.0,0.0,72,0.00,,---,0.00,VWS V14.01,2013-02-03 11:45:00,
2013-02-03 06:46:00,41.0,32.7,30.18,WNW,292,0.0,0.0,72,0.00,,---,0.00,VWS V14.01,2013-02-03 11:46:00,
2013-02-03 06:47:00,41.0,33.0,30.18,WNW,292,0.0,0.0,73,0.00,,---,0.00,VWS V14.01,2013-02-03 11:47:00,
2013-02-03 06:48:00,41.0,32.7,30.18,WNW,292,0.0,0.0,72,0.00,,---,0.00,VWS V14.01,2013-02-03 11:48:00,
2013-02-03 06:49:00,41.0,33.0,30.18,WNW,292,0.0,0.0,73,0.00,,---,0.00,VWS V14.01,2013-02-03 11:49:00,
2013-02-03 06:50:00,41.0,33.0,30.18,WNW,292,0.0,0.0,73,0.00,,---,0.00,VWS V14.01,2013-02-03 11:50:00,
2013-02-03 06:51:00,41.0,33.0,30.18,WNW,292,0.0,0.0,73,0.00,,---,0.00,VWS V14.01,2013-02-03 11:51:00,
2013-02-03 06:52:00,40.6,32.7,30.21,WNW,292,0.0,0.0,73,0.00,,---,0.00,VWS V14.01,2013-02-03 11:52:00,
2013-02-03 06:53:00,41.0,33.0,30.18,WNW,292,0.0,0.0,73,0.00,,---,0.00,VWS V14.01,2013-02-03 11:53:00,
2013-02-03 06:54:00,40.8,32.8,30.18,WNW,292,0.0,0.0,73,0.00,,---,0.00,VWS V14.01,2013-02-03 11:54:00,
2013-02-03 06:55:00,40.8,32.8,30.18,WNW,292,0.0,0.0,73,0.00,,---,0.00,VWS V14.01,2013-02-03 11:55:00,
2013-02-03 06:56:00,40.6,32.7,30.18,WNW,292,0.0,0.0,73,0.00,,---,0.00,VWS V14.01,2013-02-03 11:56:00,
2013-02-03 06:57:00,40.6,32.7,30.21,WNW,292,0.0,0.0,73,0.00,,---,0.00,VWS V14.01,2013-02-03 11:57:00,
2013-02-03 06:58:00,40.6,32.7,30.21,WNW,292,0.0,0.0,73,0.00,,---,0.00,VWS V14.01,2013-02-03 11:58:00,
2013-02-03 06:59:00,40.6,32.7,30.21,WNW,292,0.0,0.0,73,0.00,,---,0.00,VWS V14.01,2013-02-03 11:59:00,
2013-02-03 07:00:00,40.6,32.7,30.21,WNW,292,0.0,0.0,73,0.00,,---,0.00,VWS V14.01,2013-02-03 12:00:00,
2013-02-03 07:01:00,40.6,32.7,30.21,WNW,292,0.0,0.0,73,0.00,,---,0.00,VWS V14.01,2013-02-03 12:01:00,
2013-02-03 07:02:00,40.8,32.8,30.21,WNW,292,0.0,0.0,73,0.00,,---,0.00,VWS V14.01,2013-02-03 12:02:00,
2013-02-03 07:03:00,40.6,32.7,30.21,WNW,292,0.0,0.0,73,0.00,,---,0.00,VWS V14.01,2013-02-03 12:03:00,
2013-02-03 07:04:00,40.6,32.7,30.21,WNW,292,0.0,0.0,73,0.00,,---,0.00,VWS V14.01,2013-02-03 12:04:00,
2013-02-03 07:05:00,40.6,32.7,30.21,WNW,292,0.0,0.0,73,0.00,,---,0.00,VWS V14.01,2013-02-03 12:05:00,
2013-02-03 07:06:00,40.6,32.7,30.21,WNW,292,0.0,0.0,73,0.00,,---,0.00,VWS V14.01,2013-02-03 12:06:00,
2013-02-03 07:07:00,40.8,33.2,30.21,WNW,292,0.0,0.0,74,0.00,,---,0.00,VWS V14.01,2013-02-03 12:07:00,
2013-02-03 07:08:00,40.8,32.8,30.21,WNW,292,0.0,0.0,73,0.00,,---,0.00,VWS V14.01,2013-02-03 12:08:00,
2013-02-03 07:09:00,40.8,32.8,30.21,WNW,292,0.0,0.0,73,0.00,,---,0.00,VWS V14.01,2013-02-03 12:09:00,
2013-02-03 07:10:00,40.8,33.2,30.21,WNW,292,0.0,0.0,74,0.00,,---,0.00,VWS V14.01,2013-02-03 12:10:00,
2013-02-03 07:11:00,40.8,33.2,30.21,WNW,292,0.0,0.0,74,0.00,,---,0.00,VWS V14.01,2013-02-03 12:11:00,
2013-02-03 07:12:00,41.0,33.4,30.21,WNW,292,0.0,0.0,74,0.00,,---,0.00,VWS V14.01,2013-02-03 12:12:00,
2013-02-03 07:13:00,40.8,33.2,30.21,WNW,292,0.0,0.0,74,0.00,,---,0.00,VWS V14.01,2013-02-03 12:13:00,
2013-02-03 07:14:00,40.8,33.2,30.21,WNW,292,0.0,0.0,74,0.00,,---,0.00,VWS V14.01,2013-02-03 12:14:00,
2013-02-03 07:15:00,40.8,33.2,30.21,WNW,292,0.0,0.0,74,0.00,,---,0.00,VWS V14.01,2013-02-03 12:15:00,
2013-02-03 07:16:00,40.8,33.2,30.21,WNW,292,0.0,0.0,74,0.00,,---,0.00,VWS V14.01,2013-02-03 12:16:00,
2013-02-03 07:17:00,40.8,33.2,30.21,WNW,292,0.0,0.0,74,0.00,,---,0.00,VWS V14.01,2013-02-03 12:17:00,
2013-02-03 07:18:00,41.0,33.4,30.21,WNW,292,0.0,0.0,74,0.00,,---,0.00,VWS V14.01,2013-02-03 12:18:00,
2013-02-03 07:19:00,41.0,33.4,30.21,WNW,292,0.0,0.0,74,0.00,,---,0.00,VWS V14.01,2013-02-03 12:19:00,
2013-02-03 07:20:00,40.8,33.2,30.21,WNW,292,0.0,0.0,74,0.00,,---,0.00,VWS V14.01,2013-02-03 12:20:00,
2013-02-03 07:21:00,41.0,33.4,30.21,WNW,292,0.0,0.0,74,0.00,,---,0.00,VWS V14.01,2013-02-03 12:21:00,
2013-02-03 07:22:00,40.8,33.5,30.21,WNW,292,0.0,0.0,75,0.00,,---,0.00,VWS V14.01,2013-02-03 12:22:00,
2013-02-03 07:23:00,40.8,33.2,30.21,WNW,292,0.0,0.0,74,0.00,,---,0.00,VWS V14.01,2013-02-03 12:23:00,
2013-02-03 07:24:00,40.8,33.5,30.21,WNW,292,0.0,0.0,75,0.00,,---,0.00,VWS V14.01,2013-02-03 12:24:00,
2013-02-03 07:25:00,40.8,33.5,30.21,WNW,292,0.0,0.0,75,0.00,,---,0.00,VWS V14.01,2013-02-03 12:25:00,
2013-02-03 07:26:00,40.8,33.5,30.21,WNW,292,0.0,0.0,75,0.00,,---,0.00,VWS V14.01,2013-02-03 12:26:00,
2013-02-03 07:27:00,40.8,33.5,30.21,WNW,292,0.0,0.0,75,0.00,,---,0.00,VWS V14.01,2013-02-03 12:27:00,
2013-02-03 07:28:00,40.8,33.5,30.21,WNW,292,0.0,0.0,75,0.00,,---,0.00,VWS V14.01,2013-02-03 12:28:00,
2013-02-03 07:29:00,40.8,33.5,30.21,WNW,292,0.0,0.0,75,0.00,,---,0.00,VWS V14.01,2013-02-03 12:29:00,
2013-02-03 07:30:00,40.6,33.3,30.21,WNW,292,0.0,0.0,75,0.00,,---,0.00,VWS V14.01,2013-02-03 12:30:00,
2013-02-03 07:31:00,40.8,33.5,30.21,WNW,292,0.0,0.0,75,0.00,,---,0.00,VWS V14.01,2013-02-03 12:31:00,
2013-02-03 07:32:00,41.0,33.7,30.21,WNW,292,0.0,0.0,75,0.00,,---,0.00,VWS V14.01,2013-02-03 12:32:00,
2013-02-03 07:33:00,40.8,33.5,30.21,WNW,292,0.0,0.0,75,0.00,,---,0.00,VWS V14.01,2013-02-03 12:33:00,
2013-02-03 07:34:00,41.0,33.4,30.21,WNW,292,0.0,0.0,74,0.00,,---,0.00,VWS V14.01,2013-02-03 12:34:00,
2013-02-03 07:35:00,41.0,33.4,30.21,WNW,292,0.0,0.0,74,0.00,,---,0.00,VWS V14.01,2013-02-03 12:35:00,
2013-02-03 07:36:00,41.0,33.4,30.21,WNW,292,0.0,0.0,74,0.00,,---,0.00,VWS V14.01,2013-02-03 12:36:00,
2013-02-03 07:37:00,41.2,33.5,30.21,WNW,292,0.0,0.0,74,0.00,,---,0.00,VWS V14.01,2013-02-03 12:37:00,
2013-02-03 07:38:00,41.0,33.7,30.21,WNW,292,0.0,0.0,75,0.00,,---,0.00,VWS V14.01,2013-02-03 12:38:00,
2013-02-03 07:39:00,41.0,33.7,30.21,WNW,292,0.0,0.0,75,0.00,,---,0.00,VWS V14.01,2013-02-03 12:39:00,
2013-02-03 07:40:00,41.2,33.9,30.21,WNW,292,0.0,0.0,75,0.00,,---,0.00,VWS V14.01,2013-02-03 12:40:00,
2013-02-03 07:41:00,41.2,33.9,30.21,WNW,292,0.0,0.0,75,0.00,,---,0.00,VWS V14.01,2013-02-03 12:41:00,
2013-02-03 07:42:00,41.5,34.2,30.21,WNW,292,0.0,0.0,75,0.00,,---,0.00,VWS V14.01,2013-02-03 12:42:00,
2013-02-03 07:43:00,41.2,33.5,30.21,WNW,292,0.0,0.0,74,0.00,,---,0.00,VWS V14.01,2013-02-03 12:43:00,
2013-02-03 07:44:00,41.2,33.5,30.21,WNW,292,0.0,0.0,74,0.00,,---,0.00,VWS V14.01,2013-02-03 12:44:00,
2013-02-03 07:45:00,41.2,33.9,30.21,WNW,292,0.0,0.0,75,0.00,,---,0.00,VWS V14.01,2013-02-03 12:45:00,
2013-02-03 07:46:00,41.2,33.9,30.21,WNW,292,0.0,0.0,75,0.00,,---,0.00,VWS V14.01,2013-02-03 12:46:00,
2013-02-03 07:47:00,42.3,35.2,30.21,WNW,292,0.0,0.0,76,0.00,,---,0.00,VWS V14.01,2013-02-03 12:47:00,
2013-02-03 07:48:00,41.7,34.4,30.21,WNW,292,0.0,0.0,75,0.00,,---,0.00,VWS V14.01,2013-02-03 12:48:00,
2013-02-03 07:49:00,41.7,34.4,30.21,WNW,292,0.0,0.0,75,0.00,,---,0.00,VWS V14.01,2013-02-03 12:49:00,
2013-02-03 07:50:00,41.9,34.9,30.21,WNW,292,0.0,0.0,76,0.00,,---,0.00,VWS V14.01,2013-02-03 12:50:00,
2013-02-03 07:51:00,42.1,35.1,30.21,WNW,292,0.0,0.0,76,0.00,,---,0.00,VWS V14.01,2013-02-03 12:51:00,
2013-02-03 07:52:00,42.6,35.6,30.21,WNW,292,0.0,0.0,76,0.00,,---,0.00,VWS V14.01,2013-02-03 12:52:00,
2013-02-03 07:53:00,42.3,35.2,30.21,WNW,292,0.0,0.0,76,0.00,,---,0.00,VWS V14.01,2013-02-03 12:53:00,
2013-02-03 07:54:00,42.3,35.2,30.21,WNW,292,0.0,0.0,76,0.00,,---,0.00,VWS V14.01,2013-02-03 12:54:00,
2013-02-03 07:55:00,42.3,35.2,30.21,WNW,292,0.0,0.0,76,0.00,,---,0.00,VWS V14.01,2013-02-03 12:55:00,
2013-02-03 07:56:00,42.4,35.4,30.21,WNW,292,0.0,0.0,76,0.00,,---,0.00,VWS V14.01,2013-02-03 12:56:00,
2013-02-03 07:57:00,42.8,35.8,30.21,WNW,292,0.0,0.0,76,0.00,,---,0.00,VWS V14.01,2013-02-03 12:57:00,
2013-02-03 07:58:00,42.6,35.6,30.21,WNW,292,0.0,0.0,76,0.00,,---,0.00,VWS V14.01,2013-02-03 12:58:00,
2013-02-03 07:59:00,42.6,35.6,30.21,WNW,292,0.0,0.0,76,0.00,,---,0.00,VWS V14.01,2013-02-03 12:59:00,
2013-02-03 08:00:00,42.8,35.8,30.21,WNW,292,0.0,0.0,76,0.00,,---,0.00,VWS V14.01,2013-02-03 13:00:00,
2013-02-03 08:01:00,42.8,35.8,30.21,WNW,292,0.0,0.0,76,0.00,,---,0.00,VWS V14.01,2013-02-03 13:01:00,
2013-02-03 08:02:00,43.3,36.3,30.21,WNW,292,0.0,0.0,76,0.00,,---,0.00,VWS V14.01,2013-02-03 13:02:00,
2013-02-03 08:03:00,43.0,36.0,30.21,WNW,292,0.0,0.0,76,0.00,,---,0.00,VWS V14.01,2013-02-03 13:03:00,
2013-02-03 08:04:00,43.0,36.0,30.21,WNW,292,0.0,0.0,76,0.00,,---,0.00,VWS V14.01,2013-02-03 13:04:00,
2013-02-03 08:05:00,43.0,36.0,30.21,WNW,292,0.0,0.0,76,0.00,,---,0.00,VWS V14.01,2013-02-03 13:05:00,
2013-02-03 08:06:00,43.2,36.1,30.21,WNW,292,0.0,0.0,76,0.00,,---,0.00,VWS V14.01,2013-02-03 13:06:00,
2013-02-03 08:07:00,43.7,36.6,30.21,WNW,292,0.0,0.0,76,0.00,,---,0.00,VWS V14.01,2013-02-03 13:07:00,
2013-02-03 08:08:00,43.3,36.3,30.21,WNW,292,0.0,0.0,76,0.00,,---,0.00,VWS V14.01,2013-02-03 13:08:00,
2013-02-03 08:09:00,43.3,36.3,30.21,WNW,292,0.0,0.0,76,0.00,,---,0.00,VWS V14.01,2013-02-03 13:09:00,
2013-02-03 08:10:00,43.3,36.3,30.21,WNW,292,0.0,0.0,76,0.00,,---,0.00,VWS V14.01,2013-02-03 13:10:00,
2013-02-03 08:11:00,43.5,36.5,30.21,WNW,292,0.0,0.0,76,0.00,,---,0.00,VWS V14.01,2013-02-03 13:11:00,
2013-02-03 08:12:00,44.1,37.0,30.21,WNW,292,0.0,0.0,76,0.00,,---,0.00,VWS V14.01,2013-02-03 13:12:00,
2013-02-03 08:13:00,43.7,36.6,30.21,WNW,292,0.0,0.0,76,0.00,,---,0.00,VWS V14.01,2013-02-03 13:13:00,
2013-02-03 08:14:00,43.7,36.6,30.21,WNW,292,0.0,0.0,76,0.00,,---,0.00,VWS V14.01,2013-02-03 13:14:00,
2013-02-03 08:15:00,43.7,36.6,30.21,WNW,292,0.0,0.0,76,0.00,,---,0.00,VWS V14.01,2013-02-03 13:15:00,
2013-02-03 08:16:00,43.9,36.8,30.21,WNW,292,0.0,0.0,76,0.00,,---,0.00,VWS V14.01,2013-02-03 13:16:00,
2013-02-03 08:17:00,45.0,38.2,30.21,WNW,292,0.0,0.0,77,0.00,,---,0.00,VWS V14.01,2013-02-03 13:17:00,
2013-02-03 08:18:00,44.1,37.0,30.21,WNW,292,0.0,0.0,76,0.00,,---,0.00,VWS V14.01,2013-02-03 13:18:00,
2013-02-03 08:19:00,44.2,37.2,30.21,WNW,292,0.0,0.0,76,0.00,,---,0.00,VWS V14.01,2013-02-03 13:19:00,
2013-02-03 08:20:00,44.6,37.5,30.21,WNW,292,0.0,0.0,76,0.00,,---,0.00,VWS V14.01,2013-02-03 13:20:00,
2013-02-03 08:21:00,44.8,37.7,30.21,WNW,292,0.0,0.0,76,0.00,,---,0.00,VWS V14.01,2013-02-03 13:21:00,
2013-02-03 08:22:00,45.7,38.9,30.21,WNW,292,0.0,0.0,77,0.00,,---,0.00,VWS V14.01,2013-02-03 13:22:00,
2013-02-03 08:23:00,45.0,38.2,30.21,WNW,292,0.0,0.0,77,0.00,,---,0.00,VWS V14.01,2013-02-03 13:23:00,
2013-02-03 08:24:00,45.1,38.4,30.21,WNW,292,0.0,0.0,77,0.00,,---,0.00,VWS V14.01,2013-02-03 13:24:00,
2013-02-03 08:25:00,45.3,38.5,30.21,WNW,292,0.0,0.0,77,0.00,,---,0.00,VWS V14.01,2013-02-03 13:25:00,
2013-02-03 08:26:00,45.7,38.9,30.21,WNW,292,0.0,0.0,77,0.00,,---,0.00,VWS V14.01,2013-02-03 13:26:00,
2013-02-03 08:27:00,45.9,38.7,30.21,WNW,292,0.0,0.0,76,0.00,,---,0.00,VWS V14.01,2013-02-03 13:27:00,
2013-02-03 08:28:00,45.7,38.9,30.21,WNW,292,0.0,0.0,77,0.00,,---,0.00,VWS V14.01,2013-02-03 13:28:00,
2013-02-03 08:29:00,45.9,38.7,30.21,WNW,292,0.0,0.0,76,0.00,,---,0.00,VWS V14.01,2013-02-03 13:29:00,
2013-02-03 08:30:00,45.9,38.7,30.21,WNW,292,0.0,0.0,76,0.00,,---,0.00,VWS V14.01,2013-02-03 13:30:00,
2013-02-03 08:31:00,45.9,38.7,30.21,WNW,292,0.0,0.0,76,0.00,,---,0.00,VWS V14.01,2013-02-03 13:31:00,
2013-02-03 08:32:00,46.4,38.9,30.21,WNW,292,0.0,0.0,75,0.00,,---,0.00,VWS V14.01,2013-02-03 13:32:00,
2013-02-03 08:33:00,46.0,38.9,30.21,WNW,292,0.0,0.0,76,0.00,,---,0.00,VWS V14.01,2013-02-03 13:33:00,
2013-02-03 08:34:00,46.0,38.9,30.21,WNW,292,0.0,0.0,76,0.00,,---,0.00,VWS V14.01,2013-02-03 13:34:00,
2013-02-03 08:35:00,46.0,38.9,30.21,WNW,292,0.0,0.0,76,0.00,,---,0.00,VWS V14.01,2013-02-03 13:35:00,
2013-02-03 08:36:00,46.2,39.1,30.21,WNW,292,0.0,0.0,76,0.00,,---,0.00,VWS V14.01,2013-02-03 13:36:00,
2013-02-03 08:37:00,46.6,39.1,30.21,WNW,292,0.0,0.0,75,0.00,,---,0.00,VWS V14.01,2013-02-03 13:37:00,
2013-02-03 08:38:00,46.4,38.9,30.21,WNW,292,0.0,0.0,75,0.00,,---,0.00,VWS V14.01,2013-02-03 13:38:00,
2013-02-03 08:39:00,46.4,38.9,30.21,WNW,292,0.0,0.0,75,0.00,,---,0.00,VWS V14.01,2013-02-03 13:39:00,
2013-02-03 08:40:00,46.4,38.9,30.21,WNW,292,0.0,0.0,75,0.00,,---,0.00,VWS V14.01,2013-02-03 13:40:00,
2013-02-03 08:41:00,46.6,39.1,30.21,WNW,292,0.0,0.0,75,0.00,,---,0.00,VWS V14.01,2013-02-03 13:41:00,
2013-02-03 08:42:00,47.1,39.3,30.21,WNW,292,0.0,0.0,74,0.00,,---,0.00,VWS V14.01,2013-02-03 13:42:00,
2013-02-03 08:43:00,46.6,39.1,30.21,WNW,292,0.0,0.0,75,0.00,,---,0.00,VWS V14.01,2013-02-03 13:43:00,
2013-02-03 08:44:00,46.8,38.9,30.21,WNW,292,0.0,0.0,74,0.00,,---,0.00,VWS V14.01,2013-02-03 13:44:00,
2013-02-03 08:45:00,46.8,38.9,30.21,WNW,292,0.0,0.0,74,0.00,,---,0.00,VWS V14.01,2013-02-03 13:45:00,
2013-02-03 08:46:00,46.9,39.1,30.21,WNW,292,0.0,0.0,74,0.00,,---,0.00,VWS V14.01,2013-02-03 13:46:00,
2013-02-03 08:47:00,48.0,40.5,30.21,ENE,68,0.0,0.0,75,0.00,,---,0.00,VWS V14.01,2013-02-03 13:47:00,
2013-02-03 08:48:00,47.3,39.5,30.21,WNW,292,0.0,0.0,74,0.00,,---,0.00,VWS V14.01,2013-02-03 13:48:00,
2013-02-03 08:49:00,47.5,39.6,30.21,WNW,292,0.0,0.0,74,0.00,,---,0.00,VWS V14.01,2013-02-03 13:49:00,
2013-02-03 08:50:00,47.5,39.6,30.21,WNW,292,0.0,0.0,74,0.00,,---,0.00,VWS V14.01,2013-02-03 13:50:00,
2013-02-03 08:51:00,47.7,39.8,30.21,ENE,68,0.0,0.0,74,0.00,,---,0.00,VWS V14.01,2013-02-03 13:51:00,
2013-02-03 08:52:00,50.7,43.4,30.21,ENE,68,0.0,0.0,76,0.00,,---,0.00,VWS V14.01,2013-02-03 13:52:00,
2013-02-03 08:53:00,48.0,40.5,30.21,ENE,68,0.0,0.0,75,0.00,,---,0.00,VWS V14.01,2013-02-03 13:53:00,
2013-02-03 08:54:00,48.2,40.3,30.21,ENE,68,0.0,0.0,74,0.00,,---,0.00,VWS V14.01,2013-02-03 13:54:00,
2013-02-03 08:55:00,48.6,40.7,30.21,ENE,68,0.0,0.0,74,0.00,,---,0.00,VWS V14.01,2013-02-03 13:55:00,
2013-02-03 08:56:00,50.0,42.4,30.21,ENE,68,0.0,0.0,75,0.00,,---,0.00,VWS V14.01,2013-02-03 13:56:00,
2013-02-03 08:57:00,52.9,44.8,30.21,ENE,68,0.0,0.0,74,0.00,,---,0.00,VWS V14.01,2013-02-03 13:57:00,
2013-02-03 08:58:00,51.3,44.0,30.21,ENE,68,0.0,0.0,76,0.00,,---,0.00,VWS V14.01,2013-02-03 13:58:00,
2013-02-03 08:59:00,51.6,44.0,30.21,ENE,68,0.0,0.0,75,0.00,,---,0.00,VWS V14.01,2013-02-03 13:59:00,
2013-02-03 09:00:00,52.0,44.3,30.21,ENE,68,0.0,0.0,75,0.00,,---,0.00,VWS V14.01,2013-02-03 14:00:00,
2013-02-03 09:01:00,52.3,44.3,30.21,ENE,68,0.0,0.0,74,0.00,,---,0.00,VWS V14.01,2013-02-03 14:01:00,
2013-02-03 09:02:00,54.9,45.3,30.21,ENE,68,0.0,0.0,70,0.00,,---,0.00,VWS V14.01,2013-02-03 14:02:00,
2013-02-03 09:03:00,53.4,45.0,30.21,ENE,68,0.0,0.0,73,0.00,,---,0.00,VWS V14.01,2013-02-03 14:03:00,
2013-02-03 09:04:00,53.6,44.8,30.21,ENE,68,0.0,0.0,72,0.00,,---,0.00,VWS V14.01,2013-02-03 14:04:00,
2013-02-03 09:05:00,54.0,45.2,30.21,ENE,68,0.0,0.0,72,0.00,,---,0.00,VWS V14.01,2013-02-03 14:05:00,
2013-02-03 09:06:00,54.1,45.0,30.21,ENE,68,0.0,0.0,71,0.00,,---,0.00,VWS V14.01,2013-02-03 14:06:00,
2013-02-03 09:07:00,55.9,45.2,30.21,ENE,68,0.0,0.0,67,0.00,,---,0.00,VWS V14.01,2013-02-03 14:07:00,
2013-02-03 09:08:00,54.9,45.3,30.21,ENE,68,0.0,0.0,70,0.00,,---,0.00,VWS V14.01,2013-02-03 14:08:00,
2013-02-03 09:09:00,55.2,45.6,30.21,ENE,68,0.0,0.0,70,0.00,,---,0.00,VWS V14.01,2013-02-03 14:09:00,
2013-02-03 09:10:00,55.2,45.6,30.21,ENE,68,0.0,0.0,70,0.00,,---,0.00,VWS V14.01,2013-02-03 14:10:00,
2013-02-03 09:11:00,55.2,45.6,30.21,ENE,68,0.0,0.0,70,0.00,,---,0.00,VWS V14.01,2013-02-03 14:11:00,
2013-02-03 09:12:00,56.7,44.6,30.21,ENE,68,0.0,0.0,64,0.00,,---,0.00,VWS V14.01,2013-02-03 14:12:00,
2013-02-03 09:13:00,55.9,44.8,30.21,ENE,68,0.0,0.0,66,0.00,,---,0.00,VWS V14.01,2013-02-03 14:13:00,
2013-02-03 09:14:00,56.1,44.9,30.21,ENE,68,0.0,0.0,66,0.00,,---,0.00,VWS V14.01,2013-02-03 14:14:00,
2013-02-03 09:15:00,56.3,44.7,30.21,ENE,68,0.0,0.0,65,0.00,,---,0.00,VWS V14.01,2013-02-03 14:15:00,
2013-02-03 09:16:00,56.3,45.1,30.21,ENE,68,0.0,0.0,66,0.00,,---,0.00,VWS V14.01,2013-02-03 14:16:00,
2013-02-03 09:17:00,57.2,44.3,30.21,ENE,68,0.0,0.0,62,0.00,,---,0.00,VWS V14.01,2013-02-03 14:17:00,
2013-02-03 09:18:00,56.7,44.6,30.21,ENE,68,0.0,0.0,64,0.00,,---,0.00,VWS V14.01,2013-02-03 14:18:00,
2013-02-03 09:19:00,56.8,44.4,30.21,ENE,68,0.0,0.0,63,0.00,,---,0.00,VWS V14.01,2013-02-03 14:19:00,
2013-02-03 09:20:00,57.0,44.1,30.21,ENE,68,0.0,0.0,62,0.00,,---,0.00,VWS V14.01,2013-02-03 14:20:00,
2013-02-03 09:21:00,57.2,44.3,30.21,ENE,68,0.0,0.0,62,0.00,,---,0.00,VWS V14.01,2013-02-03 14:21:00,
2013-02-03 09:22:00,58.3,44.5,30.21,ENE,68,0.0,0.0,60,0.00,,---,0.00,VWS V14.01,2013-02-03 14:22:00,
2013-02-03 09:23:00,57.2,44.3,30.21,ENE,68,0.0,0.0,62,0.00,,---,0.00,VWS V14.01,2013-02-03 14:23:00,
2013-02-03 09:24:00,57.7,44.8,30.21,ESE,112,0.0,0.0,62,0.00,,---,0.00,VWS V14.01,2013-02-03 14:24:00,
2013-02-03 09:25:00,57.9,45.0,30.21,ESE,112,0.0,0.0,62,0.00,,---,0.00,VWS V14.01,2013-02-03 14:25:00,
2013-02-03 09:26:00,58.3,44.9,30.21,ENE,68,0.0,0.0,61,0.00,,---,0.00,VWS V14.01,2013-02-03 14:26:00,
2013-02-03 09:27:00,57.9,42.8,30.21,ESE,112,0.0,0.0,57,0.00,,---,0.00,VWS V14.01,2013-02-03 14:27:00,
2013-02-03 09:28:00,58.3,44.5,30.21,ENE,68,0.0,0.0,60,0.00,,---,0.00,VWS V14.01,2013-02-03 14:28:00,
2013-02-03 09:29:00,58.1,43.9,30.21,East,90,0.0,0.0,59,0.00,,---,0.00,VWS V14.01,2013-02-03 14:29:00,
2013-02-03 09:30:00,57.9,43.7,30.21,East,90,0.0,0.0,59,0.00,,---,0.00,VWS V14.01,2013-02-03 14:30:00,
2013-02-03 09:31:00,57.9,43.2,30.21,East,90,0.0,0.0,58,0.00,,---,0.00,VWS V14.01,2013-02-03 14:31:00,
2013-02-03 09:32:00,58.6,41.6,30.21,ESE,112,0.0,0.0,53,0.00,,---,0.00,VWS V14.01,2013-02-03 14:32:00,
2013-02-03 09:33:00,57.9,42.8,30.21,East,90,0.0,0.0,57,0.00,,---,0.00,VWS V14.01,2013-02-03 14:33:00,
2013-02-03 09:34:00,58.5,42.4,30.21,East,90,0.0,0.0,55,0.00,,---,0.00,VWS V14.01,2013-02-03 14:34:00,
2013-02-03 09:35:00,58.6,42.1,30.21,East,90,0.0,0.0,54,0.00,,---,0.00,VWS V14.01,2013-02-03 14:35:00,
2013-02-03 09:36:00,58.6,42.1,30.21,ESE,112,0.0,0.0,54,0.00,,---,0.00,VWS V14.01,2013-02-03 14:36:00,
2013-02-03 09:37:00,59.7,42.1,30.21,NE,45,0.0,0.0,52,0.00,,---,0.00,VWS V14.01,2013-02-03 14:37:00,
2013-02-03 09:38:00,58.6,41.6,30.21,ESE,112,0.0,0.0,53,0.00,,---,0.00,VWS V14.01,2013-02-03 14:38:00,
2013-02-03 09:39:00,58.8,41.7,30.21,ESE,112,0.0,0.0,53,0.00,,---,0.00,VWS V14.01,2013-02-03 14:39:00,
2013-02-03 09:40:00,59.2,41.1,30.21,ESE,112,0.0,0.0,51,0.00,,---,0.00,VWS V14.01,2013-02-03 14:40:00,
2013-02-03 09:41:00,59.5,42.4,30.21,NNE,22,0.0,0.0,53,0.00,,---,0.00,VWS V14.01,2013-02-03 14:41:00,
2013-02-03 09:42:00,60.8,42.1,30.21,ENE,68,0.0,0.0,50,0.00,,---,0.00,VWS V14.01,2013-02-03 14:42:00,
2013-02-03 09:43:00,60.1,41.9,30.21,NE,45,0.0,0.0,51,0.00,,---,0.00,VWS V14.01,2013-02-03 14:43:00,
2013-02-03 09:44:00,60.1,41.9,30.21,ENE,68,0.0,0.0,51,0.00,,---,0.00,VWS V14.01,2013-02-03 14:44:00,
2013-02-03 09:45:00,60.4,42.8,30.21,ENE,68,0.0,0.0,52,0.00,,---,0.00,VWS V14.01,2013-02-03 14:45:00,
2013-02-03 09:46:00,60.4,42.2,30.21,ENE,68,0.0,0.0,51,0.00,,---,0.00,VWS V14.01,2013-02-03 14:46:00,
2013-02-03 09:47:00,61.5,40.6,30.21,ENE,68,0.0,0.0,46,0.00,,---,0.00,VWS V14.01,2013-02-03 14:47:00,
2013-02-03 09:48:00,60.8,42.1,30.21,ENE,68,0.0,0.0,50,0.00,,---,0.00,VWS V14.01,2013-02-03 14:48:00,
2013-02-03 09:49:00,61.0,40.1,30.21,ENE,68,0.0,0.0,46,0.00,,---,0.00,VWS V14.01,2013-02-03 14:49:00,
2013-02-03 09:50:00,61.3,41.5,30.21,ENE,68,0.0,0.0,48,0.00,,---,0.00,VWS V14.01,2013-02-03 14:50:00,
2013-02-03 09:51:00,61.5,40.6,30.21,ENE,68,0.0,0.0,46,0.00,,---,0.00,VWS V14.01,2013-02-03 14:51:00,
2013-02-03 09:52:00,61.9,40.3,30.21,ENE,68,0.0,0.0,45,0.00,,---,0.00,VWS V14.01,2013-02-03 14:52:00,
2013-02-03 09:53:00,61.5,40.6,30.21,North,0,0.0,0.0,46,0.00,,---,0.00,VWS V14.01,2013-02-03 14:53:00,
2013-02-03 09:54:00,61.7,40.7,30.21,East,90,0.0,0.0,46,0.00,,---,0.00,VWS V14.01,2013-02-03 14:54:00,
2013-02-03 09:55:00,61.7,40.2,30.21,East,90,0.0,0.0,45,0.00,,---,0.00,VWS V14.01,2013-02-03 14:55:00,
2013-02-03 09:56:00,61.9,39.8,30.21,ENE,68,0.0,0.0,44,0.00,,---,0.00,VWS V14.01,2013-02-03 14:56:00,
2013-02-03 09:57:00,61.9,39.2,30.18,East,90,0.0,0.0,43,0.00,,---,0.00,VWS V14.01,2013-02-03 14:57:00,
2013-02-03 09:58:00,61.9,39.8,30.18,ENE,68,0.0,0.0,44,0.00,,---,0.00,VWS V14.01,2013-02-03 14:58:00,
2013-02-03 09:59:00,62.1,39.9,30.18,NE,45,0.0,0.0,44,0.00,,---,0.00,VWS V14.01,2013-02-03 14:59:00,
2013-02-03 10:00:00,62.1,39.9,30.18,North,0,0.0,0.0,44,0.00,,---,0.00,VWS V14.01,2013-02-03 15:00:00,
2013-02-03 10:01:00,61.9,39.8,30.18,East,90,0.0,0.0,44,0.00,,---,0.00,VWS V14.01,2013-02-03 15:01:00,
2013-02-03 10:02:00,61.9,38.0,30.18,ENE,68,0.0,0.0,41,0.00,,---,0.00,VWS V14.01,2013-02-03 15:02:00,
2013-02-03 10:03:00,61.9,39.2,30.18,East,90,0.0,0.0,43,0.00,,---,0.00,VWS V14.01,2013-02-03 15:03:00,
2013-02-03 10:04:00,61.7,38.4,30.18,ESE,112,0.0,0.0,42,0.00,,---,0.00,VWS V14.01,2013-02-03 15:04:00,
2013-02-03 10:05:00,61.9,39.2,30.18,East,90,0.0,0.0,43,0.00,,---,0.00,VWS V14.01,2013-02-03 15:05:00,
2013-02-03 10:06:00,61.9,39.2,30.18,NNW,338,0.0,0.0,43,0.00,,---,0.00,VWS V14.01,2013-02-03 15:06:00,
2013-02-03 10:07:00,62.1,38.7,30.18,NNE,22,0.0,0.0,42,0.00,,---,0.00,VWS V14.01,2013-02-03 15:07:00,
2013-02-03 10:08:00,61.9,38.6,30.18,ENE,68,0.0,0.0,42,0.00,,---,0.00,VWS V14.01,2013-02-03 15:08:00,
2013-02-03 10:09:00,61.9,39.2,30.18,ESE,112,0.0,0.0,43,0.00,,---,0.00,VWS V14.01,2013-02-03 15:09:00,
2013-02-03 10:10:00,61.7,37.8,30.18,ESE,112,0.0,0.0,41,0.00,,---,0.00,VWS V14.01,2013-02-03 15:10:00,
2013-02-03 10:11:00,61.9,38.6,30.18,ENE,68,0.0,0.0,42,0.00,,---,0.00,VWS V14.01,2013-02-03 15:11:00,
2013-02-03 10:12:00,63.0,38.9,30.21,SE,135,0.0,0.0,41,0.00,,---,0.00,VWS V14.01,2013-02-03 15:12:00,
2013-02-03 10:13:00,62.1,38.7,30.21,NNE,22,0.0,0.0,42,0.00,,---,0.00,VWS V14.01,2013-02-03 15:13:00,
2013-02-03 10:14:00,62.2,39.5,30.21,NNE,22,0.0,0.0,43,0.00,,---,0.00,VWS V14.01,2013-02-03 15:14:00,
2013-02-03 10:15:00,62.2,39.5,30.21,ENE,68,0.0,0.0,43,0.00,,---,0.00,VWS V14.01,2013-02-03 15:15:00,
2013-02-03 10:16:00,62.6,39.2,30.21,NNE,22,0.0,0.0,42,0.00,,---,0.00,VWS V14.01,2013-02-03 15:16:00,
2013-02-03 10:17:00,63.3,38.0,30.21,NNE,22,0.0,0.0,39,0.00,,---,0.00,VWS V14.01,2013-02-03 15:17:00,
2013-02-03 10:18:00,63.0,38.9,30.21,SE,135,0.0,0.0,41,0.00,,---,0.00,VWS V14.01,2013-02-03 15:18:00,
2013-02-03 10:19:00,63.5,39.4,30.21,East,90,0.0,0.0,41,0.00,,---,0.00,VWS V14.01,2013-02-03 15:19:00,
2013-02-03 10:20:00,63.3,38.6,30.21,ESE,112,2.0,2.0,40,0.00,,---,0.00,VWS V14.01,2013-02-03 15:20:00,
2013-02-03 10:21:00,63.1,37.8,30.21,ESE,112,0.0,2.0,39,0.00,,---,0.00,VWS V14.01,2013-02-03 15:21:00,
2013-02-03 10:22:00,64.8,39.2,30.21,ENE,68,0.0,0.0,39,0.00,,---,0.00,VWS V14.01,2013-02-03 15:22:00,
2013-02-03 10:23:00,63.7,38.9,30.21,NNE,22,0.0,0.0,40,0.00,,---,0.00,VWS V14.01,2013-02-03 15:23:00,
2013-02-03 10:24:00,63.9,39.1,30.21,NNE,22,0.0,0.0,40,0.00,,---,0.00,VWS V14.01,2013-02-03 15:24:00,
2013-02-03 10:25:00,64.0,38.6,30.21,North,0,0.0,0.0,39,0.00,,---,0.00,VWS V14.01,2013-02-03 15:25:00,
2013-02-03 10:26:00,64.4,39.6,30.21,NNE,22,0.0,0.0,40,0.00,,---,0.00,VWS V14.01,2013-02-03 15:26:00,
2013-02-03 10:27:00,65.1,38.2,30.21,South,180,0.0,0.0,37,0.00,,---,0.00,VWS V14.01,2013-02-03 15:27:00,
2013-02-03 10:28:00,64.8,39.2,30.21,ENE,68,0.0,0.0,39,0.00,,---,0.00,VWS V14.01,2013-02-03 15:28:00,
2013-02-03 10:29:00,65.1,39.6,30.21,NE,45,0.0,0.0,39,0.00,,---,0.00,VWS V14.01,2013-02-03 15:29:00,
2013-02-03 10:30:00,65.3,39.7,30.21,SE,135,0.0,0.0,39,0.00,,---,0.00,VWS V14.01,2013-02-03 15:30:00,
2013-02-03 10:31:00,65.7,38.7,30.21,WNW,292,2.0,2.0,37,0.00,,---,0.00,VWS V14.01,2013-02-03 15:31:00,
2013-02-03 10:32:00,65.1,38.2,30.21,South,180,0.0,0.0,37,0.00,,---,0.00,VWS V14.01,2013-02-03 15:32:00,
2013-02-03 10:33:00,65.1,38.2,30.21,NNE,22,0.0,0.0,37,0.00,,---,0.00,VWS V14.01,2013-02-03 15:33:00,
2013-02-03 10:34:00,65.5,38.5,30.21,NNE,22,0.0,0.0,37,0.00,,---,0.00,VWS V14.01,2013-02-03 15:34:00,
2013-02-03 10:35:00,65.7,38.7,30.21,East,90,0.0,1.3,37,0.00,,---,0.00,VWS V14.01,2013-02-03 15:35:00,
2013-02-03 10:36:00,66.2,38.5,30.21,ENE,68,1.6,2.2,36,0.00,,---,0.00,VWS V14.01,2013-02-03 15:36:00,
2013-02-03 10:37:00,65.7,38.7,30.21,East,90,0.0,0.0,37,0.00,,---,0.00,VWS V14.01,2013-02-03 15:37:00,
2013-02-03 10:38:00,65.8,38.2,30.21,NNW,338,2.2,2.2,36,0.00,,---,0.00,VWS V14.01,2013-02-03 15:38:00,
2013-02-03 10:39:00,65.8,38.2,30.21,ENE,68,0.0,2.5,36,0.00,,---,0.00,VWS V14.01,2013-02-03 15:39:00,
2013-02-03 10:40:00,65.8,38.2,30.21,NNW,338,0.0,0.0,36,0.00,,---,0.00,VWS V14.01,2013-02-03 15:40:00,
2013-02-03 10:41:00,66.6,38.1,30.21,ESE,112,0.0,0.9,35,0.00,,---,0.00,VWS V14.01,2013-02-03 15:41:00,
2013-02-03 10:42:00,66.2,38.5,30.21,North,0,2.2,2.2,36,0.00,,---,0.00,VWS V14.01,2013-02-03 15:42:00,
2013-02-03 10:43:00,66.2,37.8,30.21,North,0,2.9,2.9,35,0.00,,---,0.00,VWS V14.01,2013-02-03 15:43:00,
2013-02-03 10:44:00,66.4,37.9,30.21,ENE,68,0.0,2.9,35,0.00,,---,0.00,VWS V14.01,2013-02-03 15:44:00,
2013-02-03 10:45:00,66.6,38.1,30.21,ENE,68,0.0,0.0,35,0.00,,---,0.00,VWS V14.01,2013-02-03 15:45:00,
2013-02-03 10:46:00,67.3,38.7,30.21,NNE,22,0.0,0.0,35,0.00,,---,0.00,VWS V14.01,2013-02-03 15:46:00,
2013-02-03 10:47:00,66.7,38.2,30.21,East,90,0.9,0.9,35,0.00,,---,0.00,VWS V14.01,2013-02-03 15:47:00,
2013-02-03 10:48:00,66.6,38.1,30.21,NNW,338,2.5,2.5,35,0.00,,---,0.00,VWS V14.01,2013-02-03 15:48:00,
2013-02-03 10:49:00,66.6,38.1,30.21,NE,45,0.0,2.5,35,0.00,,---,0.00,VWS V14.01,2013-02-03 15:49:00,
2013-02-03 10:50:00,66.9,38.4,30.21,NNE,22,1.6,1.6,35,0.00,,---,0.00,VWS V14.01,2013-02-03 15:50:00,
2013-02-03 10:51:00,67.8,38.5,30.21,ESE,112,0.0,0.0,34,0.00,,---,0.00,VWS V14.01,2013-02-03 15:51:00,
2013-02-03 10:52:00,67.3,38.7,30.21,North,0,0.0,0.0,35,0.00,,---,0.00,VWS V14.01,2013-02-03 15:52:00,
2013-02-03 10:53:00,67.5,38.9,30.21,North,0,0.0,0.0,35,0.00,,---,0.00,VWS V14.01,2013-02-03 15:53:00,
2013-02-03 10:54:00,67.6,39.0,30.21,SE,135,0.0,0.0,35,0.00,,---,0.00,VWS V14.01,2013-02-03 15:54:00,
2013-02-03 10:55:00,67.6,39.0,30.21,ENE,68,0.0,2.2,35,0.00,,---,0.00,VWS V14.01,2013-02-03 15:55:00,
2013-02-03 10:56:00,68.2,38.8,30.21,SW,225,0.0,0.0,34,0.00,,---,0.00,VWS V14.01,2013-02-03 15:56:00,
2013-02-03 10:57:00,67.8,38.5,30.21,ESE,112,0.0,0.0,34,0.00,,---,0.00,VWS V14.01,2013-02-03 15:57:00,
2013-02-03 10:58:00,67.6,38.3,30.21,SW,225,3.1,3.1,34,0.00,,---,0.00,VWS V14.01,2013-02-03 15:58:00,
2013-02-03 10:59:00,67.8,38.5,30.21,NE,45,2.7,3.1,34,0.00,,---,0.00,VWS V14.01,2013-02-03 15:59:00,
2013-02-03 11:00:00,67.8,38.5,30.21,East,90,0.0,2.7,34,0.00,,---,0.00,VWS V14.01,2013-02-03 16:00:00,
2013-02-03 11:01:00,68.9,38.6,30.21,ESE,112,2.9,2.9,33,0.00,,---,0.00,VWS V14.01,2013-02-03 16:01:00,
2013-02-03 11:02:00,68.2,38.8,30.21,SW,225,0.0,0.0,34,0.00,,---,0.00,VWS V14.01,2013-02-03 16:02:00,
2013-02-03 11:03:00,68.2,38.8,30.21,East,90,0.0,0.0,34,0.00,,---,0.00,VWS V14.01,2013-02-03 16:03:00,
2013-02-03 11:04:00,68.4,38.9,30.21,East,90,0.0,0.0,34,0.00,,---,0.00,VWS V14.01,2013-02-03 16:04:00,
2013-02-03 11:05:00,68.5,38.3,30.21,WNW,292,2.5,2.5,33,0.00,,---,0.00,VWS V14.01,2013-02-03 16:05:00,
2013-02-03 11:06:00,68.7,38.5,30.21,ESE,112,0.0,0.0,33,0.00,,---,0.00,VWS V14.01,2013-02-03 16:06:00,
2013-02-03 11:07:00,68.9,38.6,30.21,ESE,112,1.1,2.0,33,0.00,,---,0.00,VWS V14.01,2013-02-03 16:07:00,
2013-02-03 11:08:00,68.7,38.5,30.21,NW,315,1.1,2.9,33,0.00,,---,0.00,VWS V14.01,2013-02-03 16:08:00,
2013-02-03 11:09:00,68.7,38.5,30.21,SE,135,0.0,1.1,33,0.00,,---,0.00,VWS V14.01,2013-02-03 16:09:00,
2013-02-03 11:10:00,68.7,38.5,30.21,ESE,112,0.0,1.1,33,0.00,,---,0.00,VWS V14.01,2013-02-03 16:10:00,
2013-02-03 11:11:00,68.7,37.7,30.21,ENE,68,2.9,2.9,32,0.00,,---,0.00,VWS V14.01,2013-02-03 16:11:00,
2013-02-03 11:12:00,68.7,38.5,30.21,East,90,0.0,2.5,33,0.00,,---,0.00,VWS V14.01,2013-02-03 16:12:00,
2013-02-03 11:13:00,68.9,38.6,30.21,NNW,338,0.0,2.0,33,0.00,,---,0.00,VWS V14.01,2013-02-03 16:13:00,
2013-02-03 11:14:00,68.9,38.6,30.21,ESE,112,0.0,0.9,33,0.00,,---,0.00,VWS V14.01,2013-02-03 16:14:00,
2013-02-03 11:15:00,68.9,38.6,30.21,SW,225,0.0,3.1,33,0.00,,---,0.00,VWS V14.01,2013-02-03 16:15:00,
2013-02-03 11:16:00,69.6,38.5,30.21,North,0,1.1,1.3,32,0.00,,---,0.00,VWS V14.01,2013-02-03 16:16:00,
2013-02-03 11:17:00,68.7,37.7,30.21,NNE,22,1.6,2.9,32,0.00,,---,0.00,VWS V14.01,2013-02-03 16:17:00,
2013-02-03 11:18:00,68.9,37.8,30.21,NNW,338,0.0,2.9,32,0.00,,---,0.00,VWS V14.01,2013-02-03 16:18:00,
2013-02-03 11:19:00,68.9,37.8,30.21,North,0,0.0,1.6,32,0.00,,---,0.00,VWS V14.01,2013-02-03 16:19:00,
2013-02-03 11:20:00,69.4,38.3,30.21,North,0,3.4,3.4,32,0.00,,---,0.00,VWS V14.01,2013-02-03 16:20:00,
2013-02-03 11:21:00,70.2,35.6,30.21,WNW,292,4.0,4.0,28,0.00,,---,0.00,VWS V14.01,2013-02-03 16:21:00,
2013-02-03 11:22:00,69.6,38.5,30.21,East,90,1.3,3.8,32,0.00,,---,0.00,VWS V14.01,2013-02-03 16:22:00,
2013-02-03 11:23:00,69.8,37.0,30.21,North,0,2.9,4.9,30,0.00,,---,0.00,VWS V14.01,2013-02-03 16:23:00,
2013-02-03 11:24:00,69.8,36.1,30.21,North,0,2.0,5.6,29,0.00,,---,0.00,VWS V14.01,2013-02-03 16:24:00,
2013-02-03 11:25:00,70.0,36.3,30.21,NNW,338,3.6,7.4,29,0.00,,---,0.00,VWS V14.01,2013-02-03 16:25:00,
2013-02-03 11:26:00,70.9,35.3,30.21,NNW,338,2.0,2.9,27,0.00,,---,0.00,VWS V14.01,2013-02-03 16:26:00,
2013-02-03 11:27:00,70.2,35.6,30.21,North,0,3.6,3.8,28,0.00,,---,0.00,VWS V14.01,2013-02-03 16:27:00,
2013-02-03 11:28:00,70.3,35.7,30.21,WNW,292,0.0,5.6,28,0.00,,---,0.00,VWS V14.01,2013-02-03 16:28:00,
2013-02-03 11:29:00,70.7,36.9,30.21,ENE,68,0.0,1.6,29,0.00,,---,0.00,VWS V14.01,2013-02-03 16:29:00,
2013-02-03 11:30:00,70.7,36.0,30.21,WNW,292,7.2,7.2,28,0.00,,---,0.00,VWS V14.01,2013-02-03 16:30:00,
2013-02-03 11:31:00,70.3,33.9,30.21,WNW,292,4.9,7.4,26,0.00,,---,0.00,VWS V14.01,2013-02-03 16:31:00,
2013-02-03 11:32:00,70.9,35.3,30.21,WNW,292,2.9,4.3,27,0.00,,---,0.00,VWS V14.01,2013-02-03 16:32:00,
2013-02-03 11:33:00,71.1,36.3,30.21,WSW,248,6.0,6.0,28,0.00,,---,0.00,VWS V14.01,2013-02-03 16:33:00,
2013-02-03 11:34:00,71.1,36.3,30.21,WNW,292,4.0,6.5,28,0.00,,---,0.00,VWS V14.01,2013-02-03 16:34:00,
2013-02-03 11:35:00,70.9,35.3,30.21,WNW,292,3.8,4.0,27,0.00,,---,0.00,VWS V14.01,2013-02-03 16:35:00,
2013-02-03 11:36:00,70.9,34.3,30.21,NE,45,2.7,2.7,26,0.00,,---,0.00,VWS V14.01,2013-02-03 16:36:00,
2013-02-03 11:37:00,70.3,33.9,30.21,WNW,292,7.4,10.3,26,0.00,,---,0.00,VWS V14.01,2013-02-03 16:37:00,
2013-02-03 11:38:00,70.3,33.9,30.21,NW,315,4.0,7.4,26,0.00,,---,0.00,VWS V14.01,2013-02-03 16:38:00,
2013-02-03 11:39:00,70.5,34.0,30.21,ENE,68,3.4,4.0,26,0.00,,---,0.00,VWS V14.01,2013-02-03 16:39:00,
2013-02-03 11:40:00,70.5,34.0,30.21,NW,315,4.3,4.9,26,0.00,,---,0.00,VWS V14.01,2013-02-03 16:40:00,
2013-02-03 11:41:00,70.7,33.2,30.21,NNW,338,4.7,4.7,25,0.00,,---,0.00,VWS V14.01,2013-02-03 16:41:00,
2013-02-03 11:42:00,70.7,34.2,30.21,NE,45,2.7,6.5,26,0.00,,---,0.00,VWS V14.01,2013-02-03 16:42:00,
2013-02-03 11:43:00,70.9,34.3,30.21,NNW,338,8.1,8.1,26,0.00,,---,0.00,VWS V14.01,2013-02-03 16:43:00,
2013-02-03 11:44:00,70.7,33.2,30.21,NNW,338,4.3,8.1,25,0.00,,---,0.00,VWS V14.01,2013-02-03 16:44:00,
2013-02-03 11:45:00,70.7,34.2,30.21,North,0,3.8,7.4,26,0.00,,---,0.00,VWS V14.01,2013-02-03 16:45:00,
2013-02-03 11:46:00,70.7,33.2,30.21,WNW,292,6.3,6.3,25,0.00,,---,0.00,VWS V14.01,2013-02-03 16:46:00,
2013-02-03 11:47:00,70.7,33.2,30.21,NNW,338,3.1,6.3,25,0.00,,---,0.00,VWS V14.01,2013-02-03 16:47:00,
2013-02-03 11:48:00,70.5,33.0,30.21,WNW,292,6.5,6.5,25,0.00,,---,0.00,VWS V14.01,2013-02-03 16:48:00,
2013-02-03 11:49:00,70.5,33.0,30.21,NNW,338,2.0,6.5,25,0.00,,---,0.00,VWS V14.01,2013-02-03 16:49:00,
2013-02-03 11:50:00,70.7,34.2,30.21,SE,135,3.4,4.0,26,0.00,,---,0.00,VWS V14.01,2013-02-03 16:50:00,
2013-02-03 11:51:00,70.0,32.6,30.21,WNW,292,5.8,6.0,25,0.00,,---,0.00,VWS V14.01,2013-02-03 16:51:00,
2013-02-03 11:52:00,70.7,33.2,30.21,WNW,292,6.3,8.1,25,0.00,,---,0.00,VWS V14.01,2013-02-03 16:52:00,
2013-02-03 11:53:00,70.7,33.2,30.21,WSW,248,2.0,6.3,25,0.00,,---,0.00,VWS V14.01,2013-02-03 16:53:00,
2013-02-03 11:54:00,70.5,33.0,30.21,South,180,0.9,4.9,25,0.00,,---,0.00,VWS V14.01,2013-02-03 16:54:00,
2013-02-03 11:55:00,70.5,33.0,30.21,NNW,338,4.7,4.7,25,0.00,,---,0.00,VWS V14.01,2013-02-03 16:55:00,
2013-02-03 11:56:00,70.0,32.6,30.21,North,0,2.5,2.5,25,0.00,,---,0.00,VWS V14.01,2013-02-03 16:56:00,
2013-02-03 11:57:00,70.2,32.7,30.21,NNW,338,6.0,11.9,25,0.00,,---,0.00,VWS V14.01,2013-02-03 16:57:00,
2013-02-03 11:58:00,70.0,32.6,30.21,WNW,292,9.6,9.6,25,0.00,,---,0.00,VWS V14.01,2013-02-03 16:58:00,
2013-02-03 11:59:00,70.0,32.6,30.21,NNW,338,3.8,10.1,25,0.00,,---,0.00,VWS V14.01,2013-02-03 16:59:00,
2013-02-03 12:00:00,69.8,32.4,30.21,WNW,292,2.5,10.1,25,0.00,,---,0.00,VWS V14.01,2013-02-03 17:00:00,
2013-02-03 12:01:00,70.5,34.0,30.21,East,90,3.6,4.9,26,0.00,,---,0.00,VWS V14.01,2013-02-03 17:01:00,
2013-02-03 12:02:00,70.0,32.6,30.21,North,0,1.6,6.3,25,0.00,,---,0.00,VWS V14.01,2013-02-03 17:02:00,
2013-02-03 12:03:00,70.2,32.7,30.21,NNE,22,3.4,6.3,25,0.00,,---,0.00,VWS V14.01,2013-02-03 17:03:00,
2013-02-03 12:04:00,70.2,33.7,30.21,North,0,3.8,5.8,26,0.00,,---,0.00,VWS V14.01,2013-02-03 17:04:00,
2013-02-03 12:05:00,70.5,34.0,30.21,ENE,68,1.3,7.2,26,0.00,,---,0.00,VWS V14.01,2013-02-03 17:05:00,
2013-02-03 12:06:00,71.1,34.5,30.21,North,0,4.0,4.9,26,0.00,,---,0.00,VWS V14.01,2013-02-03 17:06:00,
2013-02-03 12:07:00,70.5,34.0,30.21,East,90,3.6,4.9,26,0.00,,---,0.00,VWS V14.01,2013-02-03 17:07:00,
2013-02-03 12:08:00,70.7,34.2,30.21,WNW,292,3.1,3.6,26,0.00,,---,0.00,VWS V14.01,2013-02-03 17:08:00,
2013-02-03 12:09:00,70.7,34.2,30.21,NW,315,7.6,7.6,26,0.00,,---,0.00,VWS V14.01,2013-02-03 17:09:00,
2013-02-03 12:10:00,70.7,34.2,30.21,NNW,338,1.1,7.6,26,0.00,,---,0.00,VWS V14.01,2013-02-03 17:10:00,
2013-02-03 12:11:00,71.4,34.8,30.18,NE,45,2.0,2.0,26,0.00,,---,0.00,VWS V14.01,2013-02-03 17:11:00,
2013-02-03 12:12:00,71.1,34.5,30.21,NNE,22,4.9,4.9,26,0.00,,---,0.00,VWS V14.01,2013-02-03 17:12:00,
2013-02-03 12:13:00,71.2,34.6,30.18,NW,315,3.6,4.9,26,0.00,,---,0.00,VWS V14.01,2013-02-03 17:13:00,
2013-02-03 12:14:00,71.2,34.6,30.18,North,0,3.1,3.6,26,0.00,,---,0.00,VWS V14.01,2013-02-03 17:14:00,
2013-02-03 12:15:00,71.2,34.6,30.18,ESE,112,0.0,3.1,26,0.00,,---,0.00,VWS V14.01,2013-02-03 17:15:00,
2013-02-03 12:16:00,71.4,34.8,30.18,NNW,338,3.4,5.8,26,0.00,,---,0.00,VWS V14.01,2013-02-03 17:16:00,
2013-02-03 12:17:00,71.4,34.8,30.18,NE,45,2.0,6.5,26,0.00,,---,0.00,VWS V14.01,2013-02-03 17:17:00,
2013-02-03 12:18:00,71.4,34.8,30.18,NNW,338,4.7,8.5,26,0.00,,---,0.00,VWS V14.01,2013-02-03 17:18:00,
2013-02-03 12:19:00,71.2,34.6,30.18,NNW,338,3.4,5.6,26,0.00,,---,0.00,VWS V14.01,2013-02-03 17:19:00,
2013-02-03 12:20:00,71.4,34.8,30.18,SSE,158,2.0,3.8,26,0.00,,---,0.00,VWS V14.01,2013-02-03 17:20:00,
2013-02-03 12:21:00,71.8,34.1,30.18,North,0,4.3,4.3,25,0.00,,---,0.00,VWS V14.01,2013-02-03 17:21:00,
2013-02-03 12:22:00,71.4,34.8,30.18,ENE,68,5.8,5.8,26,0.00,,---,0.00,VWS V14.01,2013-02-03 17:22:00,
2013-02-03 12:23:00,71.6,34.0,30.18,NNW,338,0.0,5.8,25,0.00,,---,0.00,VWS V14.01,2013-02-03 17:23:00,
2013-02-03 12:24:00,71.4,34.8,30.18,NW,315,7.2,7.2,26,0.00,,---,0.00,VWS V14.01,2013-02-03 17:24:00,
2013-02-03 12:25:00,71.6,34.9,30.18,NNE,22,0.9,7.2,26,0.00,,---,0.00,VWS V14.01,2013-02-03 17:25:00,
2013-02-03 12:26:00,71.1,34.5,30.18,West,270,2.9,10.7,26,0.00,,---,0.00,VWS V14.01,2013-02-03 17:26:00,
2013-02-03 12:27:00,71.8,35.1,30.18,North,0,4.3,7.6,26,0.00,,---,0.00,VWS V14.01,2013-02-03 17:27:00,
2013-02-03 12:28:00,71.8,34.1,30.18,WNW,292,3.4,4.3,25,0.00,,---,0.00,VWS V14.01,2013-02-03 17:28:00,
2013-02-03 12:29:00,71.6,34.0,30.18,WNW,292,6.0,7.4,25,0.00,,---,0.00,VWS V14.01,2013-02-03 17:29:00,
2013-02-03 12:30:00,71.4,33.8,30.18,NNW,338,8.1,8.1,25,0.00,,---,0.00,VWS V14.01,2013-02-03 17:30:00,
2013-02-03 12:31:00,70.7,34.2,30.18,NW,315,3.4,4.3,26,0.00,,---,0.00,VWS V14.01,2013-02-03 17:31:00,
2013-02-03 12:32:00,71.1,34.5,30.18,West,270,2.9,10.7,26,0.00,,---,0.00,VWS V14.01,2013-02-03 17:32:00,
2013-02-03 12:33:00,71.2,34.6,30.18,NW,315,12.3,12.3,26,0.00,,---,0.00,VWS V14.01,2013-02-03 17:33:00,
2013-02-03 12:34:00,70.5,34.0,30.18,NNW,338,4.3,12.3,26,0.00,,---,0.00,VWS V14.01,2013-02-03 17:34:00,
2013-02-03 12:35:00,70.7,34.2,30.18,NNW,338,4.3,4.3,26,0.00,,---,0.00,VWS V14.01,2013-02-03 17:35:00,
2013-02-03 12:36:00,71.2,34.6,30.18,West,270,6.0,7.6,26,0.00,,---,0.00,VWS V14.01,2013-02-03 17:36:00,
2013-02-03 12:37:00,70.7,34.2,30.18,NNW,338,4.3,9.6,26,0.00,,---,0.00,VWS V14.01,2013-02-03 17:37:00,
2013-02-03 12:38:00,71.1,35.4,30.18,NNW,338,3.4,4.3,27,0.00,,---,0.00,VWS V14.01,2013-02-03 17:38:00,
2013-02-03 12:39:00,71.1,35.4,30.18,NNE,22,6.5,7.6,27,0.00,,---,0.00,VWS V14.01,2013-02-03 17:39:00,
2013-02-03 12:40:00,71.1,34.5,30.18,WNW,292,8.1,8.1,26,0.00,,---,0.00,VWS V14.01,2013-02-03 17:40:00,
2013-02-03 12:41:00,71.4,35.7,30.18,North,0,5.6,5.6,27,0.00,,---,0.00,VWS V14.01,2013-02-03 17:41:00,
2013-02-03 12:42:00,71.2,34.6,30.18,West,270,6.0,7.6,26,0.00,,---,0.00,VWS V14.01,2013-02-03 17:42:00,
2013-02-03 12:43:00,70.9,34.3,30.18,WNW,292,7.6,7.6,26,0.00,,---,0.00,VWS V14.01,2013-02-03 17:43:00,
2013-02-03 12:44:00,71.1,35.4,30.18,East,90,2.9,7.6,27,0.00,,---,0.00,VWS V14.01,2013-02-03 17:44:00,
2013-02-03 12:45:00,71.1,34.5,30.18,North,0,2.9,4.3,26,0.00,,---,0.00,VWS V14.01,2013-02-03 17:45:00,
2013-02-03 12:46:00,71.2,35.6,30.18,NNW,338,4.9,6.5,27,0.00,,---,0.00,VWS V14.01,2013-02-03 17:46:00,
2013-02-03 12:47:00,71.4,35.7,30.18,North,0,5.6,5.6,27,0.00,,---,0.00,VWS V14.01,2013-02-03 17:47:00,
2013-02-03 12:48:00,71.6,34.9,30.18,West,270,4.9,5.6,26,0.00,,---,0.00,VWS V14.01,2013-02-03 17:48:00,
2013-02-03 12:49:00,71.2,34.6,30.18,West,270,2.9,8.5,26,0.00,,---,0.00,VWS V14.01,2013-02-03 17:49:00,
2013-02-03 12:50:00,71.2,35.6,30.18,NNW,338,3.6,5.8,27,0.00,,---,0.00,VWS V14.01,2013-02-03 17:50:00,
2013-02-03 12:51:00,71.4,35.7,30.18,NNW,338,2.0,3.1,27,0.00,,---,0.00,VWS V14.01,2013-02-03 17:51:00,
2013-02-03 12:52:00,71.2,35.6,30.18,NNW,338,4.9,6.5,27,0.00,,---,0.00,VWS V14.01,2013-02-03 17:52:00,
2013-02-03 12:53:00,71.2,35.6,30.18,ENE,68,2.0,4.9,27,0.00,,---,0.00,VWS V14.01,2013-02-03 17:53:00,
2013-02-03 12:54:00,71.4,35.7,30.18,WNW,292,2.0,3.6,27,0.00,,---,0.00,VWS V14.01,2013-02-03 17:54:00,
2013-02-03 12:55:00,71.2,35.6,30.18,WSW,248,5.6,7.8,27,0.00,,---,0.00,VWS V14.01,2013-02-03 17:55:00,
2013-02-03 12:56:00,71.4,35.7,30.18,West,270,1.3,1.3,27,0.00,,---,0.00,VWS V14.01,2013-02-03 17:56:00,
2013-02-03 12:57:00,71.4,35.7,30.18,NNW,338,2.0,3.1,27,0.00,,---,0.00,VWS V14.01,2013-02-03 17:57:00,
2013-02-03 12:58:00,71.4,35.7,30.18,NNW,338,4.0,4.0,27,0.00,,---,0.00,VWS V14.01,2013-02-03 17:58:00,
2013-02-03 12:59:00,71.4,35.7,30.18,NNW,338,5.4,10.3,27,0.00,,---,0.00,VWS V14.01,2013-02-03 17:59:00,
2013-02-03 13:00:00,71.1,35.4,30.18,NNE,22,9.8,9.8,27,0.00,,---,0.00,VWS V14.01,2013-02-03 18:00:00,
2013-02-03 13:01:00,71.2,35.6,30.18,West,270,3.6,4.0,27,0.00,,---,0.00,VWS V14.01,2013-02-03 18:01:00,
2013-02-03 13:02:00,71.4,35.7,30.18,West,270,1.3,3.4,27,0.00,,---,0.00,VWS V14.01,2013-02-03 18:02:00,
2013-02-03 13:03:00,71.6,35.9,30.18,WNW,292,6.5,6.5,27,0.00,,---,0.00,VWS V14.01,2013-02-03 18:03:00,
2013-02-03 13:04:00,71.2,35.6,30.18,NNW,338,9.8,9.8,27,0.00,,---,0.00,VWS V14.01,2013-02-03 18:04:00,
2013-02-03 13:05:00,71.1,35.4,30.18,NNW,338,5.6,9.8,27,0.00,,---,0.00,VWS V14.01,2013-02-03 18:05:00,
2013-02-03 13:06:00,70.5,35.0,30.18,NNW,338,7.2,7.2,27,0.00,,---,0.00,VWS V14.01,2013-02-03 18:06:00,
2013-02-03 13:07:00,71.2,35.6,30.18,West,270,3.6,4.0,27,0.00,,---,0.00,VWS V14.01,2013-02-03 18:07:00,
2013-02-03 13:08:00,71.1,35.4,30.18,WNW,292,5.8,6.0,27,0.00,,---,0.00,VWS V14.01,2013-02-03 18:08:00,
2013-02-03 13:09:00,70.5,35.0,30.18,NW,315,4.0,6.5,27,0.00,,---,0.00,VWS V14.01,2013-02-03 18:09:00,
2013-02-03 13:10:00,70.9,35.3,30.18,NNW,338,4.9,4.9,27,0.00,,---,0.00,VWS V14.01,2013-02-03 18:10:00,
2013-02-03 13:11:00,71.1,35.4,30.18,WNW,292,2.0,3.8,27,0.00,,---,0.00,VWS V14.01,2013-02-03 18:11:00,
2013-02-03 13:12:00,70.5,35.0,30.18,NNW,338,7.2,7.2,27,0.00,,---,0.00,VWS V14.01,2013-02-03 18:12:00,
2013-02-03 13:13:00,70.7,35.1,30.18,North,0,3.6,7.2,27,0.00,,---,0.00,VWS V14.01,2013-02-03 18:13:00,
2013-02-03 13:14:00,71.1,36.3,30.18,WNW,292,4.0,5.8,28,0.00,,---,0.00,VWS V14.01,2013-02-03 18:14:00,
2013-02-03 13:15:00,70.5,35.0,30.18,WNW,292,5.4,8.5,27,0.00,,---,0.00,VWS V14.01,2013-02-03 18:15:00,
2013-02-03 13:16:00,72.0,36.2,30.18,NNW,338,2.5,3.1,27,0.00,,---,0.00,VWS V14.01,2013-02-03 18:16:00,
2013-02-03 13:17:00,71.1,35.4,30.18,WNW,292,2.0,3.8,27,0.00,,---,0.00,VWS V14.01,2013-02-03 18:17:00,
2013-02-03 13:18:00,71.1,35.4,30.18,NE,45,1.3,4.9,27,0.00,,---,0.00,VWS V14.01,2013-02-03 18:18:00,
2013-02-03 13:19:00,71.2,35.6,30.18,ENE,68,1.1,2.9,27,0.00,,---,0.00,VWS V14.01,2013-02-03 18:19:00,
2013-02-03 13:20:00,71.6,35.9,30.18,WNW,292,3.1,3.1,27,0.00,,---,0.00,VWS V14.01,2013-02-03 18:20:00,
2013-02-03 13:21:00,71.8,35.1,30.18,NNW,338,5.6,5.6,26,0.00,,---,0.00,VWS V14.01,2013-02-03 18:21:00,
2013-02-03 13:22:00,72.0,36.2,30.18,NNW,338,2.5,3.1,27,0.00,,---,0.00,VWS V14.01,2013-02-03 18:22:00,
2013-02-03 13:23:00,72.0,36.2,30.18,North,0,0.9,4.7,27,0.00,,---,0.00,VWS V14.01,2013-02-03 18:23:00,
2013-02-03 13:24:00,72.0,35.2,30.18,NNW,338,3.4,6.3,26,0.00,,---,0.00,VWS V14.01,2013-02-03 18:24:00,
2013-02-03 13:25:00,71.8,35.1,30.18,NNE,22,2.5,6.3,26,0.00,,---,0.00,VWS V14.01,2013-02-03 18:25:00,
2013-02-03 13:26:00,71.8,35.1,30.12,WNW,292,8.5,8.7,26,0.00,,---,0.00,VWS V14.01,2013-02-03 18:26:00,
2013-02-03 13:27:00,71.8,35.1,30.18,NNW,338,5.6,5.6,26,0.00,,---,0.00,VWS V14.01,2013-02-03 18:27:00,
2013-02-03 13:28:00,72.1,35.4,30.12,WNW,292,0.9,5.6,26,0.00,,---,0.00,VWS V14.01,2013-02-03 18:28:00,
2013-02-03 13:29:00,72.1,35.4,30.12,NNW,338,2.5,2.5,26,0.00,,---,0.00,VWS V14.01,2013-02-03 18:29:00,
2013-02-03 13:30:00,72.0,35.2,30.12,NNE,22,5.8,6.5,26,0.00,,---,0.00,VWS V14.01,2013-02-03 18:30:00,
2013-02-03 13:31:00,71.6,34.9,30.12,NNW,338,2.0,6.5,26,0.00,,---,0.00,VWS V14.01,2013-02-03 18:31:00,
2013-02-03 13:32:00,71.8,35.1,30.12,WNW,292,8.5,8.7,26,0.00,,---,0.00,VWS V14.01,2013-02-03 18:32:00,
2013-02-03 13:33:00,71.6,34.9,30.12,NNW,338,2.5,8.5,26,0.00,,---,0.00,VWS V14.01,2013-02-03 18:33:00,
2013-02-03 13:34:00,71.6,34.9,30.12,West,270,7.2,7.6,26,0.00,,---,0.00,VWS V14.01,2013-02-03 18:34:00,
2013-02-03 13:35:00,71.6,34.9,30.12,WNW,292,1.3,7.2,26,0.00,,---,0.00,VWS V14.01,2013-02-03 18:35:00,
2013-02-03 13:36:00,71.2,33.6,30.12,WNW,292,3.8,4.7,25,0.00,,---,0.00,VWS V14.01,2013-02-03 18:36:00,
2013-02-03 13:37:00,71.6,34.9,30.12,WNW,292,5.6,6.5,26,0.00,,---,0.00,VWS V14.01,2013-02-03 18:37:00,
2013-02-03 13:38:00,71.2,34.6,30.12,WNW,292,7.6,9.6,26,0.00,,---,0.00,VWS V14.01,2013-02-03 18:38:00,
2013-02-03 13:39:00,71.2,34.6,30.12,NNW,338,1.1,7.6,26,0.00,,---,0.00,VWS V14.01,2013-02-03 18:39:00,
2013-02-03 13:40:00,71.2,33.6,30.12,NNW,338,3.8,4.9,25,0.00,,---,0.00,VWS V14.01,2013-02-03 18:40:00,
2013-02-03 13:41:00,71.1,33.5,30.15,WNW,292,5.4,6.5,25,0.00,,---,0.00,VWS V14.01,2013-02-03 18:41:00,
2013-02-03 13:42:00,71.2,33.6,30.12,WNW,292,3.8,4.7,25,0.00,,---,0.00,VWS V14.01,2013-02-03 18:42:00,
2013-02-03 13:43:00,71.1,33.5,30.15,WSW,248,3.8,7.4,25,0.00,,---,0.00,VWS V14.01,2013-02-03 18:43:00,
2013-02-03 13:44:00,70.9,33.3,30.15,NNW,338,5.6,6.5,25,0.00,,---,0.00,VWS V14.01,2013-02-03 18:44:00,
2013-02-03 13:45:00,70.7,33.2,30.15,NW,315,4.0,7.8,25,0.00,,---,0.00,VWS V14.01,2013-02-03 18:45:00,
2013-02-03 13:46:00,71.4,33.8,30.15,WNW,292,3.4,6.9,25,0.00,,---,0.00,VWS V14.01,2013-02-03 18:46:00,
2013-02-03 13:47:00,71.1,33.5,30.15,WNW,292,5.4,6.5,25,0.00,,---,0.00,VWS V14.01,2013-02-03 18:47:00,
2013-02-03 13:48:00,70.7,33.2,30.15,NW,315,0.9,8.7,25,0.00,,---,0.00,VWS V14.01,2013-02-03 18:48:00,
2013-02-03 13:49:00,71.1,33.5,30.15,North,0,5.4,5.4,25,0.00,,---,0.00,VWS V14.01,2013-02-03 18:49:00,
2013-02-03 13:50:00,71.1,33.5,30.15,NNW,338,3.6,7.4,25,0.00,,---,0.00,VWS V14.01,2013-02-03 18:50:00,
2013-02-03 13:51:00,71.6,34.0,30.15,WNW,292,0.0,2.5,25,0.00,,---,0.00,VWS V14.01,2013-02-03 18:51:00,
2013-02-03 13:52:00,71.4,33.8,30.15,WNW,292,3.4,6.9,25,0.00,,---,0.00,VWS V14.01,2013-02-03 18:52:00,
2013-02-03 13:53:00,71.4,33.8,30.15,WNW,292,2.7,4.3,25,0.00,,---,0.00,VWS V14.01,2013-02-03 18:53:00,
2013-02-03 13:54:00,71.6,34.0,30.15,WNW,292,3.1,3.1,25,0.00,,---,0.00,VWS V14.01,2013-02-03 18:54:00,
2013-02-03 13:55:00,71.6,34.0,30.15,NNW,338,2.9,8.1,25,0.00,,---,0.00,VWS V14.01,2013-02-03 18:55:00,
2013-02-03 13:56:00,72.0,34.2,30.18,NNW,338,1.3,3.6,25,0.00,,---,0.00,VWS V14.01,2013-02-03 18:56:00,
2013-02-03 13:57:00,71.6,34.0,30.15,WNW,292,0.0,2.5,25,0.00,,---,0.00,VWS V14.01,2013-02-03 18:57:00,
2013-02-03 13:58:00,71.8,34.1,30.18,NNW,338,3.1,3.8,25,0.00,,---,0.00,VWS V14.01,2013-02-03 18:58:00,
2013-02-03 13:59:00,72.0,34.2,30.18,NNW,338,5.6,5.6,25,0.00,,---,0.00,VWS V14.01,2013-02-03 18:59:00,
2013-02-03 14:00:00,72.0,34.2,30.18,NNW,338,2.5,5.6,25,0.00,,---,0.00,VWS V14.01,2013-02-03 19:00:00,
2013-02-03 14:01:00,72.3,33.5,30.18,NW,315,5.8,5.8,24,0.00,,---,0.00,VWS V14.01,2013-02-03 19:01:00,
2013-02-03 14:02:00,72.0,34.2,30.18,WNW,292,1.1,3.6,25,0.00,,---,0.00,VWS V14.01,2013-02-03 19:02:00,
2013-02-03 14:03:00,71.8,34.1,30.18,WNW,292,2.5,7.8,25,0.00,,---,0.00,VWS V14.01,2013-02-03 19:03:00,
2013-02-03 14:04:00,72.0,34.2,30.18,WNW,292,1.6,2.5,25,0.00,,---,0.00,VWS V14.01,2013-02-03 19:04:00,
2013-02-03 14:05:00,72.0,33.2,30.18,WNW,292,2.5,4.3,24,0.00,,---,0.00,VWS V14.01,2013-02-03 19:05:00,
2013-02-03 14:06:00,71.4,33.8,30.18,WNW,292,5.8,6.5,25,0.00,,---,0.00,VWS V14.01,2013-02-03 19:06:00,
2013-02-03 14:07:00,72.3,33.5,30.18,NW,315,5.8,5.8,24,0.00,,---,0.00,VWS V14.01,2013-02-03 19:07:00,
2013-02-03 14:08:00,72.0,33.2,30.18,WNW,292,6.5,6.5,24,0.00,,---,0.00,VWS V14.01,2013-02-03 19:08:00,
2013-02-03 14:09:00,72.0,33.2,30.18,NW,315,4.7,6.5,24,0.00,,---,0.00,VWS V14.01,2013-02-03 19:09:00,
2013-02-03 14:10:00,71.8,33.1,30.18,WNW,292,7.8,7.8,24,0.00,,---,0.00,VWS V14.01,2013-02-03 19:10:00,
2013-02-03 14:11:00,71.8,33.1,30.15,West,270,2.5,6.5,24,0.00,,---,0.00,VWS V14.01,2013-02-03 19:11:00,
2013-02-03 14:12:00,71.4,33.8,30.18,WNW,292,8.7,8.7,25,0.00,,---,0.00,VWS V14.01,2013-02-03 19:12:00,
2013-02-03 14:13:00,71.4,33.8,30.15,NNW,338,5.4,8.7,25,0.00,,---,0.00,VWS V14.01,2013-02-03 19:13:00,
2013-02-03 14:14:00,71.6,32.9,30.15,West,270,3.1,5.4,24,0.00,,---,0.00,VWS V14.01,2013-02-03 19:14:00,
2013-02-03 14:15:00,72.0,34.2,30.15,NNW,338,0.0,4.9,25,0.00,,---,0.00,VWS V14.01,2013-02-03 19:15:00,
2013-02-03 14:16:00,70.9,33.3,30.15,NNW,338,7.4,10.7,25,0.00,,---,0.00,VWS V14.01,2013-02-03 19:16:00,
2013-02-03 14:17:00,71.8,33.1,30.15,West,270,2.5,6.5,24,0.00,,---,0.00,VWS V14.01,2013-02-03 19:17:00,
2013-02-03 14:18:00,72.0,33.2,30.15,North,0,4.3,5.4,24,0.00,,---,0.00,VWS V14.01,2013-02-03 19:18:00,
2013-02-03 14:19:00,71.8,33.1,30.15,WNW,292,3.1,11.0,24,0.00,,---,0.00,VWS V14.01,2013-02-03 19:19:00,
2013-02-03 14:20:00,71.4,32.8,30.15,NNW,338,7.8,7.8,24,0.00,,---,0.00,VWS V14.01,2013-02-03 19:20:00,
2013-02-03 14:21:00,71.2,33.6,30.15,ENE,68,2.0,5.6,25,0.00,,---,0.00,VWS V14.01,2013-02-03 19:21:00,
2013-02-03 14:22:00,70.9,33.3,30.15,NNW,338,7.4,10.7,25,0.00,,---,0.00,VWS V14.01,2013-02-03 19:22:00,
2013-02-03 14:23:00,70.9,33.3,30.15,WNW,292,7.4,7.4,25,0.00,,---,0.00,VWS V14.01,2013-02-03 19:23:00,
2013-02-03 14:24:00,70.7,33.2,30.15,NNW,338,5.4,7.6,25,0.00,,---,0.00,VWS V14.01,2013-02-03 19:24:00,
2013-02-03 14:25:00,71.1,33.5,30.15,West,270,1.3,5.4,25,0.00,,---,0.00,VWS V14.01,2013-02-03 19:25:00,
2013-02-03 14:26:00,72.3,34.6,30.15,WNW,292,2.5,2.9,25,0.00,,---,0.00,VWS V14.01,2013-02-03 19:26:00,
2013-02-03 14:27:00,71.2,33.6,30.15,NNW,338,2.9,5.6,25,0.00,,---,0.00,VWS V14.01,2013-02-03 19:27:00,
2013-02-03 14:28:00,71.4,33.8,30.15,NW,315,3.4,4.0,25,0.00,,---,0.00,VWS V14.01,2013-02-03 19:28:00,
2013-02-03 14:29:00,72.1,34.4,30.15,NNW,338,1.1,4.0,25,0.00,,---,0.00,VWS V14.01,2013-02-03 19:29:00,
2013-02-03 14:30:00,72.3,34.6,30.15,NNW,338,3.8,3.8,25,0.00,,---,0.00,VWS V14.01,2013-02-03 19:30:00,
2013-02-03 14:31:00,72.3,33.5,30.15,NNW,338,0.0,3.6,24,0.00,,---,0.00,VWS V14.01,2013-02-03 19:31:00,
2013-02-03 14:32:00,72.3,34.6,30.15,WNW,292,2.5,2.9,25,0.00,,---,0.00,VWS V14.01,2013-02-03 19:32:00,
2013-02-03 14:33:00,72.3,34.6,30.15,NNW,338,0.0,4.0,25,0.00,,---,0.00,VWS V14.01,2013-02-03 19:33:00,
2013-02-03 14:34:00,72.3,34.6,30.15,NNW,338,3.4,6.3,25,0.00,,---,0.00,VWS V14.01,2013-02-03 19:34:00,
2013-02-03 14:35:00,72.3,34.6,30.15,WNW,292,1.3,3.8,25,0.00,,---,0.00,VWS V14.01,2013-02-03 19:35:00,
2013-02-03 14:36:00,72.3,33.5,30.15,WNW,292,4.3,8.5,24,0.00,,---,0.00,VWS V14.01,2013-02-03 19:36:00,
2013-02-03 14:37:00,72.5,34.7,30.15,NNW,338,1.6,3.6,25,0.00,,---,0.00,VWS V14.01,2013-02-03 19:37:00,
2013-02-03 14:38:00,72.9,35.0,30.15,NNW,338,3.4,3.4,25,0.00,,---,0.00,VWS V14.01,2013-02-03 19:38:00,
2013-02-03 14:39:00,73.0,35.2,30.15,West,270,2.0,3.6,25,0.00,,---,0.00,VWS V14.01,2013-02-03 19:39:00,
2013-02-03 14:40:00,73.0,34.1,30.15,NNW,338,7.4,7.4,24,0.00,,---,0.00,VWS V14.01,2013-02-03 19:40:00,
2013-02-03 14:41:00,72.3,33.5,30.15,WNW,292,1.3,3.6,24,0.00,,---,0.00,VWS V14.01,2013-02-03 19:41:00,
2013-02-03 14:42:00,72.3,33.5,30.15,ENE,68,4.9,8.5,24,0.00,,---,0.00,VWS V14.01,2013-02-03 19:42:00,
2013-02-03 14:43:00,72.3,33.5,30.15,NNW,338,6.3,6.3,24,0.00,,---,0.00,VWS V14.01,2013-02-03 19:43:00,
2013-02-03 14:44:00,72.3,33.5,30.15,North,0,3.6,6.3,24,0.00,,---,0.00,VWS V14.01,2013-02-03 19:44:00,
2013-02-03 14:45:00,72.3,33.5,30.15,NNW,338,3.8,6.3,24,0.00,,---,0.00,VWS V14.01,2013-02-03 19:45:00,
2013-02-03 14:46:00,71.8,33.1,30.15,West,270,2.9,6.5,24,0.00,,---,0.00,VWS V14.01,2013-02-03 19:46:00,
2013-02-03 14:47:00,72.3,33.5,30.15,WNW,292,2.9,3.6,24,0.00,,---,0.00,VWS V14.01,2013-02-03 19:47:00,
2013-02-03 14:48:00,72.5,33.7,30.15,WNW,292,0.0,4.0,24,0.00,,---,0.00,VWS V14.01,2013-02-03 19:48:00,
2013-02-03 14:49:00,72.7,33.8,30.15,WNW,292,2.0,2.7,24,0.00,,---,0.00,VWS V14.01,2013-02-03 19:49:00,
2013-02-03 14:50:00,72.7,33.8,30.15,North,0,5.4,5.6,24,0.00,,---,0.00,VWS V14.01,2013-02-03 19:50:00,
2013-02-03 14:51:00,71.4,33.8,30.15,NNE,22,2.5,3.4,25,0.00,,---,0.00,VWS V14.01,2013-02-03 19:51:00,
2013-02-03 14:52:00,71.8,33.1,30.15,WNW,292,2.9,6.5,24,0.00,,---,0.00,VWS V14.01,2013-02-03 19:52:00,
2013-02-03 14:53:00,71.4,33.8,30.15,WNW,292,5.4,8.7,25,0.00,,---,0.00,VWS V14.01,2013-02-03 19:53:00,
2013-02-03 14:54:00,71.4,33.8,30.15,NNW,338,2.0,5.4,25,0.00,,---,0.00,VWS V14.01,2013-02-03 19:54:00,
2013-02-03 14:55:00,71.2,33.6,30.15,WNW,292,8.1,8.1,25,0.00,,---,0.00,VWS V14.01,2013-02-03 19:55:00,
2013-02-03 14:56:00,71.8,33.1,30.15,NNE,22,3.1,7.6,24,0.00,,---,0.00,VWS V14.01,2013-02-03 19:56:00,
2013-02-03 14:57:00,71.4,33.8,30.15,NNE,22,2.5,3.4,25,0.00,,---,0.00,VWS V14.01,2013-02-03 19:57:00,
2013-02-03 14:58:00,71.6,32.9,30.15,North,0,0.0,3.4,24,0.00,,---,0.00,VWS V14.01,2013-02-03 19:58:00,
2013-02-03 14:59:00,71.4,33.8,30.15,NW,315,7.8,7.8,25,0.00,,---,0.00,VWS V14.01,2013-02-03 19:59:00,
2013-02-03 15:00:00,71.6,32.9,30.15,NNW,338,0.9,8.5,24,0.00,,---,0.00,VWS V14.01,2013-02-03 20:00:00,
2013-02-03 15:01:00,72.1,34.4,30.15,North,0,0.0,1.6,25,0.00,,---,0.00,VWS V14.01,2013-02-03 20:01:00,
2013-02-03 15:02:00,71.8,33.1,30.15,NNE,22,3.6,7.6,24,0.00,,---,0.00,VWS V14.01,2013-02-03 20:02:00,
2013-02-03 15:03:00,71.8,33.1,30.15,WNW,292,3.8,4.7,24,0.00,,---,0.00,VWS V14.01,2013-02-03 20:03:00,
2013-02-03 15:04:00,71.6,32.9,30.15,NW,315,2.9,6.9,24,0.00,,---,0.00,VWS V14.01,2013-02-03 20:04:00,
2013-02-03 15:05:00,71.8,33.1,30.15,NNW,338,0.0,2.9,24,0.00,,---,0.00,VWS V14.01,2013-02-03 20:05:00,
2013-02-03 15:06:00,72.0,33.2,30.15,North,0,5.6,8.1,24,0.00,,---,0.00,VWS V14.01,2013-02-03 20:06:00,
2013-02-03 15:07:00,72.5,34.7,30.15,North,0,2.2,2.2,25,0.00,,---,0.00,VWS V14.01,2013-02-03 20:07:00,
2013-02-03 15:08:00,72.7,34.9,30.15,WNW,292,4.3,4.3,25,0.00,,---,0.00,VWS V14.01,2013-02-03 20:08:00,
2013-02-03 15:09:00,72.7,33.8,30.15,NNW,338,2.5,5.6,24,0.00,,---,0.00,VWS V14.01,2013-02-03 20:09:00,
2013-02-03 15:10:00,72.5,33.7,30.15,NNW,338,2.7,5.6,24,0.00,,---,0.00,VWS V14.01,2013-02-03 20:10:00,
2013-02-03 15:11:00,72.1,33.4,30.12,West,270,7.6,7.6,24,0.00,,---,0.00,VWS V14.01,2013-02-03 20:11:00,
2013-02-03 15:12:00,72.0,33.2,30.15,WNW,292,4.7,8.1,24,0.00,,---,0.00,VWS V14.01,2013-02-03 20:12:00,
2013-02-03 15:13:00,72.0,33.2,30.12,West,270,5.8,5.8,24,0.00,,---,0.00,VWS V14.01,2013-02-03 20:13:00,
2013-02-03 15:14:00,72.0,33.2,30.12,NNW,338,4.3,6.5,24,0.00,,---,0.00,VWS V14.01,2013-02-03 20:14:00,
2013-02-03 15:15:00,72.0,33.2,30.12,North,0,3.8,4.9,24,0.00,,---,0.00,VWS V14.01,2013-02-03 20:15:00,
2013-02-03 15:16:00,71.4,32.8,30.12,WNW,292,6.5,8.5,24,0.00,,---,0.00,VWS V14.01,2013-02-03 20:16:00,
2013-02-03 15:17:00,72.1,33.4,30.12,NW,315,5.4,7.6,24,0.00,,---,0.00,VWS V14.01,2013-02-03 20:17:00,
2013-02-03 15:18:00,72.1,32.3,30.12,NNW,338,2.9,5.6,23,0.00,,---,0.00,VWS V14.01,2013-02-03 20:18:00,
2013-02-03 15:19:00,72.0,33.2,30.12,West,270,5.4,5.4,24,0.00,,---,0.00,VWS V14.01,2013-02-03 20:19:00,
2013-02-03 15:20:00,71.8,33.1,30.12,NNW,338,6.9,6.9,24,0.00,,---,0.00,VWS V14.01,2013-02-03 20:20:00,
2013-02-03 15:21:00,70.9,33.3,30.12,NW,315,6.7,6.7,25,0.00,,---,0.00,VWS V14.01,2013-02-03 20:21:00,
2013-02-03 15:22:00,71.4,32.8,30.12,NNW,338,7.2,8.5,24,0.00,,---,0.00,VWS V14.01,2013-02-03 20:22:00,
2013-02-03 15:23:00,71.2,32.6,30.12,WNW,292,6.9,7.2,24,0.00,,---,0.00,VWS V14.01,2013-02-03 20:23:00,
2013-02-03 15:24:00,71.2,32.6,30.12,NW,315,6.0,7.6,24,0.00,,---,0.00,VWS V14.01,2013-02-03 20:24:00,
2013-02-03 15:25:00,71.1,32.5,30.12,NW,315,4.0,6.5,24,0.00,,---,0.00,VWS V14.01,2013-02-03 20:25:00,
2013-02-03 15:26:00,70.3,32.9,30.12,NNW,338,5.8,5.8,25,0.00,,---,0.00,VWS V14.01,2013-02-03 20:26:00,
2013-02-03 15:27:00,70.9,33.3,30.12,WNW,292,8.7,8.7,25,0.00,,---,0.00,VWS V14.01,2013-02-03 20:27:00,
2013-02-03 15:28:00,70.7,33.2,30.12,NNW,338,5.4,10.3,25,0.00,,---,0.00,VWS V14.01,2013-02-03 20:28:00,
2013-02-03 15:29:00,70.9,33.3,30.12,West,270,2.7,8.5,25,0.00,,---,0.00,VWS V14.01,2013-02-03 20:29:00,
2013-02-03 15:30:00,70.7,33.2,30.12,NW,315,8.5,8.5,25,0.00,,---,0.00,VWS V14.01,2013-02-03 20:30:00,
2013-02-03 15:31:00,70.7,33.2,30.12,WNW,292,1.3,6.3,25,0.00,,---,0.00,VWS V14.01,2013-02-03 20:31:00,
2013-02-03 15:32:00,70.3,32.9,30.12,SSW,202,4.3,5.8,25,0.00,,---,0.00,VWS V14.01,2013-02-03 20:32:00,
2013-02-03 15:33:00,70.7,33.2,30.12,WNW,292,6.3,6.3,25,0.00,,---,0.00,VWS V14.01,2013-02-03 20:33:00,
2013-02-03 15:34:00,70.7,33.2,30.12,West,270,2.7,7.2,25,0.00,,---,0.00,VWS V14.01,2013-02-03 20:34:00,
2013-02-03 15:35:00,70.7,33.2,30.12,WNW,292,4.0,5.8,25,0.00,,---,0.00,VWS V14.01,2013-02-03 20:35:00,
2013-02-03 15:36:00,70.7,33.2,30.12,WNW,292,5.6,6.5,25,0.00,,---,0.00,VWS V14.01,2013-02-03 20:36:00,
2013-02-03 15:37:00,70.7,33.2,30.12,NNW,338,2.5,6.3,25,0.00,,---,0.00,VWS V14.01,2013-02-03 20:37:00,
2013-02-03 15:38:00,70.7,33.2,30.12,NNW,338,6.3,6.3,25,0.00,,---,0.00,VWS V14.01,2013-02-03 20:38:00,
2013-02-03 15:39:00,70.7,33.2,30.12,WNW,292,4.3,6.3,25,0.00,,---,0.00,VWS V14.01,2013-02-03 20:39:00,
2013-02-03 15:40:00,70.5,33.0,30.12,WNW,292,4.0,4.9,25,0.00,,---,0.00,VWS V14.01,2013-02-03 20:40:00,
2013-02-03 15:41:00,70.3,32.9,30.09,NW,315,6.5,8.5,25,0.00,,---,0.00,VWS V14.01,2013-02-03 20:41:00,
2013-02-03 15:42:00,70.7,33.2,30.12,WNW,292,6.5,6.5,25,0.00,,---,0.00,VWS V14.01,2013-02-03 20:42:00,
2013-02-03 15:43:00,70.2,32.7,30.09,NNW,338,4.0,7.4,25,0.00,,---,0.00,VWS V14.01,2013-02-03 20:43:00,
2013-02-03 15:44:00,70.2,32.7,30.09,WNW,292,2.7,4.0,25,0.00,,---,0.00,VWS V14.01,2013-02-03 20:44:00,
2013-02-03 15:45:00,70.3,32.9,30.09,WNW,292,2.2,2.7,25,0.00,,---,0.00,VWS V14.01,2013-02-03 20:45:00,
2013-02-03 15:46:00,70.2,32.7,30.09,West,270,7.8,8.5,25,0.00,,---,0.00,VWS V14.01,2013-02-03 20:46:00,
2013-02-03 15:47:00,69.8,32.4,30.09,NNE,22,5.6,8.5,25,0.00,,---,0.00,VWS V14.01,2013-02-03 20:47:00,
2013-02-03 15:48:00,70.0,32.6,30.09,NNW,338,2.5,5.6,25,0.00,,---,0.00,VWS V14.01,2013-02-03 20:48:00,
2013-02-03 15:49:00,70.2,32.7,30.09,WNW,292,1.3,4.3,25,0.00,,---,0.00,VWS V14.01,2013-02-03 20:49:00,
2013-02-03 15:50:00,70.0,32.6,30.09,NNW,338,4.9,4.9,25,0.00,,---,0.00,VWS V14.01,2013-02-03 20:50:00,
2013-02-03 15:51:00,69.4,33.1,30.09,NNW,338,4.9,4.9,26,0.00,,---,0.00,VWS V14.01,2013-02-03 20:51:00,
2013-02-03 15:52:00,69.8,32.4,30.09,WSW,248,5.6,8.5,25,0.00,,---,0.00,VWS V14.01,2013-02-03 20:52:00,
2013-02-03 15:53:00,69.8,32.4,30.09,NNW,338,5.4,5.6,25,0.00,,---,0.00,VWS V14.01,2013-02-03 20:53:00,
2013-02-03 15:54:00,69.4,33.1,30.09,NW,315,6.5,10.3,26,0.00,,---,0.00,VWS V14.01,2013-02-03 20:54:00,
2013-02-03 15:55:00,69.6,33.2,30.09,WNW,292,1.6,6.5,26,0.00,,---,0.00,VWS V14.01,2013-02-03 20:55:00,
2013-02-03 15:56:00,68.9,32.6,30.12,NNW,338,2.7,5.6,26,0.00,,---,0.00,VWS V14.01,2013-02-03 20:56:00,
2013-02-03 15:57:00,69.4,33.1,30.09,NNW,338,2.5,4.9,26,0.00,,---,0.00,VWS V14.01,2013-02-03 20:57:00,
2013-02-03 15:58:00,69.6,33.2,30.12,WNW,292,2.5,2.5,26,0.00,,---,0.00,VWS V14.01,2013-02-03 20:58:00,
2013-02-03 15:59:00,69.6,33.2,30.12,West,270,5.8,6.0,26,0.00,,---,0.00,VWS V14.01,2013-02-03 20:59:00,
2013-02-03 16:00:00,69.3,32.9,30.12,NNE,22,6.0,6.0,26,0.00,,---,0.00,VWS V14.01,2013-02-03 21:00:00,
2013-02-03 16:01:00,68.5,33.3,30.12,WNW,292,1.3,4.7,27,0.00,,---,0.00,VWS V14.01,2013-02-03 21:01:00,
2013-02-03 16:02:00,69.1,32.8,30.12,ENE,68,3.4,5.6,26,0.00,,---,0.00,VWS V14.01,2013-02-03 21:02:00,
2013-02-03 16:03:00,68.9,32.6,30.12,WNW,292,3.1,5.6,26,0.00,,---,0.00,VWS V14.01,2013-02-03 21:03:00,
2013-02-03 16:04:00,68.7,32.5,30.12,WNW,292,2.2,6.0,26,0.00,,---,0.00,VWS V14.01,2013-02-03 21:04:00,
2013-02-03 16:05:00,68.7,32.5,30.12,WNW,292,1.1,2.2,26,0.00,,---,0.00,VWS V14.01,2013-02-03 21:05:00,
2013-02-03 16:06:00,67.5,33.2,30.12,North,0,3.4,8.7,28,0.00,,---,0.00,VWS V14.01,2013-02-03 21:06:00,
2013-02-03 16:07:00,68.4,33.1,30.12,WNW,292,5.8,5.8,27,0.00,,---,0.00,VWS V14.01,2013-02-03 21:07:00,
2013-02-03 16:08:00,68.0,32.8,30.12,NNW,338,7.8,7.8,27,0.00,,---,0.00,VWS V14.01,2013-02-03 21:08:00,
2013-02-03 16:09:00,67.6,32.5,30.12,West,270,4.7,9.8,27,0.00,,---,0.00,VWS V14.01,2013-02-03 21:09:00,
2013-02-03 16:10:00,67.6,33.4,30.12,NNW,338,4.7,4.9,28,0.00,,---,0.00,VWS V14.01,2013-02-03 21:10:00,
2013-02-03 16:11:00,67.1,34.7,30.12,West,270,7.2,7.2,30,0.00,,---,0.00,VWS V14.01,2013-02-03 21:11:00,
2013-02-03 16:12:00,67.5,33.2,30.12,WNW,292,1.6,8.7,28,0.00,,---,0.00,VWS V14.01,2013-02-03 21:12:00,
2013-02-03 16:13:00,67.5,34.1,30.12,NW,315,2.5,3.1,29,0.00,,---,0.00,VWS V14.01,2013-02-03 21:13:00,
2013-02-03 16:14:00,67.5,34.1,30.12,NNW,338,3.1,6.3,29,0.00,,---,0.00,VWS V14.01,2013-02-03 21:14:00,
2013-02-03 16:15:00,67.3,34.8,30.12,West,270,4.9,6.3,30,0.00,,---,0.00,VWS V14.01,2013-02-03 21:15:00,
2013-02-03 16:16:00,67.1,36.3,30.12,NNW,338,3.6,5.6,32,0.00,,---,0.00,VWS V14.01,2013-02-03 21:16:00,
2013-02-03 16:17:00,67.1,35.5,30.12,WNW,292,5.4,7.2,31,0.00,,---,0.00,VWS V14.01,2013-02-03 21:17:00,
2013-02-03 16:18:00,67.1,35.5,30.12,WNW,292,2.5,5.6,31,0.00,,---,0.00,VWS V14.01,2013-02-03 21:18:00,
2013-02-03 16:19:00,67.1,36.3,30.12,NNW,338,3.6,3.6,32,0.00,,---,0.00,VWS V14.01,2013-02-03 21:19:00,
2013-02-03 16:20:00,67.3,36.4,30.12,NW,315,2.5,5.6,32,0.00,,---,0.00,VWS V14.01,2013-02-03 21:20:00,
2013-02-03 16:21:00,66.4,37.2,30.12,NNW,338,6.3,6.3,34,0.00,,---,0.00,VWS V14.01,2013-02-03 21:21:00,
2013-02-03 16:22:00,67.1,36.3,30.12,NW,315,7.6,7.6,32,0.00,,---,0.00,VWS V14.01,2013-02-03 21:22:00,
2013-02-03 16:23:00,66.6,36.6,30.12,NNW,338,4.3,7.6,33,0.00,,---,0.00,VWS V14.01,2013-02-03 21:23:00,
2013-02-03 16:24:00,66.6,36.6,30.12,North,0,1.3,4.9,33,0.00,,---,0.00,VWS V14.01,2013-02-03 21:24:00,
2013-02-03 16:25:00,66.6,36.6,30.12,NW,315,4.3,4.3,33,0.00,,---,0.00,VWS V14.01,2013-02-03 21:25:00,
2013-02-03 16:26:00,66.0,37.6,30.12,NNW,338,5.8,5.8,35,0.00,,---,0.00,VWS V14.01,2013-02-03 21:26:00,
2013-02-03 16:27:00,66.4,37.2,30.12,NW,315,2.7,6.3,34,0.00,,---,0.00,VWS V14.01,2013-02-03 21:27:00,
2013-02-03 16:28:00,66.4,37.2,30.12,NNW,338,7.4,8.7,34,0.00,,---,0.00,VWS V14.01,2013-02-03 21:28:00,
2013-02-03 16:29:00,66.0,36.9,30.12,WNW,292,6.0,7.4,34,0.00,,---,0.00,VWS V14.01,2013-02-03 21:29:00,
2013-02-03 16:30:00,66.0,37.6,30.12,NW,315,4.0,6.0,35,0.00,,---,0.00,VWS V14.01,2013-02-03 21:30:00,
2013-02-03 16:31:00,65.7,37.3,30.12,WNW,292,3.8,4.9,35,0.00,,---,0.00,VWS V14.01,2013-02-03 21:31:00,
2013-02-03 16:32:00,66.0,37.6,30.12,NW,315,3.6,5.8,35,0.00,,---,0.00,VWS V14.01,2013-02-03 21:32:00,
2013-02-03 16:33:00,66.0,37.6,30.12,NW,315,4.7,4.7,35,0.00,,---,0.00,VWS V14.01,2013-02-03 21:33:00,
2013-02-03 16:34:00,65.8,37.5,30.12,WNW,292,5.8,5.8,35,0.00,,---,0.00,VWS V14.01,2013-02-03 21:34:00,
2013-02-03 16:35:00,65.8,37.5,30.12,WSW,248,2.9,5.8,35,0.00,,---,0.00,VWS V14.01,2013-02-03 21:35:00,
2013-02-03 16:36:00,65.5,37.8,30.12,NNW,338,1.1,5.4,36,0.00,,---,0.00,VWS V14.01,2013-02-03 21:36:00,
2013-02-03 16:37:00,65.7,37.3,30.12,NNE,22,3.8,4.9,35,0.00,,---,0.00,VWS V14.01,2013-02-03 21:37:00,
2013-02-03 16:38:00,65.7,37.3,30.12,WSW,248,0.0,3.8,35,0.00,,---,0.00,VWS V14.01,2013-02-03 21:38:00,
2013-02-03 16:39:00,65.7,37.3,30.12,WNW,292,6.0,6.0,35,0.00,,---,0.00,VWS V14.01,2013-02-03 21:39:00,
2013-02-03 16:40:00,65.7,37.3,30.12,WNW,292,4.7,7.4,35,0.00,,---,0.00,VWS V14.01,2013-02-03 21:40:00,
2013-02-03 16:41:00,64.9,37.4,30.09,WSW,248,3.6,6.3,36,0.00,,---,0.00,VWS V14.01,2013-02-03 21:41:00,
2013-02-03 16:42:00,65.5,37.8,30.12,West,270,2.9,5.4,36,0.00,,---,0.00,VWS V14.01,2013-02-03 21:42:00,
2013-02-03 16:43:00,65.5,37.8,30.09,NNW,338,1.1,2.9,36,0.00,,---,0.00,VWS V14.01,2013-02-03 21:43:00,
2013-02-03 16:44:00,65.5,37.8,30.09,WNW,292,4.3,4.3,36,0.00,,---,0.00,VWS V14.01,2013-02-03 21:44:00,
2013-02-03 16:45:00,65.1,37.5,30.09,NW,315,6.5,8.7,36,0.00,,---,0.00,VWS V14.01,2013-02-03 21:45:00,
2013-02-03 16:46:00,64.4,37.6,30.09,NW,315,4.9,6.7,37,0.00,,---,0.00,VWS V14.01,2013-02-03 21:46:00,
2013-02-03 16:47:00,64.8,37.2,30.09,WNW,292,4.0,6.3,36,0.00,,---,0.00,VWS V14.01,2013-02-03 21:47:00,
2013-02-03 16:48:00,64.8,37.2,30.09,NW,315,5.4,5.4,36,0.00,,---,0.00,VWS V14.01,2013-02-03 21:48:00,
2013-02-03 16:49:00,64.8,37.2,30.09,WNW,292,6.0,6.0,36,0.00,,---,0.00,VWS V14.01,2013-02-03 21:49:00,
2013-02-03 16:50:00,64.6,37.0,30.09,WNW,292,6.0,6.0,36,0.00,,---,0.00,VWS V14.01,2013-02-03 21:50:00,
2013-02-03 16:51:00,64.2,38.8,30.09,WNW,292,0.0,3.1,39,0.00,,---,0.00,VWS V14.01,2013-02-03 21:51:00,
2013-02-03 16:52:00,64.4,37.6,30.09,WSW,248,6.5,6.7,37,0.00,,---,0.00,VWS V14.01,2013-02-03 21:52:00,
2013-02-03 16:53:00,64.4,38.3,30.09,NNW,338,2.5,6.5,38,0.00,,---,0.00,VWS V14.01,2013-02-03 21:53:00,
2013-02-03 16:54:00,64.4,38.3,30.09,NNW,338,3.4,4.7,38,0.00,,---,0.00,VWS V14.01,2013-02-03 21:54:00,
2013-02-03 16:55:00,64.2,38.8,30.09,NNW,338,7.2,7.2,39,0.00,,---,0.00,VWS V14.01,2013-02-03 21:55:00,
2013-02-03 16:56:00,63.9,38.5,30.12,WNW,292,3.6,4.0,39,0.00,,---,0.00,VWS V14.01,2013-02-03 21:56:00,
2013-02-03 16:57:00,64.2,38.8,30.09,NNW,338,3.6,3.6,39,0.00,,---,0.00,VWS V14.01,2013-02-03 21:57:00,
2013-02-03 16:58:00,64.2,38.8,30.12,WNW,292,5.4,5.4,39,0.00,,---,0.00,VWS V14.01,2013-02-03 21:58:00,
2013-02-03 16:59:00,64.0,38.6,30.12,NW,315,5.4,8.1,39,0.00,,---,0.00,VWS V14.01,2013-02-03 21:59:00,
2013-02-03 17:00:00,64.0,38.6,30.12,NNW,338,1.3,6.0,39,0.00,,---,0.00,VWS V14.01,2013-02-03 22:00:00,
2013-02-03 17:01:00,63.5,38.8,30.12,WNW,292,2.7,6.0,40,0.00,,---,0.00,VWS V14.01,2013-02-03 22:01:00,
2013-02-03 17:02:00,63.9,38.5,30.12,West,270,3.1,4.0,39,0.00,,---,0.00,VWS V14.01,2013-02-03 22:02:00,
2013-02-03 17:03:00,63.9,38.5,30.12,WNW,292,2.7,4.7,39,0.00,,---,0.00,VWS V14.01,2013-02-03 22:03:00,
2013-02-03 17:04:00,63.7,38.3,30.12,North,0,4.3,6.9,39,0.00,,---,0.00,VWS V14.01,2013-02-03 22:04:00,
2013-02-03 17:05:00,63.7,38.3,30.12,WNW,292,6.0,6.0,39,0.00,,---,0.00,VWS V14.01,2013-02-03 22:05:00,
2013-02-03 17:06:00,63.5,38.8,30.12,NNW,338,2.7,2.7,40,0.00,,---,0.00,VWS V14.01,2013-02-03 22:06:00,
2013-02-03 17:07:00,63.5,38.8,30.12,WNW,292,2.7,6.0,40,0.00,,---,0.00,VWS V14.01,2013-02-03 22:07:00,
2013-02-03 17:08:00,63.5,38.8,30.12,WNW,292,3.8,6.0,40,0.00,,---,0.00,VWS V14.01,2013-02-03 22:08:00,
2013-02-03 17:09:00,63.5,38.8,30.12,NNW,338,2.7,3.8,40,0.00,,---,0.00,VWS V14.01,2013-02-03 22:09:00,
2013-02-03 17:10:00,63.5,38.8,30.12,NNW,338,3.6,4.3,40,0.00,,---,0.00,VWS V14.01,2013-02-03 22:10:00,
2013-02-03 17:11:00,63.0,38.3,30.12,West,270,3.8,6.0,40,0.00,,---,0.00,VWS V14.01,2013-02-03 22:11:00,
2013-02-03 17:12:00,63.3,38.0,30.12,North,0,3.4,4.0,39,0.00,,---,0.00,VWS V14.01,2013-02-03 22:12:00,
2013-02-03 17:13:00,63.3,38.0,30.12,WNW,292,4.5,4.5,39,0.00,,---,0.00,VWS V14.01,2013-02-03 22:13:00,
2013-02-03 17:14:00,63.3,38.0,30.12,WNW,292,5.8,6.0,39,0.00,,---,0.00,VWS V14.01,2013-02-03 22:14:00,
2013-02-03 17:15:00,63.1,38.5,30.12,NW,315,2.5,5.8,40,0.00,,---,0.00,VWS V14.01,2013-02-03 22:15:00,
2013-02-03 17:16:00,62.8,38.1,30.12,NNW,338,3.4,3.4,40,0.00,,---,0.00,VWS V14.01,2013-02-03 22:16:00,
2013-02-03 17:17:00,63.0,38.3,30.12,NNW,338,4.0,6.0,40,0.00,,---,0.00,VWS V14.01,2013-02-03 22:17:00,
2013-02-03 17:18:00,63.0,38.3,30.12,North,0,0.0,5.4,40,0.00,,---,0.00,VWS V14.01,2013-02-03 22:18:00,
2013-02-03 17:19:00,62.8,38.1,30.12,NNW,338,5.6,7.4,40,0.00,,---,0.00,VWS V14.01,2013-02-03 22:19:00,
2013-02-03 17:20:00,62.8,38.8,30.12,NNW,338,2.7,6.0,41,0.00,,---,0.00,VWS V14.01,2013-02-03 22:20:00,
2013-02-03 17:21:00,62.6,38.6,30.12,NNW,338,2.5,3.1,41,0.00,,---,0.00,VWS V14.01,2013-02-03 22:21:00,
2013-02-03 17:22:00,62.8,38.1,30.12,WNW,292,3.6,3.6,40,0.00,,---,0.00,VWS V14.01,2013-02-03 22:22:00,
2013-02-03 17:23:00,62.6,38.6,30.12,WNW,292,3.6,3.6,41,0.00,,---,0.00,VWS V14.01,2013-02-03 22:23:00,
2013-02-03 17:24:00,62.6,38.6,30.12,WNW,292,2.9,5.6,41,0.00,,---,0.00,VWS V14.01,2013-02-03 22:24:00,
2013-02-03 17:25:00,62.6,38.6,30.12,NNW,338,2.2,4.0,41,0.00,,---,0.00,VWS V14.01,2013-02-03 22:25:00,
2013-02-03 17:26:00,62.2,38.9,30.12,NNE,22,0.9,2.5,42,0.00,,---,0.00,VWS V14.01,2013-02-03 22:26:00,
2013-02-03 17:27:00,62.6,38.6,30.12,WSW,248,1.3,5.4,41,0.00,,---,0.00,VWS V14.01,2013-02-03 22:27:00,
2013-02-03 17:28:00,62.4,39.0,30.12,WNW,292,0.0,3.6,42,0.00,,---,0.00,VWS V14.01,2013-02-03 22:28:00,
2013-02-03 17:29:00,62.4,39.0,30.12,West,270,0.9,2.2,42,0.00,,---,0.00,VWS V14.01,2013-02-03 22:29:00,
2013-02-03 17:30:00,62.4,39.0,30.12,WNW,292,2.9,5.6,42,0.00,,---,0.00,VWS V14.01,2013-02-03 22:30:00,
2013-02-03 17:31:00,61.9,38.6,30.12,West,270,2.9,2.9,42,0.00,,---,0.00,VWS V14.01,2013-02-03 22:31:00,
2013-02-03 17:32:00,62.2,38.9,30.12,NNW,338,0.0,2.5,42,0.00,,---,0.00,VWS V14.01,2013-02-03 22:32:00,
2013-02-03 17:33:00,62.2,38.3,30.12,NW,315,0.0,2.0,41,0.00,,---,0.00,VWS V14.01,2013-02-03 22:33:00,
2013-02-03 17:34:00,62.2,38.3,30.12,NNW,338,1.3,1.6,41,0.00,,---,0.00,VWS V14.01,2013-02-03 22:34:00,
2013-02-03 17:35:00,62.1,38.7,30.12,NNW,338,4.7,6.0,42,0.00,,---,0.00,VWS V14.01,2013-02-03 22:35:00,
2013-02-03 17:36:00,61.7,39.0,30.12,North,0,0.0,3.1,43,0.00,,---,0.00,VWS V14.01,2013-02-03 22:36:00,
2013-02-03 17:37:00,61.9,38.6,30.12,NW,315,3.1,3.1,42,0.00,,---,0.00,VWS V14.01,2013-02-03 22:37:00,
2013-02-03 17:38:00,61.9,39.2,30.12,WNW,292,2.2,4.7,43,0.00,,---,0.00,VWS V14.01,2013-02-03 22:38:00,
2013-02-03 17:39:00,61.7,39.0,30.12,WNW,292,2.5,4.3,43,0.00,,---,0.00,VWS V14.01,2013-02-03 22:39:00,
2013-02-03 17:40:00,61.5,38.8,30.12,NNW,338,2.9,2.9,43,0.00,,---,0.00,VWS V14.01,2013-02-03 22:40:00,
2013-02-03 17:41:00,61.7,39.0,30.12,North,0,3.1,5.8,43,0.00,,---,0.00,VWS V14.01,2013-02-03 22:41:00,
2013-02-03 17:42:00,61.7,39.0,30.12,WNW,292,2.9,3.6,43,0.00,,---,0.00,VWS V14.01,2013-02-03 22:42:00,
2013-02-03 17:43:00,61.7,39.0,30.12,WNW,292,3.4,3.4,43,0.00,,---,0.00,VWS V14.01,2013-02-03 22:43:00,
2013-02-03 17:44:00,61.7,39.0,30.12,North,0,0.0,3.4,43,0.00,,---,0.00,VWS V14.01,2013-02-03 22:44:00,
2013-02-03 17:45:00,61.2,37.9,30.12,NW,315,0.0,0.0,42,0.00,,---,0.00,VWS V14.01,2013-02-03 22:45:00,
2013-02-03 17:46:00,61.5,38.8,30.12,NNW,338,2.9,3.4,43,0.00,,---,0.00,VWS V14.01,2013-02-03 22:46:00,
2013-02-03 17:47:00,61.3,38.7,30.12,WNW,292,2.2,4.3,43,0.00,,---,0.00,VWS V14.01,2013-02-03 22:47:00,
2013-02-03 17:48:00,61.3,38.1,30.12,NNW,338,0.9,2.2,42,0.00,,---,0.00,VWS V14.01,2013-02-03 22:48:00,
2013-02-03 17:49:00,61.3,38.7,30.12,NW,315,2.7,3.1,43,0.00,,---,0.00,VWS V14.01,2013-02-03 22:49:00,
2013-02-03 17:50:00,61.0,38.3,30.12,WNW,292,0.0,0.0,43,0.00,,---,0.00,VWS V14.01,2013-02-03 22:50:00,
2013-02-03 17:51:00,61.2,38.5,30.12,WNW,292,0.0,2.7,43,0.00,,---,0.00,VWS V14.01,2013-02-03 22:51:00,
2013-02-03 17:52:00,61.2,37.9,30.12,NW,315,0.0,0.0,42,0.00,,---,0.00,VWS V14.01,2013-02-03 22:52:00,
2013-02-03 17:53:00,61.2,37.9,30.12,WNW,292,2.7,2.7,42,0.00,,---,0.00,VWS V14.01,2013-02-03 22:53:00,
2013-02-03 17:54:00,61.0,37.8,30.12,WNW,292,0.0,2.7,42,0.00,,---,0.00,VWS V14.01,2013-02-03 22:54:00,
2013-02-03 17:55:00,60.6,38.6,30.12,NNW,338,0.0,1.6,44,0.00,,---,0.00,VWS V14.01,2013-02-03 22:55:00,
2013-02-03 17:56:00,61.0,38.3,30.12,WNW,292,0.0,2.5,43,0.00,,---,0.00,VWS V14.01,2013-02-03 22:56:00,
2013-02-03 17:57:00,60.8,38.2,30.12,North,0,3.4,3.4,43,0.00,,---,0.00,VWS V14.01,2013-02-03 22:57:00,
2013-02-03 17:58:00,60.8,38.8,30.12,West,270,0.0,4.0,44,0.00,,---,0.00,VWS V14.01,2013-02-03 22:58:00,
2013-02-03 17:59:00,60.8,38.8,30.12,WNW,292,0.0,3.4,44,0.00,,---,0.00,VWS V14.01,2013-02-03 22:59:00,
2013-02-03 18:00:00,60.1,38.1,30.12,NNW,338,2.2,2.2,44,0.00,,---,0.00,VWS V14.01,2013-02-03 23:00:00,
2013-02-03 18:01:00,60.6,38.6,30.12,NNW,338,1.6,2.0,44,0.00,,---,0.00,VWS V14.01,2013-02-03 23:01:00,
2013-02-03 18:02:00,60.4,39.0,30.12,WNW,292,3.6,4.3,45,0.00,,---,0.00,VWS V14.01,2013-02-03 23:02:00,
2013-02-03 18:03:00,60.4,38.4,30.12,WNW,292,2.2,3.6,44,0.00,,---,0.00,VWS V14.01,2013-02-03 23:03:00,
2013-02-03 18:04:00,60.3,38.3,30.12,WNW,292,2.0,3.6,44,0.00,,---,0.00,VWS V14.01,2013-02-03 23:04:00,
2013-02-03 18:05:00,59.7,37.8,30.12,NNW,338,1.3,1.3,44,0.00,,---,0.00,VWS V14.01,2013-02-03 23:05:00,
2013-02-03 18:06:00,60.1,38.1,30.12,WNW,292,0.9,0.9,44,0.00,,---,0.00,VWS V14.01,2013-02-03 23:06:00,
2013-02-03 18:07:00,60.1,38.1,30.12,NNW,338,0.0,2.2,44,0.00,,---,0.00,VWS V14.01,2013-02-03 23:07:00,
2013-02-03 18:08:00,60.1,38.1,30.12,North,0,0.0,0.0,44,0.00,,---,0.00,VWS V14.01,2013-02-03 23:08:00,
2013-02-03 18:09:00,59.9,38.0,30.12,NW,315,0.0,0.0,44,0.00,,---,0.00,VWS V14.01,2013-02-03 23:09:00,
2013-02-03 18:10:00,59.4,38.0,30.12,West,270,0.0,0.0,45,0.00,,---,0.00,VWS V14.01,2013-02-03 23:10:00,
2013-02-03 18:11:00,59.7,37.8,30.12,NNW,338,0.9,1.1,44,0.00,,---,0.00,VWS V14.01,2013-02-03 23:11:00,
2013-02-03 18:12:00,59.7,38.4,30.12,WNW,292,1.3,1.3,45,0.00,,---,0.00,VWS V14.01,2013-02-03 23:12:00,
2013-02-03 18:13:00,59.7,38.4,30.12,WNW,292,0.0,2.7,45,0.00,,---,0.00,VWS V14.01,2013-02-03 23:13:00,
2013-02-03 18:14:00,59.5,38.2,30.12,North,0,0.0,1.3,45,0.00,,---,0.00,VWS V14.01,2013-02-03 23:14:00,
2013-02-03 18:15:00,59.0,38.8,30.12,WNW,292,1.6,2.9,47,0.00,,---,0.00,VWS V14.01,2013-02-03 23:15:00,
2013-02-03 18:16:00,59.4,38.0,30.12,West,270,0.0,1.3,45,0.00,,---,0.00,VWS V14.01,2013-02-03 23:16:00,
2013-02-03 18:17:00,59.2,37.9,30.12,NW,315,1.3,1.3,45,0.00,,---,0.00,VWS V14.01,2013-02-03 23:17:00,
2013-02-03 18:18:00,59.2,37.9,30.12,WNW,292,2.5,2.5,45,0.00,,---,0.00,VWS V14.01,2013-02-03 23:18:00,
2013-02-03 18:19:00,59.2,37.9,30.12,WNW,292,0.0,2.5,45,0.00,,---,0.00,VWS V14.01,2013-02-03 23:19:00,
2013-02-03 18:20:00,59.0,37.7,30.12,WNW,292,3.6,3.6,45,0.00,,---,0.00,VWS V14.01,2013-02-03 23:20:00,
2013-02-03 18:21:00,58.6,38.5,30.12,West,270,0.0,0.9,47,0.00,,---,0.00,VWS V14.01,2013-02-03 23:21:00,
2013-02-03 18:22:00,59.0,38.8,30.12,WNW,292,0.0,2.9,47,0.00,,---,0.00,VWS V14.01,2013-02-03 23:22:00,
2013-02-03 18:23:00,59.0,38.8,30.12,WNW,292,0.0,0.0,47,0.00,,---,0.00,VWS V14.01,2013-02-03 23:23:00,
2013-02-03 18:24:00,58.8,38.7,30.12,WNW,292,0.0,0.0,47,0.00,,---,0.00,VWS V14.01,2013-02-03 23:24:00,
2013-02-03 18:25:00,58.8,39.2,30.12,WNW,292,0.0,0.0,48,0.00,,---,0.00,VWS V14.01,2013-02-03 23:25:00,
2013-02-03 18:26:00,58.3,38.7,30.12,NW,315,2.0,3.1,48,0.00,,---,0.00,VWS V14.01,2013-02-03 23:26:00,
2013-02-03 18:27:00,58.6,38.5,30.12,West,270,0.0,0.9,47,0.00,,---,0.00,VWS V14.01,2013-02-03 23:27:00,
2013-02-03 18:28:00,58.5,38.3,30.12,WNW,292,0.0,0.0,47,0.00,,---,0.00,VWS V14.01,2013-02-03 23:28:00,
2013-02-03 18:29:00,58.5,38.9,30.12,WNW,292,0.0,0.0,48,0.00,,---,0.00,VWS V14.01,2013-02-03 23:29:00,
2013-02-03 18:30:00,58.5,38.9,30.12,WNW,292,0.0,0.0,48,0.00,,---,0.00,VWS V14.01,2013-02-03 23:30:00,
2013-02-03 18:31:00,57.9,38.9,30.12,NW,315,0.0,0.0,49,0.00,,---,0.00,VWS V14.01,2013-02-03 23:31:00,
2013-02-03 18:32:00,58.3,38.7,30.12,NNW,338,0.0,3.1,48,0.00,,---,0.00,VWS V14.01,2013-02-03 23:32:00,
2013-02-03 18:33:00,58.3,38.7,30.12,NNE,22,0.0,0.9,48,0.00,,---,0.00,VWS V14.01,2013-02-03 23:33:00,
2013-02-03 18:34:00,58.1,39.1,30.12,WNW,292,0.0,0.0,49,0.00,,---,0.00,VWS V14.01,2013-02-03 23:34:00,
2013-02-03 18:35:00,58.1,39.1,30.12,West,270,0.0,0.0,49,0.00,,---,0.00,VWS V14.01,2013-02-03 23:35:00,
2013-02-03 18:36:00,57.7,38.7,30.12,WNW,292,0.0,0.0,49,0.00,,---,0.00,VWS V14.01,2013-02-03 23:36:00,
2013-02-03 18:37:00,57.9,38.9,30.12,NE,45,0.9,0.9,49,0.00,,---,0.00,VWS V14.01,2013-02-03 23:37:00,
2013-02-03 18:38:00,57.9,38.9,30.12,WNW,292,0.0,1.6,49,0.00,,---,0.00,VWS V14.01,2013-02-03 23:38:00,
2013-02-03 18:39:00,57.9,38.9,30.12,WNW,292,0.0,1.3,49,0.00,,---,0.00,VWS V14.01,2013-02-03 23:39:00,
2013-02-03 18:40:00,57.7,38.7,30.12,WNW,292,0.0,0.0,49,0.00,,---,0.00,VWS V14.01,2013-02-03 23:40:00,
2013-02-03 18:41:00,57.2,38.8,30.12,WNW,292,0.0,0.0,50,0.00,,---,0.00,VWS V14.01,2013-02-03 23:41:00,
2013-02-03 18:42:00,57.6,38.6,30.12,WNW,292,0.0,0.0,49,0.00,,---,0.00,VWS V14.01,2013-02-03 23:42:00,
2013-02-03 18:43:00,57.6,38.6,30.12,NW,315,0.0,1.6,49,0.00,,---,0.00,VWS V14.01,2013-02-03 23:43:00,
2013-02-03 18:44:00,57.6,38.6,30.12,NW,315,0.0,0.0,49,0.00,,---,0.00,VWS V14.01,2013-02-03 23:44:00,
2013-02-03 18:45:00,57.4,38.4,30.12,NW,315,0.0,0.0,49,0.00,,---,0.00,VWS V14.01,2013-02-03 23:45:00,
2013-02-03 18:46:00,56.8,38.9,30.12,WNW,292,0.0,0.0,51,0.00,,---,0.00,VWS V14.01,2013-02-03 23:46:00,
2013-02-03 18:47:00,57.2,39.2,30.12,WNW,292,0.0,0.0,51,0.00,,---,0.00,VWS V14.01,2013-02-03 23:47:00,
2013-02-03 18:48:00,57.2,38.8,30.12,WNW,292,0.0,0.0,50,0.00,,---,0.00,VWS V14.01,2013-02-03 23:48:00,
2013-02-03 18:49:00,57.0,38.6,30.12,WNW,292,0.0,0.0,50,0.00,,---,0.00,VWS V14.01,2013-02-03 23:49:00,
2013-02-03 18:50:00,57.0,38.6,30.12,WNW,292,0.0,0.0,50,0.00,,---,0.00,VWS V14.01,2013-02-03 23:50:00,
2013-02-03 18:51:00,56.3,38.4,30.12,WNW,292,0.0,0.0,51,0.00,,---,0.00,VWS V14.01,2013-02-03 23:51:00,
2013-02-03 18:52:00,56.8,38.9,30.12,WNW,292,0.0,0.0,51,0.00,,---,0.00,VWS V14.01,2013-02-03 23:52:00,
2013-02-03 18:53:00,56.8,38.9,30.12,WNW,292,0.0,0.0,51,0.00,,---,0.00,VWS V14.01,2013-02-03 23:53:00,
2013-02-03 18:54:00,56.7,38.8,30.12,WNW,292,0.0,0.0,51,0.00,,---,0.00,VWS V14.01,2013-02-03 23:54:00,
2013-02-03 18:55:00,56.5,38.6,30.12,WNW,292,0.0,0.0,51,0.00,,---,0.00,VWS V14.01,2013-02-03 23:55:00,
2013-02-03 18:56:00,55.9,38.1,30.12,WNW,292,0.0,0.0,51,0.00,,---,0.00,VWS V14.01,2013-02-03 23:56:00,
2013-02-03 18:57:00,56.3,38.4,30.12,WNW,292,0.0,0.0,51,0.00,,---,0.00,VWS V14.01,2013-02-03 23:57:00,
2013-02-03 18:58:00,56.3,38.4,30.12,WNW,292,0.0,0.0,51,0.00,,---,0.00,VWS V14.01,2013-02-03 23:58:00,
2013-02-03 18:59:00,56.1,38.3,30.12,WNW,292,0.0,0.0,51,0.00,,---,0.00,VWS V14.01,2013-02-03 23:59:00,
2013-02-03 19:00:00,55.9,38.1,30.12,WNW,292,0.0,0.0,51,0.00,,---,0.00,VWS V14.01,2013-02-04 00:00:00,
2013-02-03 19:01:00,55.4,38.1,30.12,WNW,292,0.0,0.0,52,0.00,,---,0.00,VWS V14.01,2013-02-04 00:01:00,
2013-02-03 19:02:00,55.8,37.9,30.12,WNW,292,0.0,0.0,51,0.00,,---,0.00,VWS V14.01,2013-02-04 00:02:00,
2013-02-03 19:03:00,55.8,37.9,30.12,WNW,292,0.0,0.0,51,0.00,,---,0.00,VWS V14.01,2013-02-04 00:03:00,
2013-02-03 19:04:00,55.8,37.9,30.12,WNW,292,0.0,0.0,51,0.00,,---,0.00,VWS V14.01,2013-02-04 00:04:00,
2013-02-03 19:05:00,55.6,38.2,30.12,WNW,292,0.0,0.0,52,0.00,,---,0.00,VWS V14.01,2013-02-04 00:05:00,
2013-02-03 19:06:00,54.9,38.1,30.12,WNW,292,0.0,0.0,53,0.00,,---,0.00,VWS V14.01,2013-02-04 00:06:00,
2013-02-03 19:07:00,55.4,38.1,30.12,WNW,292,0.0,0.0,52,0.00,,---,0.00,VWS V14.01,2013-02-04 00:07:00,
2013-02-03 19:08:00,55.4,38.1,30.12,WNW,292,0.0,0.0,52,0.00,,---,0.00,VWS V14.01,2013-02-04 00:08:00,
2013-02-03 19:09:00,55.0,38.2,30.12,WNW,292,0.0,0.0,53,0.00,,---,0.00,VWS V14.01,2013-02-04 00:09:00,
2013-02-03 19:10:00,55.0,38.2,30.12,WNW,292,0.0,0.0,53,0.00,,---,0.00,VWS V14.01,2013-02-04 00:10:00,
2013-02-03 19:11:00,54.5,38.2,30.12,WNW,292,0.0,0.0,54,0.00,,---,0.00,VWS V14.01,2013-02-04 00:11:00,
2013-02-03 19:12:00,54.9,38.1,30.12,WNW,292,0.0,0.0,53,0.00,,---,0.00,VWS V14.01,2013-02-04 00:12:00,
2013-02-03 19:13:00,54.7,37.9,30.12,WNW,292,0.0,0.0,53,0.00,,---,0.00,VWS V14.01,2013-02-04 00:13:00,
2013-02-03 19:14:00,54.7,37.9,30.12,WNW,292,0.0,0.0,53,0.00,,---,0.00,VWS V14.01,2013-02-04 00:14:00,
2013-02-03 19:15:00,54.7,37.9,30.12,WNW,292,0.0,0.0,53,0.00,,---,0.00,VWS V14.01,2013-02-04 00:15:00,
2013-02-03 19:16:00,54.1,38.3,30.12,WNW,292,0.0,0.0,55,0.00,,---,0.00,VWS V14.01,2013-02-04 00:16:00,
2013-02-03 19:17:00,54.5,38.2,30.12,WNW,292,0.0,0.0,54,0.00,,---,0.00,VWS V14.01,2013-02-04 00:17:00,
2013-02-03 19:18:00,54.3,38.0,30.12,WNW,292,0.0,0.0,54,0.00,,---,0.00,VWS V14.01,2013-02-04 00:18:00,
2013-02-03 19:19:00,54.3,38.0,30.12,WNW,292,0.0,0.0,54,0.00,,---,0.00,VWS V14.01,2013-02-04 00:19:00,
2013-02-03 19:20:00,54.1,37.9,30.12,WNW,292,0.0,0.0,54,0.00,,---,0.00,VWS V14.01,2013-02-04 00:20:00,
2013-02-03 19:21:00,53.8,37.5,30.12,WNW,292,0.0,0.0,54,0.00,,---,0.00,VWS V14.01,2013-02-04 00:21:00,
2013-02-03 19:22:00,54.1,38.3,30.12,WNW,292,0.0,0.0,55,0.00,,---,0.00,VWS V14.01,2013-02-04 00:22:00,
2013-02-03 19:23:00,54.1,38.3,30.12,WNW,292,0.0,0.0,55,0.00,,---,0.00,VWS V14.01,2013-02-04 00:23:00,
2013-02-03 19:24:00,54.0,38.2,30.12,WNW,292,0.0,0.0,55,0.00,,---,0.00,VWS V14.01,2013-02-04 00:24:00,
2013-02-03 19:25:00,53.8,37.5,30.12,WNW,292,0.0,0.0,54,0.00,,---,0.00,VWS V14.01,2013-02-04 00:25:00,
2013-02-03 19:26:00,53.6,38.3,30.12,WNW,292,0.0,0.0,56,0.00,,---,0.00,VWS V14.01,2013-02-04 00:26:00,
2013-02-03 19:27:00,53.8,37.5,30.12,WNW,292,0.0,0.0,54,0.00,,---,0.00,VWS V14.01,2013-02-04 00:27:00,
2013-02-03 19:28:00,53.8,38.0,30.12,WNW,292,0.0,0.0,55,0.00,,---,0.00,VWS V14.01,2013-02-04 00:28:00,
2013-02-03 19:29:00,53.8,38.0,30.12,WNW,292,0.0,0.0,55,0.00,,---,0.00,VWS V14.01,2013-02-04 00:29:00,
2013-02-03 19:30:00,53.6,37.8,30.12,WNW,292,0.0,0.0,55,0.00,,---,0.00,VWS V14.01,2013-02-04 00:30:00,
2013-02-03 19:31:00,53.4,38.6,30.12,WNW,292,0.0,0.0,57,0.00,,---,0.00,VWS V14.01,2013-02-04 00:31:00,
2013-02-03 19:32:00,53.6,38.3,30.12,WNW,292,0.0,0.0,56,0.00,,---,0.00,VWS V14.01,2013-02-04 00:32:00,
2013-02-03 19:33:00,53.4,38.1,30.12,WNW,292,0.0,0.0,56,0.00,,---,0.00,VWS V14.01,2013-02-04 00:33:00,
2013-02-03 19:34:00,53.4,38.1,30.12,WNW,292,0.0,0.0,56,0.00,,---,0.00,VWS V14.01,2013-02-04 00:34:00,
2013-02-03 19:35:00,53.4,38.6,30.12,WNW,292,0.0,0.0,57,0.00,,---,0.00,VWS V14.01,2013-02-04 00:35:00,
2013-02-03 19:36:00,53.1,38.7,30.12,WNW,292,0.0,0.0,58,0.00,,---,0.00,VWS V14.01,2013-02-04 00:36:00,
2013-02-03 19:37:00,53.4,38.6,30.12,WNW,292,0.0,0.0,57,0.00,,---,0.00,VWS V14.01,2013-02-04 00:37:00,
2013-02-03 19:38:00,53.2,38.4,30.12,WNW,292,0.0,0.0,57,0.00,,---,0.00,VWS V14.01,2013-02-04 00:38:00,
2013-02-03 19:39:00,53.2,38.9,30.12,WNW,292,0.0,0.0,58,0.00,,---,0.00,VWS V14.01,2013-02-04 00:39:00,
2013-02-03 19:40:00,53.1,38.2,30.12,WNW,292,0.0,0.0,57,0.00,,---,0.00,VWS V14.01,2013-02-04 00:40:00,
2013-02-03 19:41:00,52.9,38.1,30.12,WNW,292,0.0,0.0,57,0.00,,---,0.00,VWS V14.01,2013-02-04 00:41:00,
2013-02-03 19:42:00,53.1,38.7,30.12,WNW,292,0.0,0.0,58,0.00,,---,0.00,VWS V14.01,2013-02-04 00:42:00,
2013-02-03 19:43:00,53.1,38.7,30.12,WNW,292,0.0,0.0,58,0.00,,---,0.00,VWS V14.01,2013-02-04 00:43:00,
2013-02-03 19:44:00,53.1,38.7,30.12,WNW,292,0.0,0.0,58,0.00,,---,0.00,VWS V14.01,2013-02-04 00:44:00,
2013-02-03 19:45:00,52.9,38.1,30.12,WNW,292,0.0,0.0,57,0.00,,---,0.00,VWS V14.01,2013-02-04 00:45:00,
2013-02-03 19:46:00,52.9,38.5,30.12,WNW,292,0.0,0.0,58,0.00,,---,0.00,VWS V14.01,2013-02-04 00:46:00,
2013-02-03 19:47:00,52.9,38.1,30.12,WNW,292,0.0,0.0,57,0.00,,---,0.00,VWS V14.01,2013-02-04 00:47:00,
2013-02-03 19:48:00,52.9,38.1,30.12,WNW,292,0.0,0.0,57,0.00,,---,0.00,VWS V14.01,2013-02-04 00:48:00,
2013-02-03 19:49:00,52.9,38.1,30.12,WNW,292,0.0,0.0,57,0.00,,---,0.00,VWS V14.01,2013-02-04 00:49:00,
2013-02-03 19:50:00,52.9,38.5,30.12,WNW,292,0.0,0.0,58,0.00,,---,0.00,VWS V14.01,2013-02-04 00:50:00,
2013-02-03 19:51:00,52.9,39.0,30.12,WNW,292,0.0,0.0,59,0.00,,---,0.00,VWS V14.01,2013-02-04 00:51:00,
2013-02-03 19:52:00,52.9,38.5,30.12,WNW,292,0.0,0.0,58,0.00,,---,0.00,VWS V14.01,2013-02-04 00:52:00,
2013-02-03 19:53:00,52.9,38.5,30.12,WNW,292,0.0,0.0,58,0.00,,---,0.00,VWS V14.01,2013-02-04 00:53:00,
2013-02-03 19:54:00,52.9,38.5,30.12,WNW,292,0.0,0.0,58,0.00,,---,0.00,VWS V14.01,2013-02-04 00:54:00,
2013-02-03 19:55:00,52.9,38.5,30.12,WNW,292,0.0,0.0,58,0.00,,---,0.00,VWS V14.01,2013-02-04 00:55:00,
2013-02-03 19:56:00,52.7,39.2,30.12,WNW,292,0.0,0.0,60,0.00,,---,0.00,VWS V14.01,2013-02-04 00:56:00,
2013-02-03 19:57:00,52.9,39.0,30.12,WNW,292,0.0,0.0,59,0.00,,---,0.00,VWS V14.01,2013-02-04 00:57:00,
2013-02-03 19:58:00,52.9,39.0,30.12,WNW,292,0.0,0.0,59,0.00,,---,0.00,VWS V14.01,2013-02-04 00:58:00,
2013-02-03 19:59:00,52.9,39.0,30.12,WNW,292,0.0,0.0,59,0.00,,---,0.00,VWS V14.01,2013-02-04 00:59:00,
2013-02-03 20:00:00,52.7,39.2,30.12,WNW,292,0.0,0.0,60,0.00,,---,0.00,VWS V14.01,2013-02-04 01:00:00,
2013-02-03 20:01:00,52.3,39.3,30.12,WNW,292,0.0,0.0,61,0.00,,---,0.00,VWS V14.01,2013-02-04 01:01:00,
2013-02-03 20:02:00,52.7,39.2,30.12,WNW,292,0.0,0.0,60,0.00,,---,0.00,VWS V14.01,2013-02-04 01:02:00,
2013-02-03 20:03:00,52.5,39.5,30.12,WNW,292,0.0,0.0,61,0.00,,---,0.00,VWS V14.01,2013-02-04 01:03:00,
2013-02-03 20:04:00,52.3,39.3,30.12,WNW,292,0.0,0.0,61,0.00,,---,0.00,VWS V14.01,2013-02-04 01:04:00,
2013-02-03 20:05:00,52.3,39.3,30.12,WNW,292,0.0,0.0,61,0.00,,---,0.00,VWS V14.01,2013-02-04 01:05:00,
2013-02-03 20:06:00,51.8,38.8,30.12,WNW,292,0.0,0.0,61,0.00,,---,0.00,VWS V14.01,2013-02-04 01:06:00,
2013-02-03 20:07:00,52.3,39.3,30.12,WNW,292,0.0,0.0,61,0.00,,---,0.00,VWS V14.01,2013-02-04 01:07:00,
2013-02-03 20:08:00,52.2,39.1,30.12,WNW,292,0.0,0.0,61,0.00,,---,0.00,VWS V14.01,2013-02-04 01:08:00,
2013-02-03 20:09:00,52.2,39.5,30.12,WNW,292,0.0,0.0,62,0.00,,---,0.00,VWS V14.01,2013-02-04 01:09:00,
2013-02-03 20:10:00,52.0,39.4,30.12,WNW,292,0.0,0.0,62,0.00,,---,0.00,VWS V14.01,2013-02-04 01:10:00,
2013-02-03 20:11:00,51.4,39.3,30.15,WNW,292,0.0,0.0,63,0.00,,---,0.00,VWS V14.01,2013-02-04 01:11:00,
2013-02-03 20:12:00,51.8,39.2,30.12,WNW,292,0.0,0.0,62,0.00,,---,0.00,VWS V14.01,2013-02-04 01:12:00,
2013-02-03 20:13:00,51.6,39.0,30.15,WNW,292,0.0,0.0,62,0.00,,---,0.00,VWS V14.01,2013-02-04 01:13:00,
2013-02-03 20:14:00,51.6,39.0,30.15,WNW,292,0.0,0.0,62,0.00,,---,0.00,VWS V14.01,2013-02-04 01:14:00,
2013-02-03 20:15:00,51.6,39.5,30.15,WNW,292,0.0,0.0,63,0.00,,---,0.00,VWS V14.01,2013-02-04 01:15:00,
2013-02-03 20:16:00,51.1,38.5,30.15,WNW,292,0.0,0.0,62,0.00,,---,0.00,VWS V14.01,2013-02-04 01:16:00,
2013-02-03 20:17:00,51.4,39.3,30.15,WNW,292,0.0,0.0,63,0.00,,---,0.00,VWS V14.01,2013-02-04 01:17:00,
2013-02-03 20:18:00,51.3,38.7,30.15,WNW,292,0.0,0.0,62,0.00,,---,0.00,VWS V14.01,2013-02-04 01:18:00,
2013-02-03 20:19:00,51.3,38.7,30.15,WNW,292,0.0,0.0,62,0.00,,---,0.00,VWS V14.01,2013-02-04 01:19:00,
2013-02-03 20:20:00,51.1,38.1,30.15,WNW,292,0.0,0.0,61,0.00,,---,0.00,VWS V14.01,2013-02-04 01:20:00,
2013-02-03 20:21:00,50.9,38.0,30.15,WNW,292,0.0,0.0,61,0.00,,---,0.00,VWS V14.01,2013-02-04 01:21:00,
2013-02-03 20:22:00,51.1,38.5,30.15,WNW,292,0.0,0.0,62,0.00,,---,0.00,VWS V14.01,2013-02-04 01:22:00,
2013-02-03 20:23:00,50.9,38.4,30.15,WNW,292,0.0,0.0,62,0.00,,---,0.00,VWS V14.01,2013-02-04 01:23:00,
2013-02-03 20:24:00,50.9,38.0,30.15,WNW,292,0.0,0.0,61,0.00,,---,0.00,VWS V14.01,2013-02-04 01:24:00,
2013-02-03 20:25:00,50.5,38.4,30.15,WNW,292,0.0,0.0,63,0.00,,---,0.00,VWS V14.01,2013-02-04 01:25:00,
2013-02-03 20:26:00,50.9,38.0,30.15,WNW,292,0.0,0.0,61,0.00,,---,0.00,VWS V14.01,2013-02-04 01:26:00,
2013-02-03 20:27:00,50.9,38.0,30.15,WNW,292,0.0,0.0,61,0.00,,---,0.00,VWS V14.01,2013-02-04 01:27:00,
2013-02-03 20:28:00,50.7,38.2,30.15,WNW,292,0.0,0.0,62,0.00,,---,0.00,VWS V14.01,2013-02-04 01:28:00,
2013-02-03 20:29:00,50.7,38.2,30.15,WNW,292,0.0,0.0,62,0.00,,---,0.00,VWS V14.01,2013-02-04 01:29:00,
2013-02-03 20:30:00,50.4,38.7,30.15,WNW,292,0.0,0.0,64,0.00,,---,0.00,VWS V14.01,2013-02-04 01:30:00,
2013-02-03 20:31:00,50.7,38.6,30.15,WNW,292,0.0,0.0,63,0.00,,---,0.00,VWS V14.01,2013-02-04 01:31:00,
2013-02-03 20:32:00,50.5,38.4,30.15,WNW,292,0.0,0.0,63,0.00,,---,0.00,VWS V14.01,2013-02-04 01:32:00,
2013-02-03 20:33:00,50.5,38.4,30.15,WNW,292,0.0,0.0,63,0.00,,---,0.00,VWS V14.01,2013-02-04 01:33:00,
2013-02-03 20:34:00,50.4,38.3,30.15,WNW,292,0.0,0.0,63,0.00,,---,0.00,VWS V14.01,2013-02-04 01:34:00,
2013-02-03 20:35:00,50.0,37.9,30.15,WNW,292,0.0,0.0,63,0.00,,---,0.00,VWS V14.01,2013-02-04 01:35:00,
2013-02-03 20:36:00,50.4,38.7,30.15,WNW,292,0.0,0.0,64,0.00,,---,0.00,VWS V14.01,2013-02-04 01:36:00,
2013-02-03 20:37:00,50.2,38.5,30.15,WNW,292,0.0,0.0,64,0.00,,---,0.00,VWS V14.01,2013-02-04 01:37:00,
2013-02-03 20:38:00,50.2,38.5,30.15,WNW,292,0.0,0.0,64,0.00,,---,0.00,VWS V14.01,2013-02-04 01:38:00,
2013-02-03 20:39:00,50.2,38.5,30.15,WNW,292,0.0,0.0,64,0.00,,---,0.00,VWS V14.01,2013-02-04 01:39:00,
2013-02-03 20:40:00,49.8,38.9,30.15,WNW,292,0.0,0.0,66,0.00,,---,0.00,VWS V14.01,2013-02-04 01:40:00,
2013-02-03 20:41:00,50.0,37.9,30.15,WNW,292,0.0,0.0,63,0.00,,---,0.00,VWS V14.01,2013-02-04 01:41:00,
2013-02-03 20:42:00,50.0,37.9,30.15,WNW,292,0.0,0.0,63,0.00,,---,0.00,VWS V14.01,2013-02-04 01:42:00,
2013-02-03 20:43:00,50.0,38.3,30.15,WNW,292,0.0,0.0,64,0.00,,---,0.00,VWS V14.01,2013-02-04 01:43:00,
2013-02-03 20:44:00,50.0,38.3,30.15,WNW,292,0.0,0.0,64,0.00,,---,0.00,VWS V14.01,2013-02-04 01:44:00,
2013-02-03 20:45:00,49.6,38.8,30.15,WNW,292,0.0,0.0,66,0.00,,---,0.00,VWS V14.01,2013-02-04 01:45:00,
2013-02-03 20:46:00,50.0,38.7,30.15,WNW,292,0.0,0.0,65,0.00,,---,0.00,VWS V14.01,2013-02-04 01:46:00,
2013-02-03 20:47:00,49.8,38.9,30.15,WNW,292,0.0,0.0,66,0.00,,---,0.00,VWS V14.01,2013-02-04 01:47:00,
2013-02-03 20:48:00,49.8,38.9,30.15,WNW,292,0.0,0.0,66,0.00,,---,0.00,VWS V14.01,2013-02-04 01:48:00,
2013-02-03 20:49:00,49.8,38.9,30.15,WNW,292,0.0,0.0,66,0.00,,---,0.00,VWS V14.01,2013-02-04 01:49:00,
2013-02-03 20:50:00,49.6,38.8,30.15,WNW,292,0.0,0.0,66,0.00,,---,0.00,VWS V14.01,2013-02-04 01:50:00,
2013-02-03 20:51:00,49.6,38.8,30.15,WNW,292,0.0,0.0,66,0.00,,---,0.00,VWS V14.01,2013-02-04 01:51:00,
2013-02-03 20:52:00,49.5,38.6,30.15,WNW,292,0.0,0.0,66,0.00,,---,0.00,VWS V14.01,2013-02-04 01:52:00,
2013-02-03 20:53:00,49.5,38.2,30.15,WNW,292,0.0,0.0,65,0.00,,---,0.00,VWS V14.01,2013-02-04 01:53:00,
2013-02-03 20:54:00,49.6,38.4,30.15,WNW,292,0.0,0.0,65,0.00,,---,0.00,VWS V14.01,2013-02-04 01:54:00,
2013-02-03 20:55:00,49.5,39.0,30.15,WNW,292,0.0,0.0,67,0.00,,---,0.00,VWS V14.01,2013-02-04 01:55:00,
2013-02-03 20:56:00,49.6,38.8,30.15,WNW,292,0.0,0.0,66,0.00,,---,0.00,VWS V14.01,2013-02-04 01:56:00,
2013-02-03 20:57:00,49.5,38.6,30.15,WNW,292,0.0,0.0,66,0.00,,---,0.00,VWS V14.01,2013-02-04 01:57:00,
2013-02-03 20:58:00,49.5,38.6,30.15,WNW,292,0.0,0.0,66,0.00,,---,0.00,VWS V14.01,2013-02-04 01:58:00,
2013-02-03 20:59:00,49.5,38.6,30.15,WNW,292,0.0,0.0,66,0.00,,---,0.00,VWS V14.01,2013-02-04 01:59:00,
2013-02-03 21:00:00,49.1,38.6,30.15,WNW,292,0.0,0.0,67,0.00,,---,0.00,VWS V14.01,2013-02-04 02:00:00,
2013-02-03 21:01:00,49.5,39.0,30.15,WNW,292,0.0,0.0,67,0.00,,---,0.00,VWS V14.01,2013-02-04 02:01:00,
2013-02-03 21:02:00,49.5,39.0,30.15,WNW,292,0.0,0.0,67,0.00,,---,0.00,VWS V14.01,2013-02-04 02:02:00,
2013-02-03 21:03:00,49.5,39.0,30.15,WNW,292,0.0,0.0,67,0.00,,---,0.00,VWS V14.01,2013-02-04 02:03:00,
2013-02-03 21:04:00,49.3,38.8,30.15,WNW,292,0.0,0.0,67,0.00,,---,0.00,VWS V14.01,2013-02-04 02:04:00,
2013-02-03 21:05:00,49.1,38.2,30.15,WNW,292,0.0,0.0,66,0.00,,---,0.00,VWS V14.01,2013-02-04 02:05:00,
2013-02-03 21:06:00,49.1,38.6,30.15,WNW,292,0.0,0.0,67,0.00,,---,0.00,VWS V14.01,2013-02-04 02:06:00,
2013-02-03 21:07:00,49.1,38.6,30.15,WNW,292,0.0,0.0,67,0.00,,---,0.00,VWS V14.01,2013-02-04 02:07:00,
2013-02-03 21:08:00,49.1,38.2,30.15,WNW,292,0.0,0.0,66,0.00,,---,0.00,VWS V14.01,2013-02-04 02:08:00,
2013-02-03 21:09:00,49.1,38.6,30.15,WNW,292,0.0,0.0,67,0.00,,---,0.00,VWS V14.01,2013-02-04 02:09:00,
2013-02-03 21:10:00,48.9,38.5,30.15,WNW,292,0.0,0.0,67,0.00,,---,0.00,VWS V14.01,2013-02-04 02:10:00,
2013-02-03 21:11:00,49.1,38.2,30.15,WNW,292,0.0,0.0,66,0.00,,---,0.00,VWS V14.01,2013-02-04 02:11:00,
2013-02-03 21:12:00,48.9,38.1,30.15,WNW,292,0.0,0.0,66,0.00,,---,0.00,VWS V14.01,2013-02-04 02:12:00,
2013-02-03 21:13:00,48.9,38.1,30.15,WNW,292,0.0,0.0,66,0.00,,---,0.00,VWS V14.01,2013-02-04 02:13:00,
2013-02-03 21:14:00,48.9,38.1,30.15,WNW,292,0.0,0.0,66,0.00,,---,0.00,VWS V14.01,2013-02-04 02:14:00,
2013-02-03 21:15:00,48.9,38.8,30.15,WNW,292,0.0,0.0,68,0.00,,---,0.00,VWS V14.01,2013-02-04 02:15:00,
2013-02-03 21:16:00,48.9,38.5,30.15,WNW,292,0.0,0.0,67,0.00,,---,0.00,VWS V14.01,2013-02-04 02:16:00,
2013-02-03 21:17:00,48.9,38.5,30.15,WNW,292,0.0,0.0,67,0.00,,---,0.00,VWS V14.01,2013-02-04 02:17:00,
2013-02-03 21:18:00,48.9,38.5,30.15,WNW,292,0.0,0.0,67,0.00,,---,0.00,VWS V14.01,2013-02-04 02:18:00,
2013-02-03 21:19:00,48.9,38.5,30.15,WNW,292,0.0,0.0,67,0.00,,---,0.00,VWS V14.01,2013-02-04 02:19:00,
2013-02-03 21:20:00,48.7,38.3,30.15,WNW,292,0.0,0.0,67,0.00,,---,0.00,VWS V14.01,2013-02-04 02:20:00,
2013-02-03 21:21:00,48.9,38.8,30.15,WNW,292,0.0,0.0,68,0.00,,---,0.00,VWS V14.01,2013-02-04 02:21:00,
2013-02-03 21:22:00,48.9,38.8,30.15,WNW,292,0.0,0.0,68,0.00,,---,0.00,VWS V14.01,2013-02-04 02:22:00,
2013-02-03 21:23:00,48.7,38.3,30.15,WNW,292,0.0,0.0,67,0.00,,---,0.00,VWS V14.01,2013-02-04 02:23:00,
2013-02-03 21:24:00,48.7,38.3,30.15,WNW,292,0.0,0.0,67,0.00,,---,0.00,VWS V14.01,2013-02-04 02:24:00,
2013-02-03 21:25:00,48.7,38.7,30.15,WNW,292,0.0,0.0,68,0.00,,---,0.00,VWS V14.01,2013-02-04 02:25:00,
2013-02-03 21:26:00,48.7,38.3,30.15,WNW,292,0.0,0.0,67,0.00,,---,0.00,VWS V14.01,2013-02-04 02:26:00,
2013-02-03 21:27:00,48.7,38.3,30.15,WNW,292,0.0,0.0,67,0.00,,---,0.00,VWS V14.01,2013-02-04 02:27:00,
2013-02-03 21:28:00,48.7,38.7,30.15,WNW,292,0.0,0.0,68,0.00,,---,0.00,VWS V14.01,2013-02-04 02:28:00,
2013-02-03 21:29:00,48.7,38.7,30.15,WNW,292,0.0,0.0,68,0.00,,---,0.00,VWS V14.01,2013-02-04 02:29:00,
2013-02-03 21:30:00,48.6,38.5,30.15,WNW,292,0.0,0.0,68,0.00,,---,0.00,VWS V14.01,2013-02-04 02:30:00,
2013-02-03 21:31:00,48.7,38.7,30.15,WNW,292,0.0,0.0,68,0.00,,---,0.00,VWS V14.01,2013-02-04 02:31:00,
2013-02-03 21:32:00,48.7,38.7,30.15,WNW,292,0.0,0.0,68,0.00,,---,0.00,VWS V14.01,2013-02-04 02:32:00,
2013-02-03 21:33:00,48.6,38.5,30.15,WNW,292,0.0,0.0,68,0.00,,---,0.00,VWS V14.01,2013-02-04 02:33:00,
2013-02-03 21:34:00,48.6,38.5,30.15,WNW,292,0.0,0.0,68,0.00,,---,0.00,VWS V14.01,2013-02-04 02:34:00,
2013-02-03 21:35:00,48.2,38.2,30.15,WNW,292,0.0,0.0,68,0.00,,---,0.00,VWS V14.01,2013-02-04 02:35:00,
2013-02-03 21:36:00,48.6,38.5,30.15,WNW,292,0.0,0.0,68,0.00,,---,0.00,VWS V14.01,2013-02-04 02:36:00,
2013-02-03 21:37:00,48.6,38.5,30.15,WNW,292,0.0,0.0,68,0.00,,---,0.00,VWS V14.01,2013-02-04 02:37:00,
2013-02-03 21:38:00,48.4,38.3,30.15,WNW,292,0.0,0.0,68,0.00,,---,0.00,VWS V14.01,2013-02-04 02:38:00,
2013-02-03 21:39:00,48.4,38.3,30.15,WNW,292,0.0,0.0,68,0.00,,---,0.00,VWS V14.01,2013-02-04 02:39:00,
2013-02-03 21:40:00,48.0,38.0,30.15,WNW,292,0.0,0.0,68,0.00,,---,0.00,VWS V14.01,2013-02-04 02:40:00,
2013-02-03 21:41:00,48.2,38.2,30.15,WNW,292,0.0,0.0,68,0.00,,---,0.00,VWS V14.01,2013-02-04 02:41:00,
2013-02-03 21:42:00,48.2,38.2,30.15,WNW,292,0.0,0.0,68,0.00,,---,0.00,VWS V14.01,2013-02-04 02:42:00,
2013-02-03 21:43:00,48.2,38.2,30.15,WNW,292,0.0,0.0,68,0.00,,---,0.00,VWS V14.01,2013-02-04 02:43:00,
2013-02-03 21:44:00,48.2,38.2,30.15,WNW,292,0.0,0.0,68,0.00,,---,0.00,VWS V14.01,2013-02-04 02:44:00,
2013-02-03 21:45:00,47.8,38.5,30.15,WNW,292,0.0,0.0,70,0.00,,---,0.00,VWS V14.01,2013-02-04 02:45:00,
2013-02-03 21:46:00,48.0,38.0,30.15,WNW,292,0.0,0.0,68,0.00,,---,0.00,VWS V14.01,2013-02-04 02:46:00,
2013-02-03 21:47:00,48.0,38.0,30.15,WNW,292,0.0,0.0,68,0.00,,---,0.00,VWS V14.01,2013-02-04 02:47:00,
2013-02-03 21:48:00,48.0,38.3,30.15,WNW,292,0.0,0.0,69,0.00,,---,0.00,VWS V14.01,2013-02-04 02:48:00,
2013-02-03 21:49:00,48.0,38.3,30.15,WNW,292,0.0,0.0,69,0.00,,---,0.00,VWS V14.01,2013-02-04 02:49:00,
2013-02-03 21:50:00,47.7,38.4,30.15,WNW,292,0.0,0.0,70,0.00,,---,0.00,VWS V14.01,2013-02-04 02:50:00,
2013-02-03 21:51:00,47.8,38.5,30.15,WNW,292,0.0,0.0,70,0.00,,---,0.00,VWS V14.01,2013-02-04 02:51:00,
2013-02-03 21:52:00,47.8,38.5,30.15,WNW,292,0.0,0.0,70,0.00,,---,0.00,VWS V14.01,2013-02-04 02:52:00,
2013-02-03 21:53:00,47.8,38.5,30.15,WNW,292,0.0,0.0,70,0.00,,---,0.00,VWS V14.01,2013-02-04 02:53:00,
2013-02-03 21:54:00,47.7,38.4,30.15,WNW,292,0.0,0.0,70,0.00,,---,0.00,VWS V14.01,2013-02-04 02:54:00,
2013-02-03 21:55:00,47.3,37.7,30.15,WNW,292,0.0,0.0,69,0.00,,---,0.00,VWS V14.01,2013-02-04 02:55:00,
2013-02-03 21:56:00,47.7,38.4,30.15,WNW,292,0.0,0.0,70,0.00,,---,0.00,VWS V14.01,2013-02-04 02:56:00,
2013-02-03 21:57:00,47.5,37.8,30.15,WNW,292,0.0,0.0,69,0.00,,---,0.00,VWS V14.01,2013-02-04 02:57:00,
2013-02-03 21:58:00,47.5,37.8,30.15,WNW,292,0.0,0.0,69,0.00,,---,0.00,VWS V14.01,2013-02-04 02:58:00,
2013-02-03 21:59:00,47.5,37.8,30.15,WNW,292,0.0,0.0,69,0.00,,---,0.00,VWS V14.01,2013-02-04 02:59:00,
2013-02-03 22:00:00,47.3,38.0,30.15,WNW,292,0.0,0.0,70,0.00,,---,0.00,VWS V14.01,2013-02-04 03:00:00,
2013-02-03 22:01:00,47.3,37.7,30.15,WNW,292,0.0,0.0,69,0.00,,---,0.00,VWS V14.01,2013-02-04 03:01:00,
2013-02-03 22:02:00,47.5,37.8,30.15,WNW,292,0.0,0.0,69,0.00,,---,0.00,VWS V14.01,2013-02-04 03:02:00,
2013-02-03 22:03:00,47.3,37.7,30.15,WNW,292,0.0,0.0,69,0.00,,---,0.00,VWS V14.01,2013-02-04 03:03:00,
2013-02-03 22:04:00,47.3,38.0,30.15,WNW,292,0.0,0.0,70,0.00,,---,0.00,VWS V14.01,2013-02-04 03:04:00,
2013-02-03 22:05:00,46.9,37.7,30.15,WNW,292,0.0,0.0,70,0.00,,---,0.00,VWS V14.01,2013-02-04 03:05:00,
2013-02-03 22:06:00,47.3,38.0,30.15,WNW,292,0.0,0.0,70,0.00,,---,0.00,VWS V14.01,2013-02-04 03:06:00,
2013-02-03 22:07:00,47.3,38.0,30.15,WNW,292,0.0,0.0,70,0.00,,---,0.00,VWS V14.01,2013-02-04 03:07:00,
2013-02-03 22:08:00,47.1,37.8,30.15,WNW,292,0.0,0.0,70,0.00,,---,0.00,VWS V14.01,2013-02-04 03:08:00,
2013-02-03 22:09:00,47.1,37.8,30.15,WNW,292,0.0,0.0,70,0.00,,---,0.00,VWS V14.01,2013-02-04 03:09:00,
2013-02-03 22:10:00,47.1,37.8,30.15,WNW,292,0.0,0.0,70,0.00,,---,0.00,VWS V14.01,2013-02-04 03:10:00,
2013-02-03 22:11:00,46.6,37.0,30.15,WNW,292,0.0,0.0,69,0.00,,---,0.00,VWS V14.01,2013-02-04 03:11:00,
2013-02-03 22:12:00,46.8,37.5,30.15,WNW,292,0.0,0.0,70,0.00,,---,0.00,VWS V14.01,2013-02-04 03:12:00,
2013-02-03 22:13:00,46.8,37.5,30.15,WNW,292,0.0,0.0,70,0.00,,---,0.00,VWS V14.01,2013-02-04 03:13:00,
2013-02-03 22:14:00,46.8,37.5,30.15,WNW,292,0.0,0.0,70,0.00,,---,0.00,VWS V14.01,2013-02-04 03:14:00,
2013-02-03 22:15:00,46.8,37.5,30.15,WNW,292,0.0,0.0,70,0.00,,---,0.00,VWS V14.01,2013-02-04 03:15:00,
2013-02-03 22:16:00,46.6,37.3,30.15,WNW,292,0.0,0.0,70,0.00,,---,0.00,VWS V14.01,2013-02-04 03:16:00,
2013-02-03 22:17:00,46.6,37.0,30.15,WNW,292,0.0,0.0,69,0.00,,---,0.00,VWS V14.01,2013-02-04 03:17:00,
2013-02-03 22:18:00,46.6,37.3,30.15,WNW,292,0.0,0.0,70,0.00,,---,0.00,VWS V14.01,2013-02-04 03:18:00,
2013-02-03 22:19:00,46.6,37.3,30.15,WNW,292,0.0,0.0,70,0.00,,---,0.00,VWS V14.01,2013-02-04 03:19:00,
2013-02-03 22:20:00,46.6,37.3,30.15,WNW,292,0.0,0.0,70,0.00,,---,0.00,VWS V14.01,2013-02-04 03:20:00,
2013-02-03 22:21:00,46.6,37.3,30.15,WNW,292,0.0,0.0,70,0.00,,---,0.00,VWS V14.01,2013-02-04 03:21:00,
2013-02-03 22:22:00,46.6,37.3,30.15,WNW,292,0.0,0.0,70,0.00,,---,0.00,VWS V14.01,2013-02-04 03:22:00,
2013-02-03 22:23:00,46.6,37.3,30.15,WNW,292,0.0,0.0,70,0.00,,---,0.00,VWS V14.01,2013-02-04 03:23:00,
2013-02-03 22:24:00,46.4,37.2,30.15,WNW,292,0.0,0.0,70,0.00,,---,0.00,VWS V14.01,2013-02-04 03:24:00,
2013-02-03 22:25:00,46.4,37.2,30.15,WNW,292,0.0,0.0,70,0.00,,---,0.00,VWS V14.01,2013-02-04 03:25:00,
2013-02-03 22:26:00,46.6,37.3,30.15,WNW,292,0.0,0.0,70,0.00,,---,0.00,VWS V14.01,2013-02-04 03:26:00,
2013-02-03 22:27:00,46.6,37.3,30.15,WNW,292,0.0,0.0,70,0.00,,---,0.00,VWS V14.01,2013-02-04 03:27:00,
2013-02-03 22:28:00,46.6,37.3,30.15,WNW,292,0.0,0.0,70,0.00,,---,0.00,VWS V14.01,2013-02-04 03:28:00,
2013-02-03 22:29:00,46.6,37.3,30.15,WNW,292,0.0,0.0,70,0.00,,---,0.00,VWS V14.01,2013-02-04 03:29:00,
2013-02-03 22:30:00,46.6,37.3,30.15,WNW,292,0.0,0.0,70,0.00,,---,0.00,VWS V14.01,2013-02-04 03:30:00,
2013-02-03 22:31:00,46.6,37.3,30.15,WNW,292,0.0,0.0,70,0.00,,---,0.00,VWS V14.01,2013-02-04 03:31:00,
2013-02-03 22:32:00,46.6,37.3,30.15,WNW,292,0.0,0.0,70,0.00,,---,0.00,VWS V14.01,2013-02-04 03:32:00,
2013-02-03 22:33:00,46.6,37.3,30.15,WNW,292,0.0,0.0,70,0.00,,---,0.00,VWS V14.01,2013-02-04 03:33:00,
2013-02-03 22:34:00,46.6,37.3,30.15,WNW,292,0.0,0.0,70,0.00,,---,0.00,VWS V14.01,2013-02-04 03:34:00,
2013-02-03 22:35:00,46.4,37.2,30.15,WNW,292,0.0,0.0,70,0.00,,---,0.00,VWS V14.01,2013-02-04 03:35:00,
2013-02-03 22:36:00,46.6,37.3,30.15,WNW,292,0.0,0.0,70,0.00,,---,0.00,VWS V14.01,2013-02-04 03:36:00,
2013-02-03 22:37:00,46.6,37.3,30.15,WNW,292,0.0,0.0,70,0.00,,---,0.00,VWS V14.01,2013-02-04 03:37:00,
2013-02-03 22:38:00,46.6,37.3,30.15,WNW,292,0.0,0.0,70,0.00,,---,0.00,VWS V14.01,2013-02-04 03:38:00,
2013-02-03 22:39:00,46.6,37.3,30.15,WNW,292,0.0,0.0,70,0.00,,---,0.00,VWS V14.01,2013-02-04 03:39:00,
2013-02-03 22:40:00,46.4,37.2,30.15,WNW,292,0.0,0.0,70,0.00,,---,0.00,VWS V14.01,2013-02-04 03:40:00,
2013-02-03 22:41:00,46.4,37.2,30.15,WNW,292,0.0,0.0,70,0.00,,---,0.00,VWS V14.01,2013-02-04 03:41:00,
2013-02-03 22:42:00,46.4,37.2,30.15,WNW,292,0.0,0.0,70,0.00,,---,0.00,VWS V14.01,2013-02-04 03:42:00,
2013-02-03 22:43:00,46.4,37.2,30.15,WNW,292,0.0,0.0,70,0.00,,---,0.00,VWS V14.01,2013-02-04 03:43:00,
2013-02-03 22:44:00,46.4,37.2,30.15,WNW,292,0.0,0.0,70,0.00,,---,0.00,VWS V14.01,2013-02-04 03:44:00,
2013-02-03 22:45:00,46.2,37.0,30.15,WNW,292,0.0,0.0,70,0.00,,---,0.00,VWS V14.01,2013-02-04 03:45:00,
2013-02-03 22:46:00,46.4,37.2,30.15,WNW,292,0.0,0.0,70,0.00,,---,0.00,VWS V14.01,2013-02-04 03:46:00,
2013-02-03 22:47:00,46.4,37.2,30.15,WNW,292,0.0,0.0,70,0.00,,---,0.00,VWS V14.01,2013-02-04 03:47:00,
2013-02-03 22:48:00,46.4,37.2,30.15,WNW,292,0.0,0.0,70,0.00,,---,0.00,VWS V14.01,2013-02-04 03:48:00,
2013-02-03 22:49:00,46.2,37.0,30.15,WNW,292,0.0,0.0,70,0.00,,---,0.00,VWS V14.01,2013-02-04 03:49:00,
2013-02-03 22:50:00,45.9,37.0,30.15,WNW,292,0.0,0.0,71,0.00,,---,0.00,VWS V14.01,2013-02-04 03:50:00,
2013-02-03 22:51:00,46.2,37.0,30.15,WNW,292,0.0,0.0,70,0.00,,---,0.00,VWS V14.01,2013-02-04 03:51:00,
2013-02-03 22:52:00,46.0,37.2,30.15,WNW,292,0.0,0.0,71,0.00,,---,0.00,VWS V14.01,2013-02-04 03:52:00,
2013-02-03 22:53:00,46.0,36.8,30.15,WNW,292,0.0,0.0,70,0.00,,---,0.00,VWS V14.01,2013-02-04 03:53:00,
2013-02-03 22:54:00,46.0,36.8,30.15,WNW,292,0.0,0.0,70,0.00,,---,0.00,VWS V14.01,2013-02-04 03:54:00,
2013-02-03 22:55:00,45.9,37.0,30.15,WNW,292,0.0,0.0,71,0.00,,---,0.00,VWS V14.01,2013-02-04 03:55:00,
2013-02-03 22:56:00,45.9,37.0,30.15,WNW,292,0.0,0.0,71,0.00,,---,0.00,VWS V14.01,2013-02-04 03:56:00,
2013-02-03 22:57:00,45.9,37.0,30.15,WNW,292,0.0,0.0,71,0.00,,---,0.00,VWS V14.01,2013-02-04 03:57:00,
2013-02-03 22:58:00,45.9,37.0,30.15,WNW,292,0.0,0.0,71,0.00,,---,0.00,VWS V14.01,2013-02-04 03:58:00,
2013-02-03 22:59:00,45.9,37.0,30.15,WNW,292,0.0,0.0,71,0.00,,---,0.00,VWS V14.01,2013-02-04 03:59:00,
2013-02-03 23:00:00,45.9,37.0,30.15,WNW,292,0.0,0.0,71,0.00,,---,0.00,VWS V14.01,2013-02-04 04:00:00,
2013-02-03 23:01:00,45.9,37.0,30.15,WNW,292,0.0,0.0,71,0.00,,---,0.00,VWS V14.01,2013-02-04 04:01:00,
2013-02-03 23:02:00,45.9,37.0,30.15,WNW,292,0.0,0.0,71,0.00,,---,0.00,VWS V14.01,2013-02-04 04:02:00,
2013-02-03 23:03:00,45.7,36.8,30.15,WNW,292,0.0,0.0,71,0.00,,---,0.00,VWS V14.01,2013-02-04 04:03:00,
2013-02-03 23:04:00,45.9,37.0,30.15,WNW,292,0.0,0.0,71,0.00,,---,0.00,VWS V14.01,2013-02-04 04:04:00,
2013-02-03 23:05:00,45.5,36.7,30.15,WNW,292,0.0,0.0,71,0.00,,---,0.00,VWS V14.01,2013-02-04 04:05:00,
2013-02-03 23:06:00,45.9,37.0,30.15,WNW,292,0.0,0.0,71,0.00,,---,0.00,VWS V14.01,2013-02-04 04:06:00,
2013-02-03 23:07:00,45.9,37.0,30.15,WNW,292,0.0,0.0,71,0.00,,---,0.00,VWS V14.01,2013-02-04 04:07:00,
2013-02-03 23:08:00,45.7,36.8,30.15,WNW,292,0.0,0.0,71,0.00,,---,0.00,VWS V14.01,2013-02-04 04:08:00,
2013-02-03 23:09:00,45.7,36.8,30.15,WNW,292,0.0,0.0,71,0.00,,---,0.00,VWS V14.01,2013-02-04 04:09:00,
2013-02-03 23:10:00,45.3,36.5,30.15,WNW,292,0.0,0.0,71,0.00,,---,0.00,VWS V14.01,2013-02-04 04:10:00,
2013-02-03 23:11:00,45.5,36.7,30.15,WNW,292,0.0,0.0,71,0.00,,---,0.00,VWS V14.01,2013-02-04 04:11:00,
2013-02-03 23:12:00,45.5,36.7,30.15,WNW,292,0.0,0.0,71,0.00,,---,0.00,VWS V14.01,2013-02-04 04:12:00,
2013-02-03 23:13:00,45.3,36.5,30.15,WNW,292,0.0,0.0,71,0.00,,---,0.00,VWS V14.01,2013-02-04 04:13:00,
2013-02-03 23:14:00,45.3,36.5,30.15,WNW,292,0.0,0.0,71,0.00,,---,0.00,VWS V14.01,2013-02-04 04:14:00,
2013-02-03 23:15:00,45.3,36.5,30.15,WNW,292,0.0,0.0,71,0.00,,---,0.00,VWS V14.01,2013-02-04 04:15:00,
2013-02-03 23:16:00,45.3,36.5,30.15,WNW,292,0.0,0.0,71,0.00,,---,0.00,VWS V14.01,2013-02-04 04:16:00,
2013-02-03 23:17:00,45.3,36.5,30.15,WNW,292,0.0,0.0,71,0.00,,---,0.00,VWS V14.01,2013-02-04 04:17:00,
2013-02-03 23:18:00,45.3,36.5,30.15,WNW,292,0.0,0.0,71,0.00,,---,0.00,VWS V14.01,2013-02-04 04:18:00,
2013-02-03 23:19:00,45.3,36.5,30.15,WNW,292,0.0,0.0,71,0.00,,---,0.00,VWS V14.01,2013-02-04 04:19:00,
2013-02-03 23:20:00,45.5,37.0,30.15,WNW,292,0.0,0.0,72,0.00,,---,0.00,VWS V14.01,2013-02-04 04:20:00,
2013-02-03 23:21:00,45.3,36.5,30.15,WNW,292,0.0,0.0,71,0.00,,---,0.00,VWS V14.01,2013-02-04 04:21:00,
2013-02-03 23:22:00,45.3,36.5,30.15,WNW,292,0.0,0.0,71,0.00,,---,0.00,VWS V14.01,2013-02-04 04:22:00,
2013-02-03 23:23:00,45.3,36.8,30.15,WNW,292,0.0,0.0,72,0.00,,---,0.00,VWS V14.01,2013-02-04 04:23:00,
2013-02-03 23:24:00,45.3,36.8,30.15,WNW,292,0.0,0.0,72,0.00,,---,0.00,VWS V14.01,2013-02-04 04:24:00,
2013-02-03 23:25:00,45.3,36.8,30.15,WNW,292,0.0,0.0,72,0.00,,---,0.00,VWS V14.01,2013-02-04 04:25:00,
2013-02-03 23:26:00,45.3,36.8,30.15,WNW,292,0.0,0.0,72,0.00,,---,0.00,VWS V14.01,2013-02-04 04:26:00,
2013-02-03 23:27:00,45.5,37.0,30.15,WNW,292,0.0,0.0,72,0.00,,---,0.00,VWS V14.01,2013-02-04 04:27:00,
2013-02-03 23:28:00,45.5,37.0,30.15,WNW,292,0.0,0.0,72,0.00,,---,0.00,VWS V14.01,2013-02-04 04:28:00,
2013-02-03 23:29:00,45.3,36.8,30.15,WNW,292,0.0,0.0,72,0.00,,---,0.00,VWS V14.01,2013-02-04 04:29:00,
2013-02-03 23:30:00,45.0,36.1,30.15,WNW,292,0.0,0.0,71,0.00,,---,0.00,VWS V14.01,2013-02-04 04:30:00,
2013-02-03 23:31:00,45.3,36.8,30.15,WNW,292,0.0,0.0,72,0.00,,---,0.00,VWS V14.01,2013-02-04 04:31:00,
2013-02-03 23:32:00,45.1,36.7,30.15,WNW,292,0.0,0.0,72,0.00,,---,0.00,VWS V14.01,2013-02-04 04:32:00,
2013-02-03 23:33:00,45.1,36.3,30.15,WNW,292,0.0,0.0,71,0.00,,---,0.00,VWS V14.01,2013-02-04 04:33:00,
2013-02-03 23:34:00,45.1,36.3,30.15,WNW,292,0.0,0.0,71,0.00,,---,0.00,VWS V14.01,2013-02-04 04:34:00,
2013-02-03 23:35:00,45.1,36.3,30.15,WNW,292,0.0,0.0,71,0.00,,---,0.00,VWS V14.01,2013-02-04 04:35:00,
2013-02-03 23:36:00,45.0,36.1,30.15,WNW,292,0.0,0.0,71,0.00,,---,0.00,VWS V14.01,2013-02-04 04:36:00,
2013-02-03 23:37:00,45.0,36.1,30.15,WNW,292,0.0,0.0,71,0.00,,---,0.00,VWS V14.01,2013-02-04 04:37:00,
2013-02-03 23:38:00,45.1,36.3,30.15,WNW,292,0.0,0.0,71,0.00,,---,0.00,VWS V14.01,2013-02-04 04:38:00,
2013-02-03 23:39:00,45.1,36.3,30.15,WNW,292,0.0,0.0,71,0.00,,---,0.00,VWS V14.01,2013-02-04 04:39:00,
2013-02-03 23:40:00,44.8,36.3,30.15,WNW,292,0.0,0.0,72,0.00,,---,0.00,VWS V14.01,2013-02-04 04:40:00,
2013-02-03 23:41:00,45.1,36.3,30.15,WNW,292,0.0,0.0,71,0.00,,---,0.00,VWS V14.01,2013-02-04 04:41:00,
2013-02-03 23:42:00,45.1,36.3,30.15,WNW,292,0.0,0.0,71,0.00,,---,0.00,VWS V14.01,2013-02-04 04:42:00,
2013-02-03 23:43:00,45.1,36.7,30.15,WNW,292,0.0,0.0,72,0.00,,---,0.00,VWS V14.01,2013-02-04 04:43:00,
2013-02-03 23:44:00,45.0,36.5,30.15,WNW,292,0.0,0.0,72,0.00,,---,0.00,VWS V14.01,2013-02-04 04:44:00,
2013-02-03 23:45:00,44.6,36.2,30.15,WNW,292,0.0,0.0,72,0.00,,---,0.00,VWS V14.01,2013-02-04 04:45:00,
2013-02-03 23:46:00,44.8,36.3,30.15,WNW,292,0.0,0.0,72,0.00,,---,0.00,VWS V14.01,2013-02-04 04:46:00,
2013-02-03 23:47:00,44.8,36.3,30.15,WNW,292,0.0,0.0,72,0.00,,---,0.00,VWS V14.01,2013-02-04 04:47:00,
2013-02-03 23:48:00,44.8,36.3,30.15,WNW,292,0.0,0.0,72,0.00,,---,0.00,VWS V14.01,2013-02-04 04:48:00,
2013-02-03 23:49:00,44.8,36.3,30.15,WNW,292,0.0,0.0,72,0.00,,---,0.00,VWS V14.01,2013-02-04 04:49:00,
2013-02-03 23:50:00,44.6,36.2,30.15,WNW,292,0.0,0.0,72,0.00,,---,0.00,VWS V14.01,2013-02-04 04:50:00,
2013-02-03 23:51:00,44.6,36.2,30.15,WNW,292,0.0,0.0,72,0.00,,---,0.00,VWS V14.01,2013-02-04 04:51:00,
2013-02-03 23:52:00,44.6,36.2,30.15,WNW,292,0.0,0.0,72,0.00,,---,0.00,VWS V14.01,2013-02-04 04:52:00,
2013-02-03 23:53:00,44.6,36.2,30.15,WNW,292,0.0,0.0,72,0.00,,---,0.00,VWS V14.01,2013-02-04 04:53:00,
2013-02-03 23:54:00,44.8,36.3,30.15,WNW,292,0.0,0.0,72,0.00,,---,0.00,VWS V14.01,2013-02-04 04:54:00,
2013-02-03 23:55:00,44.6,36.2,30.15,WNW,292,0.0,0.0,72,0.00,,---,0.00,VWS V14.01,2013-02-04 04:55:00,
2013-02-03 23:56:00,44.6,36.2,30.15,WNW,292,0.0,0.0,72,0.00,,---,0.00,VWS V14.01,2013-02-04 04:56:00,
2013-02-03 23:57:00,44.6,36.2,30.15,WNW,292,0.0,0.0,72,0.00,,---,0.00,VWS V14.01,2013-02-04 04:57:00,
2013-02-03 23:58:00,44.6,36.2,30.15,WNW,292,0.0,0.0,72,0.00,,---,0.00,VWS V14.01,2013-02-04 04:58:00,
2013-02-03 23:59:00,44.6,36.2,30.15,WNW,292,0.0,0.0,72,0.00,,---,0.00,VWS V14.01,2013-02-04 04:59:00,